<?xml version="1.0" encoding="UTF-8" standalone="no" ?>
<gpx xmlns="http://www.topografix.com/GPX/1/1" xmlns:xsi="http://www.w3.org/2001/XMLSchema-instance" xsi:schemaLocation="http://www.topografix.com/GPX/1/1 http://www.topografix.com/GPX/1/1/gpx.xsd" version="1.1" creator="VisuGPX - https://www.visugpx.com">
  <metadata>
    <name>VTT - 44,92 kms - secteur Sud/Ouest</name>
  </metadata>
  <trk>
    <name><![CDATA[La Chapelle-de-Guinchay VTTAE]]></name>
    <trkseg>
      <trkpt lat="46.21442" lon="4.75501">
        <ele>184.19999694824</ele>
        <time>2020-03-20T13:52:48.000Z</time>
      </trkpt>
      <trkpt lat="46.21441" lon="4.75501">
        <ele>184.19999694824</ele>
        <time>2020-03-20T13:52:49.000Z</time>
      </trkpt>
      <trkpt lat="46.21437" lon="4.755">
        <ele>184.19999694824</ele>
        <time>2020-03-20T13:53:16.000Z</time>
      </trkpt>
      <trkpt lat="46.21432" lon="4.75497">
        <ele>184.19999694824</ele>
        <time>2020-03-20T13:53:20.000Z</time>
      </trkpt>
      <trkpt lat="46.21426" lon="4.75495">
        <ele>184.39999389648</ele>
        <time>2020-03-20T13:53:34.000Z</time>
      </trkpt>
      <trkpt lat="46.21425" lon="4.75495">
        <ele>184.39999389648</ele>
        <time>2020-03-20T13:53:40.000Z</time>
      </trkpt>
      <trkpt lat="46.21422" lon="4.75496">
        <ele>184.39999389648</ele>
        <time>2020-03-20T13:53:42.000Z</time>
      </trkpt>
      <trkpt lat="46.21419" lon="4.75497">
        <ele>184.39999389648</ele>
        <time>2020-03-20T13:53:43.000Z</time>
      </trkpt>
      <trkpt lat="46.21416" lon="4.755">
        <ele>184.39999389648</ele>
        <time>2020-03-20T13:53:44.000Z</time>
      </trkpt>
      <trkpt lat="46.21413" lon="4.75504">
        <ele>184.39999389648</ele>
        <time>2020-03-20T13:53:45.000Z</time>
      </trkpt>
      <trkpt lat="46.2141" lon="4.7551">
        <ele>184.39999389648</ele>
        <time>2020-03-20T13:53:46.000Z</time>
      </trkpt>
      <trkpt lat="46.21407" lon="4.75515">
        <ele>184.19999694824</ele>
        <time>2020-03-20T13:53:47.000Z</time>
      </trkpt>
      <trkpt lat="46.21353" lon="4.75616">
        <ele>182.19999694824</ele>
        <time>2020-03-20T13:54:02.000Z</time>
      </trkpt>
      <trkpt lat="46.21339" lon="4.75658">
        <ele>181.80000305176</ele>
        <time>2020-03-20T13:54:08.000Z</time>
      </trkpt>
      <trkpt lat="46.21347" lon="4.75689">
        <ele>181.80000305176</ele>
        <time>2020-03-20T13:54:14.000Z</time>
      </trkpt>
      <trkpt lat="46.21356" lon="4.75696">
        <ele>182</ele>
        <time>2020-03-20T13:54:16.000Z</time>
      </trkpt>
      <trkpt lat="46.21381" lon="4.75709">
        <ele>183.19999694824</ele>
        <time>2020-03-20T13:54:21.000Z</time>
      </trkpt>
      <trkpt lat="46.21405" lon="4.75702">
        <ele>184</ele>
        <time>2020-03-20T13:54:26.000Z</time>
      </trkpt>
      <trkpt lat="46.21484" lon="4.75625">
        <ele>185</ele>
        <time>2020-03-20T13:54:43.000Z</time>
      </trkpt>
      <trkpt lat="46.21488" lon="4.75621">
        <ele>185</ele>
        <time>2020-03-20T13:54:44.000Z</time>
      </trkpt>
      <trkpt lat="46.21525" lon="4.75578">
        <ele>185.60000610352</ele>
        <time>2020-03-20T13:54:53.000Z</time>
      </trkpt>
      <trkpt lat="46.21533" lon="4.75566">
        <ele>185.80000305176</ele>
        <time>2020-03-20T13:54:55.000Z</time>
      </trkpt>
      <trkpt lat="46.21557" lon="4.75469">
        <ele>186.19999694824</ele>
        <time>2020-03-20T13:55:07.000Z</time>
      </trkpt>
      <trkpt lat="46.2157" lon="4.75391">
        <ele>186.19999694824</ele>
        <time>2020-03-20T13:55:16.000Z</time>
      </trkpt>
      <trkpt lat="46.21627" lon="4.75291">
        <ele>186.39999389648</ele>
        <time>2020-03-20T13:55:31.000Z</time>
      </trkpt>
      <trkpt lat="46.21663" lon="4.75247">
        <ele>186.80000305176</ele>
        <time>2020-03-20T13:55:39.000Z</time>
      </trkpt>
      <trkpt lat="46.21703" lon="4.75132">
        <ele>187.39999389648</ele>
        <time>2020-03-20T13:55:54.000Z</time>
      </trkpt>
      <trkpt lat="46.21715" lon="4.75113">
        <ele>187.60000610352</ele>
        <time>2020-03-20T13:55:57.000Z</time>
      </trkpt>
      <trkpt lat="46.21761" lon="4.75004">
        <ele>188.19999694824</ele>
        <time>2020-03-20T13:56:12.000Z</time>
      </trkpt>
      <trkpt lat="46.21765" lon="4.74997">
        <ele>188.19999694824</ele>
        <time>2020-03-20T13:56:13.000Z</time>
      </trkpt>
      <trkpt lat="46.21814" lon="4.74871">
        <ele>189.19999694824</ele>
        <time>2020-03-20T13:56:30.000Z</time>
      </trkpt>
      <trkpt lat="46.21844" lon="4.74858">
        <ele>189.80000305176</ele>
        <time>2020-03-20T13:56:36.000Z</time>
      </trkpt>
      <trkpt lat="46.2191" lon="4.7489">
        <ele>190.80000305176</ele>
        <time>2020-03-20T13:56:48.000Z</time>
      </trkpt>
      <trkpt lat="46.21921" lon="4.74892">
        <ele>191</ele>
        <time>2020-03-20T13:56:50.000Z</time>
      </trkpt>
      <trkpt lat="46.21926" lon="4.74891">
        <ele>191</ele>
        <time>2020-03-20T13:56:51.000Z</time>
      </trkpt>
      <trkpt lat="46.2193" lon="4.74888">
        <ele>191</ele>
        <time>2020-03-20T13:56:52.000Z</time>
      </trkpt>
      <trkpt lat="46.21935" lon="4.74885">
        <ele>191.19999694824</ele>
        <time>2020-03-20T13:56:53.000Z</time>
      </trkpt>
      <trkpt lat="46.21939" lon="4.74882">
        <ele>191.39999389648</ele>
        <time>2020-03-20T13:56:54.000Z</time>
      </trkpt>
      <trkpt lat="46.21947" lon="4.74875">
        <ele>191.60000610352</ele>
        <time>2020-03-20T13:56:56.000Z</time>
      </trkpt>
      <trkpt lat="46.2196" lon="4.74854">
        <ele>193.39999389648</ele>
        <time>2020-03-20T13:57:00.000Z</time>
      </trkpt>
      <trkpt lat="46.22025" lon="4.74728">
        <ele>196.19999694824</ele>
        <time>2020-03-20T13:57:19.000Z</time>
      </trkpt>
      <trkpt lat="46.22039" lon="4.74706">
        <ele>196.60000610352</ele>
        <time>2020-03-20T13:57:23.000Z</time>
      </trkpt>
      <trkpt lat="46.22055" lon="4.74686">
        <ele>197.19999694824</ele>
        <time>2020-03-20T13:57:27.000Z</time>
      </trkpt>
      <trkpt lat="46.22065" lon="4.74679">
        <ele>197.39999389648</ele>
        <time>2020-03-20T13:57:29.000Z</time>
      </trkpt>
      <trkpt lat="46.22082" lon="4.74651">
        <ele>198</ele>
        <time>2020-03-20T13:57:34.000Z</time>
      </trkpt>
      <trkpt lat="46.22092" lon="4.74624">
        <ele>198.39999389648</ele>
        <time>2020-03-20T13:57:38.000Z</time>
      </trkpt>
      <trkpt lat="46.2211" lon="4.74621">
        <ele>199.60000610352</ele>
        <time>2020-03-20T13:57:43.000Z</time>
      </trkpt>
      <trkpt lat="46.22144" lon="4.74677">
        <ele>201.19999694824</ele>
        <time>2020-03-20T13:57:55.000Z</time>
      </trkpt>
      <trkpt lat="46.22155" lon="4.74666">
        <ele>204.39999389648</ele>
        <time>2020-03-20T13:58:01.000Z</time>
      </trkpt>
      <trkpt lat="46.22157" lon="4.7466">
        <ele>204.80000305176</ele>
        <time>2020-03-20T13:58:02.000Z</time>
      </trkpt>
      <trkpt lat="46.22168" lon="4.74612">
        <ele>206.19999694824</ele>
        <time>2020-03-20T13:58:10.000Z</time>
      </trkpt>
      <trkpt lat="46.22159" lon="4.74594">
        <ele>206</ele>
        <time>2020-03-20T13:58:13.000Z</time>
      </trkpt>
      <trkpt lat="46.22147" lon="4.74549">
        <ele>205.60000610352</ele>
        <time>2020-03-20T13:58:18.000Z</time>
      </trkpt>
      <trkpt lat="46.22149" lon="4.74507">
        <ele>204</ele>
        <time>2020-03-20T13:58:22.000Z</time>
      </trkpt>
      <trkpt lat="46.22149" lon="4.74492">
        <ele>203.19999694824</ele>
        <time>2020-03-20T13:58:24.000Z</time>
      </trkpt>
      <trkpt lat="46.22147" lon="4.7447">
        <ele>201.80000305176</ele>
        <time>2020-03-20T13:58:28.000Z</time>
      </trkpt>
      <trkpt lat="46.22133" lon="4.7445">
        <ele>200.60000610352</ele>
        <time>2020-03-20T13:58:32.000Z</time>
      </trkpt>
      <trkpt lat="46.22069" lon="4.74412">
        <ele>197.19999694824</ele>
        <time>2020-03-20T13:58:43.000Z</time>
      </trkpt>
      <trkpt lat="46.22023" lon="4.74396">
        <ele>195.39999389648</ele>
        <time>2020-03-20T13:58:50.000Z</time>
      </trkpt>
      <trkpt lat="46.21935" lon="4.74373">
        <ele>194.39999389648</ele>
        <time>2020-03-20T13:59:05.000Z</time>
      </trkpt>
      <trkpt lat="46.21876" lon="4.74336">
        <ele>195.19999694824</ele>
        <time>2020-03-20T13:59:16.000Z</time>
      </trkpt>
      <trkpt lat="46.21859" lon="4.74327">
        <ele>195.60000610352</ele>
        <time>2020-03-20T13:59:19.000Z</time>
      </trkpt>
      <trkpt lat="46.21839" lon="4.74311">
        <ele>196.19999694824</ele>
        <time>2020-03-20T13:59:23.000Z</time>
      </trkpt>
      <trkpt lat="46.21821" lon="4.74289">
        <ele>197.19999694824</ele>
        <time>2020-03-20T13:59:27.000Z</time>
      </trkpt>
      <trkpt lat="46.21791" lon="4.74269">
        <ele>198.39999389648</ele>
        <time>2020-03-20T13:59:33.000Z</time>
      </trkpt>
      <trkpt lat="46.21731" lon="4.74254">
        <ele>202</ele>
        <time>2020-03-20T13:59:45.000Z</time>
      </trkpt>
      <trkpt lat="46.21682" lon="4.74216">
        <ele>205.19999694824</ele>
        <time>2020-03-20T13:59:56.000Z</time>
      </trkpt>
      <trkpt lat="46.21611" lon="4.74135">
        <ele>208.39999389648</ele>
        <time>2020-03-20T14:00:13.000Z</time>
      </trkpt>
      <trkpt lat="46.21597" lon="4.74118">
        <ele>209.60000610352</ele>
        <time>2020-03-20T14:00:17.000Z</time>
      </trkpt>
      <trkpt lat="46.21593" lon="4.74092">
        <ele>210.80000305176</ele>
        <time>2020-03-20T14:00:22.000Z</time>
      </trkpt>
      <trkpt lat="46.21615" lon="4.74041">
        <ele>214.19999694824</ele>
        <time>2020-03-20T14:00:31.000Z</time>
      </trkpt>
      <trkpt lat="46.21645" lon="4.73971">
        <ele>217.19999694824</ele>
        <time>2020-03-20T14:00:43.000Z</time>
      </trkpt>
      <trkpt lat="46.21669" lon="4.73885">
        <ele>220.60000610352</ele>
        <time>2020-03-20T14:00:57.000Z</time>
      </trkpt>
      <trkpt lat="46.21669" lon="4.73878">
        <ele>221</ele>
        <time>2020-03-20T14:00:58.000Z</time>
      </trkpt>
      <trkpt lat="46.21674" lon="4.7384">
        <ele>222.80000305176</ele>
        <time>2020-03-20T14:01:04.000Z</time>
      </trkpt>
      <trkpt lat="46.21688" lon="4.73799">
        <ele>224.60000610352</ele>
        <time>2020-03-20T14:01:11.000Z</time>
      </trkpt>
      <trkpt lat="46.21729" lon="4.73739">
        <ele>228</ele>
        <time>2020-03-20T14:01:24.000Z</time>
      </trkpt>
      <trkpt lat="46.21735" lon="4.7373">
        <ele>228.80000305176</ele>
        <time>2020-03-20T14:01:26.000Z</time>
      </trkpt>
      <trkpt lat="46.21734" lon="4.73678">
        <ele>231.39999389648</ele>
        <time>2020-03-20T14:01:36.000Z</time>
      </trkpt>
      <trkpt lat="46.2173" lon="4.73675">
        <ele>231.60000610352</ele>
        <time>2020-03-20T14:01:37.000Z</time>
      </trkpt>
      <trkpt lat="46.21722" lon="4.73669">
        <ele>231.80000305176</ele>
        <time>2020-03-20T14:01:39.000Z</time>
      </trkpt>
      <trkpt lat="46.21655" lon="4.7363">
        <ele>231.19999694824</ele>
        <time>2020-03-20T14:01:52.000Z</time>
      </trkpt>
      <trkpt lat="46.21565" lon="4.73574">
        <ele>228.19999694824</ele>
        <time>2020-03-20T14:02:08.000Z</time>
      </trkpt>
      <trkpt lat="46.21509" lon="4.73544">
        <ele>224.60000610352</ele>
        <time>2020-03-20T14:02:18.000Z</time>
      </trkpt>
      <trkpt lat="46.21503" lon="4.73543">
        <ele>223.60000610352</ele>
        <time>2020-03-20T14:02:20.000Z</time>
      </trkpt>
      <trkpt lat="46.21493" lon="4.73554">
        <ele>222.39999389648</ele>
        <time>2020-03-20T14:02:23.000Z</time>
      </trkpt>
      <trkpt lat="46.21479" lon="4.73574">
        <ele>222</ele>
        <time>2020-03-20T14:02:27.000Z</time>
      </trkpt>
      <trkpt lat="46.2146" lon="4.73569">
        <ele>221</ele>
        <time>2020-03-20T14:02:32.000Z</time>
      </trkpt>
      <trkpt lat="46.21418" lon="4.73558">
        <ele>219.80000305176</ele>
        <time>2020-03-20T14:02:40.000Z</time>
      </trkpt>
      <trkpt lat="46.21346" lon="4.73585">
        <ele>217</ele>
        <time>2020-03-20T14:02:53.000Z</time>
      </trkpt>
      <trkpt lat="46.21282" lon="4.73616">
        <ele>214.19999694824</ele>
        <time>2020-03-20T14:03:06.000Z</time>
      </trkpt>
      <trkpt lat="46.21251" lon="4.73641">
        <ele>213.60000610352</ele>
        <time>2020-03-20T14:03:15.000Z</time>
      </trkpt>
      <trkpt lat="46.21247" lon="4.73645">
        <ele>213.60000610352</ele>
        <time>2020-03-20T14:03:16.000Z</time>
      </trkpt>
      <trkpt lat="46.21236" lon="4.7366">
        <ele>212.60000610352</ele>
        <time>2020-03-20T14:03:19.000Z</time>
      </trkpt>
      <trkpt lat="46.21225" lon="4.73688">
        <ele>211.60000610352</ele>
        <time>2020-03-20T14:03:24.000Z</time>
      </trkpt>
      <trkpt lat="46.21223" lon="4.73698">
        <ele>211.19999694824</ele>
        <time>2020-03-20T14:03:26.000Z</time>
      </trkpt>
      <trkpt lat="46.21217" lon="4.73697">
        <ele>210</ele>
        <time>2020-03-20T14:03:33.000Z</time>
      </trkpt>
      <trkpt lat="46.21202" lon="4.73604">
        <ele>208</ele>
        <time>2020-03-20T14:03:44.000Z</time>
      </trkpt>
      <trkpt lat="46.21199" lon="4.7359">
        <ele>207.19999694824</ele>
        <time>2020-03-20T14:03:46.000Z</time>
      </trkpt>
      <trkpt lat="46.21187" lon="4.73575">
        <ele>206</ele>
        <time>2020-03-20T14:03:49.000Z</time>
      </trkpt>
      <trkpt lat="46.21175" lon="4.7357">
        <ele>205.60000610352</ele>
        <time>2020-03-20T14:03:51.000Z</time>
      </trkpt>
      <trkpt lat="46.21149" lon="4.73558">
        <ele>205.19999694824</ele>
        <time>2020-03-20T14:03:56.000Z</time>
      </trkpt>
      <trkpt lat="46.2113" lon="4.73549">
        <ele>205.39999389648</ele>
        <time>2020-03-20T14:04:00.000Z</time>
      </trkpt>
      <trkpt lat="46.21114" lon="4.73538">
        <ele>206.60000610352</ele>
        <time>2020-03-20T14:04:04.000Z</time>
      </trkpt>
      <trkpt lat="46.2111" lon="4.73536">
        <ele>207.19999694824</ele>
        <time>2020-03-20T14:04:05.000Z</time>
      </trkpt>
      <trkpt lat="46.21091" lon="4.73529">
        <ele>210.19999694824</ele>
        <time>2020-03-20T14:04:10.000Z</time>
      </trkpt>
      <trkpt lat="46.21083" lon="4.73528">
        <ele>211.80000305176</ele>
        <time>2020-03-20T14:04:12.000Z</time>
      </trkpt>
      <trkpt lat="46.21074" lon="4.7351">
        <ele>216</ele>
        <time>2020-03-20T14:04:17.000Z</time>
      </trkpt>
      <trkpt lat="46.21074" lon="4.73505">
        <ele>216</ele>
        <time>2020-03-20T14:04:18.000Z</time>
      </trkpt>
      <trkpt lat="46.21075" lon="4.7348">
        <ele>217</ele>
        <time>2020-03-20T14:04:22.000Z</time>
      </trkpt>
      <trkpt lat="46.21067" lon="4.73438">
        <ele>218.39999389648</ele>
        <time>2020-03-20T14:04:29.000Z</time>
      </trkpt>
      <trkpt lat="46.21054" lon="4.7334">
        <ele>221.80000305176</ele>
        <time>2020-03-20T14:04:43.000Z</time>
      </trkpt>
      <trkpt lat="46.21039" lon="4.73289">
        <ele>224</ele>
        <time>2020-03-20T14:04:51.000Z</time>
      </trkpt>
      <trkpt lat="46.21036" lon="4.73262">
        <ele>225.19999694824</ele>
        <time>2020-03-20T14:04:55.000Z</time>
      </trkpt>
      <trkpt lat="46.21034" lon="4.73186">
        <ele>228.80000305176</ele>
        <time>2020-03-20T14:05:06.000Z</time>
      </trkpt>
      <trkpt lat="46.21007" lon="4.73087">
        <ele>231.19999694824</ele>
        <time>2020-03-20T14:05:21.000Z</time>
      </trkpt>
      <trkpt lat="46.21002" lon="4.73076">
        <ele>231.60000610352</ele>
        <time>2020-03-20T14:05:23.000Z</time>
      </trkpt>
      <trkpt lat="46.20973" lon="4.72972">
        <ele>234.80000305176</ele>
        <time>2020-03-20T14:05:39.000Z</time>
      </trkpt>
      <trkpt lat="46.20965" lon="4.72854">
        <ele>237.60000610352</ele>
        <time>2020-03-20T14:05:56.000Z</time>
      </trkpt>
      <trkpt lat="46.2095" lon="4.72785">
        <ele>240</ele>
        <time>2020-03-20T14:06:09.000Z</time>
      </trkpt>
      <trkpt lat="46.20947" lon="4.7277">
        <ele>240.60000610352</ele>
        <time>2020-03-20T14:06:12.000Z</time>
      </trkpt>
      <trkpt lat="46.20942" lon="4.7268">
        <ele>244.19999694824</ele>
        <time>2020-03-20T14:06:25.000Z</time>
      </trkpt>
      <trkpt lat="46.20932" lon="4.72597">
        <ele>247.39999389648</ele>
        <time>2020-03-20T14:06:37.000Z</time>
      </trkpt>
      <trkpt lat="46.20929" lon="4.72527">
        <ele>250.39999389648</ele>
        <time>2020-03-20T14:06:47.000Z</time>
      </trkpt>
      <trkpt lat="46.20929" lon="4.72482">
        <ele>252.60000610352</ele>
        <time>2020-03-20T14:06:56.000Z</time>
      </trkpt>
      <trkpt lat="46.20924" lon="4.72478">
        <ele>253.19999694824</ele>
        <time>2020-03-20T14:06:58.000Z</time>
      </trkpt>
      <trkpt lat="46.20915" lon="4.72477">
        <ele>253.80000305176</ele>
        <time>2020-03-20T14:07:00.000Z</time>
      </trkpt>
      <trkpt lat="46.20874" lon="4.72461">
        <ele>255.60000610352</ele>
        <time>2020-03-20T14:07:11.000Z</time>
      </trkpt>
      <trkpt lat="46.20876" lon="4.72432">
        <ele>256.20001220703</ele>
        <time>2020-03-20T14:07:16.000Z</time>
      </trkpt>
      <trkpt lat="46.20901" lon="4.72295">
        <ele>259.20001220703</ele>
        <time>2020-03-20T14:07:35.000Z</time>
      </trkpt>
      <trkpt lat="46.20902" lon="4.72196">
        <ele>261</ele>
        <time>2020-03-20T14:07:47.000Z</time>
      </trkpt>
      <trkpt lat="46.20905" lon="4.72129">
        <ele>262</ele>
        <time>2020-03-20T14:07:55.000Z</time>
      </trkpt>
      <trkpt lat="46.20909" lon="4.72081">
        <ele>263.39999389648</ele>
        <time>2020-03-20T14:08:01.000Z</time>
      </trkpt>
      <trkpt lat="46.20906" lon="4.72014">
        <ele>266</ele>
        <time>2020-03-20T14:08:10.000Z</time>
      </trkpt>
      <trkpt lat="46.20881" lon="4.72009">
        <ele>268</ele>
        <time>2020-03-20T14:08:16.000Z</time>
      </trkpt>
      <trkpt lat="46.20868" lon="4.71982">
        <ele>269.60000610352</ele>
        <time>2020-03-20T14:08:21.000Z</time>
      </trkpt>
      <trkpt lat="46.20869" lon="4.71975">
        <ele>269.79998779297</ele>
        <time>2020-03-20T14:08:22.000Z</time>
      </trkpt>
      <trkpt lat="46.20875" lon="4.71954">
        <ele>270</ele>
        <time>2020-03-20T14:08:25.000Z</time>
      </trkpt>
      <trkpt lat="46.2088" lon="4.71931">
        <ele>271.39999389648</ele>
        <time>2020-03-20T14:08:28.000Z</time>
      </trkpt>
      <trkpt lat="46.20882" lon="4.719">
        <ele>273.79998779297</ele>
        <time>2020-03-20T14:08:32.000Z</time>
      </trkpt>
      <trkpt lat="46.20878" lon="4.71829">
        <ele>277.39999389648</ele>
        <time>2020-03-20T14:08:41.000Z</time>
      </trkpt>
      <trkpt lat="46.20859" lon="4.71783">
        <ele>280</ele>
        <time>2020-03-20T14:08:48.000Z</time>
      </trkpt>
      <trkpt lat="46.20865" lon="4.71755">
        <ele>281.79998779297</ele>
        <time>2020-03-20T14:08:53.000Z</time>
      </trkpt>
      <trkpt lat="46.20903" lon="4.71664">
        <ele>285.20001220703</ele>
        <time>2020-03-20T14:09:06.000Z</time>
      </trkpt>
      <trkpt lat="46.20926" lon="4.71604">
        <ele>288.39999389648</ele>
        <time>2020-03-20T14:09:15.000Z</time>
      </trkpt>
      <trkpt lat="46.2094" lon="4.71563">
        <ele>291.60000610352</ele>
        <time>2020-03-20T14:09:21.000Z</time>
      </trkpt>
      <trkpt lat="46.20951" lon="4.71527">
        <ele>295.20001220703</ele>
        <time>2020-03-20T14:09:27.000Z</time>
      </trkpt>
      <trkpt lat="46.20952" lon="4.71523">
        <ele>295.79998779297</ele>
        <time>2020-03-20T14:09:28.000Z</time>
      </trkpt>
      <trkpt lat="46.2094" lon="4.71508">
        <ele>300</ele>
        <time>2020-03-20T14:09:34.000Z</time>
      </trkpt>
      <trkpt lat="46.20915" lon="4.71508">
        <ele>302.79998779297</ele>
        <time>2020-03-20T14:09:40.000Z</time>
      </trkpt>
      <trkpt lat="46.20864" lon="4.71501">
        <ele>305.60000610352</ele>
        <time>2020-03-20T14:09:50.000Z</time>
      </trkpt>
      <trkpt lat="46.20853" lon="4.71469">
        <ele>306.79998779297</ele>
        <time>2020-03-20T14:09:57.000Z</time>
      </trkpt>
      <trkpt lat="46.20865" lon="4.71385">
        <ele>310.39999389648</ele>
        <time>2020-03-20T14:10:09.000Z</time>
      </trkpt>
      <trkpt lat="46.20868" lon="4.71359">
        <ele>313.79998779297</ele>
        <time>2020-03-20T14:10:13.000Z</time>
      </trkpt>
      <trkpt lat="46.20874" lon="4.71326">
        <ele>317.20001220703</ele>
        <time>2020-03-20T14:10:18.000Z</time>
      </trkpt>
      <trkpt lat="46.20879" lon="4.71294">
        <ele>320.79998779297</ele>
        <time>2020-03-20T14:10:23.000Z</time>
      </trkpt>
      <trkpt lat="46.20884" lon="4.71261">
        <ele>324</ele>
        <time>2020-03-20T14:10:28.000Z</time>
      </trkpt>
      <trkpt lat="46.2089" lon="4.71219">
        <ele>328</ele>
        <time>2020-03-20T14:10:35.000Z</time>
      </trkpt>
      <trkpt lat="46.20893" lon="4.71183">
        <ele>331</ele>
        <time>2020-03-20T14:10:41.000Z</time>
      </trkpt>
      <trkpt lat="46.20895" lon="4.71149">
        <ele>334.39999389648</ele>
        <time>2020-03-20T14:10:47.000Z</time>
      </trkpt>
      <trkpt lat="46.20895" lon="4.71128">
        <ele>337.39999389648</ele>
        <time>2020-03-20T14:10:51.000Z</time>
      </trkpt>
      <trkpt lat="46.209" lon="4.71106">
        <ele>340.20001220703</ele>
        <time>2020-03-20T14:10:55.000Z</time>
      </trkpt>
      <trkpt lat="46.20909" lon="4.71067">
        <ele>344.20001220703</ele>
        <time>2020-03-20T14:11:02.000Z</time>
      </trkpt>
      <trkpt lat="46.20907" lon="4.71057">
        <ele>344.79998779297</ele>
        <time>2020-03-20T14:11:04.000Z</time>
      </trkpt>
      <trkpt lat="46.20892" lon="4.71034">
        <ele>346.79998779297</ele>
        <time>2020-03-20T14:11:09.000Z</time>
      </trkpt>
      <trkpt lat="46.20886" lon="4.71025">
        <ele>347.60000610352</ele>
        <time>2020-03-20T14:11:11.000Z</time>
      </trkpt>
      <trkpt lat="46.20884" lon="4.71014">
        <ele>348.79998779297</ele>
        <time>2020-03-20T14:11:13.000Z</time>
      </trkpt>
      <trkpt lat="46.20885" lon="4.70995">
        <ele>349</ele>
        <time>2020-03-20T14:11:16.000Z</time>
      </trkpt>
      <trkpt lat="46.209" lon="4.70931">
        <ele>350.20001220703</ele>
        <time>2020-03-20T14:11:26.000Z</time>
      </trkpt>
      <trkpt lat="46.20925" lon="4.7089">
        <ele>351</ele>
        <time>2020-03-20T14:11:35.000Z</time>
      </trkpt>
      <trkpt lat="46.20937" lon="4.70814">
        <ele>354.20001220703</ele>
        <time>2020-03-20T14:11:46.000Z</time>
      </trkpt>
      <trkpt lat="46.20941" lon="4.70767">
        <ele>357.20001220703</ele>
        <time>2020-03-20T14:11:53.000Z</time>
      </trkpt>
      <trkpt lat="46.20943" lon="4.7073">
        <ele>360.20001220703</ele>
        <time>2020-03-20T14:11:59.000Z</time>
      </trkpt>
      <trkpt lat="46.20944" lon="4.70702">
        <ele>363.60000610352</ele>
        <time>2020-03-20T14:12:04.000Z</time>
      </trkpt>
      <trkpt lat="46.20941" lon="4.70673">
        <ele>366.79998779297</ele>
        <time>2020-03-20T14:12:09.000Z</time>
      </trkpt>
      <trkpt lat="46.20938" lon="4.70637">
        <ele>370.39999389648</ele>
        <time>2020-03-20T14:12:15.000Z</time>
      </trkpt>
      <trkpt lat="46.20934" lon="4.70602">
        <ele>373.39999389648</ele>
        <time>2020-03-20T14:12:21.000Z</time>
      </trkpt>
      <trkpt lat="46.20933" lon="4.70579">
        <ele>376.60000610352</ele>
        <time>2020-03-20T14:12:25.000Z</time>
      </trkpt>
      <trkpt lat="46.20931" lon="4.70548">
        <ele>380</ele>
        <time>2020-03-20T14:12:31.000Z</time>
      </trkpt>
      <trkpt lat="46.20925" lon="4.70518">
        <ele>383.20001220703</ele>
        <time>2020-03-20T14:12:37.000Z</time>
      </trkpt>
      <trkpt lat="46.20921" lon="4.70496">
        <ele>386.39999389648</ele>
        <time>2020-03-20T14:12:42.000Z</time>
      </trkpt>
      <trkpt lat="46.20919" lon="4.70482">
        <ele>389</ele>
        <time>2020-03-20T14:12:46.000Z</time>
      </trkpt>
      <trkpt lat="46.20925" lon="4.70469">
        <ele>392.20001220703</ele>
        <time>2020-03-20T14:12:50.000Z</time>
      </trkpt>
      <trkpt lat="46.20939" lon="4.70458">
        <ele>395.39999389648</ele>
        <time>2020-03-20T14:12:56.000Z</time>
      </trkpt>
      <trkpt lat="46.20973" lon="4.7043">
        <ele>398.39999389648</ele>
        <time>2020-03-20T14:13:09.000Z</time>
      </trkpt>
      <trkpt lat="46.20975" lon="4.70426">
        <ele>398.60000610352</ele>
        <time>2020-03-20T14:13:10.000Z</time>
      </trkpt>
      <trkpt lat="46.20977" lon="4.70417">
        <ele>398.60000610352</ele>
        <time>2020-03-20T14:13:12.000Z</time>
      </trkpt>
      <trkpt lat="46.20974" lon="4.70344">
        <ele>398.60000610352</ele>
        <time>2020-03-20T14:13:23.000Z</time>
      </trkpt>
      <trkpt lat="46.20976" lon="4.70331">
        <ele>398.60000610352</ele>
        <time>2020-03-20T14:13:25.000Z</time>
      </trkpt>
      <trkpt lat="46.20976" lon="4.70256">
        <ele>402.39999389648</ele>
        <time>2020-03-20T14:13:37.000Z</time>
      </trkpt>
      <trkpt lat="46.20976" lon="4.7025">
        <ele>402.39999389648</ele>
        <time>2020-03-20T14:13:38.000Z</time>
      </trkpt>
      <trkpt lat="46.20976" lon="4.70239">
        <ele>404.20001220703</ele>
        <time>2020-03-20T14:13:40.000Z</time>
      </trkpt>
      <trkpt lat="46.20975" lon="4.70204">
        <ele>408</ele>
        <time>2020-03-20T14:13:46.000Z</time>
      </trkpt>
      <trkpt lat="46.20977" lon="4.70173">
        <ele>411.20001220703</ele>
        <time>2020-03-20T14:13:52.000Z</time>
      </trkpt>
      <trkpt lat="46.20976" lon="4.70148">
        <ele>414.60000610352</ele>
        <time>2020-03-20T14:13:57.000Z</time>
      </trkpt>
      <trkpt lat="46.20974" lon="4.70123">
        <ele>417.60000610352</ele>
        <time>2020-03-20T14:14:02.000Z</time>
      </trkpt>
      <trkpt lat="46.20974" lon="4.70104">
        <ele>420.79998779297</ele>
        <time>2020-03-20T14:14:06.000Z</time>
      </trkpt>
      <trkpt lat="46.20976" lon="4.70067">
        <ele>424</ele>
        <time>2020-03-20T14:14:13.000Z</time>
      </trkpt>
      <trkpt lat="46.20981" lon="4.7003">
        <ele>426.60000610352</ele>
        <time>2020-03-20T14:14:20.000Z</time>
      </trkpt>
      <trkpt lat="46.20978" lon="4.7">
        <ele>429</ele>
        <time>2020-03-20T14:14:26.000Z</time>
      </trkpt>
      <trkpt lat="46.20975" lon="4.69979">
        <ele>432.20001220703</ele>
        <time>2020-03-20T14:14:30.000Z</time>
      </trkpt>
      <trkpt lat="46.2097" lon="4.6995">
        <ele>435.60000610352</ele>
        <time>2020-03-20T14:14:37.000Z</time>
      </trkpt>
      <trkpt lat="46.20965" lon="4.69916">
        <ele>438.79998779297</ele>
        <time>2020-03-20T14:14:44.000Z</time>
      </trkpt>
      <trkpt lat="46.20971" lon="4.69863">
        <ele>442.20001220703</ele>
        <time>2020-03-20T14:14:56.000Z</time>
      </trkpt>
      <trkpt lat="46.20987" lon="4.69856">
        <ele>444.60000610352</ele>
        <time>2020-03-20T14:15:02.000Z</time>
      </trkpt>
      <trkpt lat="46.20993" lon="4.69855">
        <ele>448.20001220703</ele>
        <time>2020-03-20T14:15:09.000Z</time>
      </trkpt>
      <trkpt lat="46.20985" lon="4.69857">
        <ele>451.20001220703</ele>
        <time>2020-03-20T14:15:23.000Z</time>
      </trkpt>
      <trkpt lat="46.20979" lon="4.6986">
        <ele>451.20001220703</ele>
        <time>2020-03-20T14:15:26.000Z</time>
      </trkpt>
      <trkpt lat="46.20977" lon="4.69842">
        <ele>449.39999389648</ele>
        <time>2020-03-20T14:15:33.000Z</time>
      </trkpt>
      <trkpt lat="46.21012" lon="4.69806">
        <ele>450.39999389648</ele>
        <time>2020-03-20T14:15:46.000Z</time>
      </trkpt>
      <trkpt lat="46.21039" lon="4.69773">
        <ele>453.79998779297</ele>
        <time>2020-03-20T14:15:57.000Z</time>
      </trkpt>
      <trkpt lat="46.21067" lon="4.69747">
        <ele>456.79998779297</ele>
        <time>2020-03-20T14:16:06.000Z</time>
      </trkpt>
      <trkpt lat="46.21092" lon="4.69719">
        <ele>460.20001220703</ele>
        <time>2020-03-20T14:16:15.000Z</time>
      </trkpt>
      <trkpt lat="46.21113" lon="4.69698">
        <ele>463.39999389648</ele>
        <time>2020-03-20T14:16:22.000Z</time>
      </trkpt>
      <trkpt lat="46.21151" lon="4.69665">
        <ele>466</ele>
        <time>2020-03-20T14:16:35.000Z</time>
      </trkpt>
      <trkpt lat="46.21168" lon="4.69652">
        <ele>467.39999389648</ele>
        <time>2020-03-20T14:16:41.000Z</time>
      </trkpt>
      <trkpt lat="46.21207" lon="4.69641">
        <ele>469.79998779297</ele>
        <time>2020-03-20T14:16:53.000Z</time>
      </trkpt>
      <trkpt lat="46.2123" lon="4.69626">
        <ele>473.20001220703</ele>
        <time>2020-03-20T14:17:00.000Z</time>
      </trkpt>
      <trkpt lat="46.21249" lon="4.69608">
        <ele>476.60000610352</ele>
        <time>2020-03-20T14:17:06.000Z</time>
      </trkpt>
      <trkpt lat="46.21281" lon="4.69585">
        <ele>478.60000610352</ele>
        <time>2020-03-20T14:17:15.000Z</time>
      </trkpt>
      <trkpt lat="46.21284" lon="4.69578">
        <ele>478.79998779297</ele>
        <time>2020-03-20T14:17:17.000Z</time>
      </trkpt>
      <trkpt lat="46.2131" lon="4.69554">
        <ele>480.20001220703</ele>
        <time>2020-03-20T14:17:26.000Z</time>
      </trkpt>
      <trkpt lat="46.21312" lon="4.69552">
        <ele>480.39999389648</ele>
        <time>2020-03-20T14:17:27.000Z</time>
      </trkpt>
      <trkpt lat="46.21337" lon="4.69528">
        <ele>480.60000610352</ele>
        <time>2020-03-20T14:17:37.000Z</time>
      </trkpt>
      <trkpt lat="46.21339" lon="4.69527">
        <ele>480.60000610352</ele>
        <time>2020-03-20T14:17:38.000Z</time>
      </trkpt>
      <trkpt lat="46.21355" lon="4.69509">
        <ele>477.79998779297</ele>
        <time>2020-03-20T14:17:45.000Z</time>
      </trkpt>
      <trkpt lat="46.21394" lon="4.69463">
        <ele>475.20001220703</ele>
        <time>2020-03-20T14:17:58.000Z</time>
      </trkpt>
      <trkpt lat="46.21405" lon="4.69452">
        <ele>475.39999389648</ele>
        <time>2020-03-20T14:18:02.000Z</time>
      </trkpt>
      <trkpt lat="46.21413" lon="4.69456">
        <ele>476.39999389648</ele>
        <time>2020-03-20T14:18:06.000Z</time>
      </trkpt>
      <trkpt lat="46.2142" lon="4.69457">
        <ele>479.60000610352</ele>
        <time>2020-03-20T14:18:13.000Z</time>
      </trkpt>
      <trkpt lat="46.21421" lon="4.69457">
        <ele>482.79998779297</ele>
        <time>2020-03-20T14:18:18.000Z</time>
      </trkpt>
      <trkpt lat="46.21422" lon="4.69455">
        <ele>484</ele>
        <time>2020-03-20T14:18:24.000Z</time>
      </trkpt>
      <trkpt lat="46.21426" lon="4.69447">
        <ele>484.60000610352</ele>
        <time>2020-03-20T14:18:32.000Z</time>
      </trkpt>
      <trkpt lat="46.21436" lon="4.69446">
        <ele>484.60000610352</ele>
        <time>2020-03-20T14:18:40.000Z</time>
      </trkpt>
      <trkpt lat="46.21437" lon="4.69446">
        <ele>485.20001220703</ele>
        <time>2020-03-20T14:18:43.000Z</time>
      </trkpt>
      <trkpt lat="46.21441" lon="4.69439">
        <ele>486.79998779297</ele>
        <time>2020-03-20T14:18:50.000Z</time>
      </trkpt>
      <trkpt lat="46.21442" lon="4.69436">
        <ele>486.79998779297</ele>
        <time>2020-03-20T14:18:51.000Z</time>
      </trkpt>
      <trkpt lat="46.21444" lon="4.69427">
        <ele>486.79998779297</ele>
        <time>2020-03-20T14:18:53.000Z</time>
      </trkpt>
      <trkpt lat="46.21455" lon="4.69411">
        <ele>487</ele>
        <time>2020-03-20T14:19:02.000Z</time>
      </trkpt>
      <trkpt lat="46.21455" lon="4.69411">
        <ele>487.20001220703</ele>
        <time>2020-03-20T14:19:03.000Z</time>
      </trkpt>
      <trkpt lat="46.21466" lon="4.69401">
        <ele>490</ele>
        <time>2020-03-20T14:19:13.000Z</time>
      </trkpt>
      <trkpt lat="46.21498" lon="4.6939">
        <ele>492.20001220703</ele>
        <time>2020-03-20T14:19:23.000Z</time>
      </trkpt>
      <trkpt lat="46.21516" lon="4.69368">
        <ele>495.79998779297</ele>
        <time>2020-03-20T14:19:32.000Z</time>
      </trkpt>
      <trkpt lat="46.21544" lon="4.69361">
        <ele>496.20001220703</ele>
        <time>2020-03-20T14:19:40.000Z</time>
      </trkpt>
      <trkpt lat="46.21561" lon="4.69363">
        <ele>495.20001220703</ele>
        <time>2020-03-20T14:19:44.000Z</time>
      </trkpt>
      <trkpt lat="46.21603" lon="4.69377">
        <ele>492.39999389648</ele>
        <time>2020-03-20T14:19:55.000Z</time>
      </trkpt>
      <trkpt lat="46.21628" lon="4.69385">
        <ele>492.39999389648</ele>
        <time>2020-03-20T14:20:04.000Z</time>
      </trkpt>
      <trkpt lat="46.21649" lon="4.69395">
        <ele>492.20001220703</ele>
        <time>2020-03-20T14:20:09.000Z</time>
      </trkpt>
      <trkpt lat="46.21658" lon="4.69399">
        <ele>491.79998779297</ele>
        <time>2020-03-20T14:20:11.000Z</time>
      </trkpt>
      <trkpt lat="46.21675" lon="4.69419">
        <ele>491.20001220703</ele>
        <time>2020-03-20T14:20:17.000Z</time>
      </trkpt>
      <trkpt lat="46.21686" lon="4.69419">
        <ele>491.20001220703</ele>
        <time>2020-03-20T14:20:21.000Z</time>
      </trkpt>
      <trkpt lat="46.21691" lon="4.69419">
        <ele>491.20001220703</ele>
        <time>2020-03-20T14:20:23.000Z</time>
      </trkpt>
      <trkpt lat="46.21698" lon="4.69413">
        <ele>492.20001220703</ele>
        <time>2020-03-20T14:20:26.000Z</time>
      </trkpt>
      <trkpt lat="46.21707" lon="4.69422">
        <ele>492.39999389648</ele>
        <time>2020-03-20T14:20:31.000Z</time>
      </trkpt>
      <trkpt lat="46.21709" lon="4.69438">
        <ele>492.39999389648</ele>
        <time>2020-03-20T14:20:34.000Z</time>
      </trkpt>
      <trkpt lat="46.21723" lon="4.69468">
        <ele>490.60000610352</ele>
        <time>2020-03-20T14:20:40.000Z</time>
      </trkpt>
      <trkpt lat="46.21737" lon="4.69496">
        <ele>488</ele>
        <time>2020-03-20T14:20:46.000Z</time>
      </trkpt>
      <trkpt lat="46.21749" lon="4.69527">
        <ele>486.20001220703</ele>
        <time>2020-03-20T14:20:51.000Z</time>
      </trkpt>
      <trkpt lat="46.21752" lon="4.69534">
        <ele>485.39999389648</ele>
        <time>2020-03-20T14:20:53.000Z</time>
      </trkpt>
      <trkpt lat="46.21765" lon="4.69529">
        <ele>481.79998779297</ele>
        <time>2020-03-20T14:20:58.000Z</time>
      </trkpt>
      <trkpt lat="46.2177" lon="4.69532">
        <ele>481.20001220703</ele>
        <time>2020-03-20T14:21:01.000Z</time>
      </trkpt>
      <trkpt lat="46.21776" lon="4.69548">
        <ele>480.39999389648</ele>
        <time>2020-03-20T14:21:09.000Z</time>
      </trkpt>
      <trkpt lat="46.21789" lon="4.69551">
        <ele>479.60000610352</ele>
        <time>2020-03-20T14:21:13.000Z</time>
      </trkpt>
      <trkpt lat="46.21806" lon="4.69577">
        <ele>475.39999389648</ele>
        <time>2020-03-20T14:21:20.000Z</time>
      </trkpt>
      <trkpt lat="46.21809" lon="4.69581">
        <ele>472.20001220703</ele>
        <time>2020-03-20T14:21:21.000Z</time>
      </trkpt>
      <trkpt lat="46.21818" lon="4.69597">
        <ele>468.20001220703</ele>
        <time>2020-03-20T14:21:24.000Z</time>
      </trkpt>
      <trkpt lat="46.21829" lon="4.69612">
        <ele>464.79998779297</ele>
        <time>2020-03-20T14:21:29.000Z</time>
      </trkpt>
      <trkpt lat="46.21833" lon="4.69613">
        <ele>461.60000610352</ele>
        <time>2020-03-20T14:21:33.000Z</time>
      </trkpt>
      <trkpt lat="46.21835" lon="4.69613">
        <ele>461</ele>
        <time>2020-03-20T14:21:36.000Z</time>
      </trkpt>
      <trkpt lat="46.21842" lon="4.69601">
        <ele>460.60000610352</ele>
        <time>2020-03-20T14:21:43.000Z</time>
      </trkpt>
      <trkpt lat="46.21842" lon="4.69597">
        <ele>460.60000610352</ele>
        <time>2020-03-20T14:21:44.000Z</time>
      </trkpt>
      <trkpt lat="46.21843" lon="4.69586">
        <ele>460.60000610352</ele>
        <time>2020-03-20T14:21:46.000Z</time>
      </trkpt>
      <trkpt lat="46.2184" lon="4.69556">
        <ele>460.20001220703</ele>
        <time>2020-03-20T14:21:51.000Z</time>
      </trkpt>
      <trkpt lat="46.21839" lon="4.69536">
        <ele>459.79998779297</ele>
        <time>2020-03-20T14:21:54.000Z</time>
      </trkpt>
      <trkpt lat="46.21839" lon="4.69515">
        <ele>459.20001220703</ele>
        <time>2020-03-20T14:21:57.000Z</time>
      </trkpt>
      <trkpt lat="46.21839" lon="4.69485">
        <ele>458.60000610352</ele>
        <time>2020-03-20T14:22:01.000Z</time>
      </trkpt>
      <trkpt lat="46.21837" lon="4.6947">
        <ele>458.20001220703</ele>
        <time>2020-03-20T14:22:03.000Z</time>
      </trkpt>
      <trkpt lat="46.21809" lon="4.69404">
        <ele>456.79998779297</ele>
        <time>2020-03-20T14:22:13.000Z</time>
      </trkpt>
      <trkpt lat="46.21802" lon="4.69393">
        <ele>456.60000610352</ele>
        <time>2020-03-20T14:22:15.000Z</time>
      </trkpt>
      <trkpt lat="46.21776" lon="4.69335">
        <ele>455.39999389648</ele>
        <time>2020-03-20T14:22:24.000Z</time>
      </trkpt>
      <trkpt lat="46.21774" lon="4.69278">
        <ele>454.39999389648</ele>
        <time>2020-03-20T14:22:32.000Z</time>
      </trkpt>
      <trkpt lat="46.21773" lon="4.69271">
        <ele>454.20001220703</ele>
        <time>2020-03-20T14:22:33.000Z</time>
      </trkpt>
      <trkpt lat="46.21758" lon="4.69237">
        <ele>453.60000610352</ele>
        <time>2020-03-20T14:22:38.000Z</time>
      </trkpt>
      <trkpt lat="46.21736" lon="4.69221">
        <ele>453.39999389648</ele>
        <time>2020-03-20T14:22:43.000Z</time>
      </trkpt>
      <trkpt lat="46.21716" lon="4.69216">
        <ele>452.79998779297</ele>
        <time>2020-03-20T14:22:47.000Z</time>
      </trkpt>
      <trkpt lat="46.217" lon="4.6921">
        <ele>452.20001220703</ele>
        <time>2020-03-20T14:22:51.000Z</time>
      </trkpt>
      <trkpt lat="46.21675" lon="4.69202">
        <ele>451.79998779297</ele>
        <time>2020-03-20T14:22:57.000Z</time>
      </trkpt>
      <trkpt lat="46.21635" lon="4.6919">
        <ele>450.79998779297</ele>
        <time>2020-03-20T14:23:05.000Z</time>
      </trkpt>
      <trkpt lat="46.21614" lon="4.69175">
        <ele>450.20001220703</ele>
        <time>2020-03-20T14:23:10.000Z</time>
      </trkpt>
      <trkpt lat="46.21566" lon="4.69096">
        <ele>448.39999389648</ele>
        <time>2020-03-20T14:23:23.000Z</time>
      </trkpt>
      <trkpt lat="46.21547" lon="4.69048">
        <ele>447.20001220703</ele>
        <time>2020-03-20T14:23:30.000Z</time>
      </trkpt>
      <trkpt lat="46.21535" lon="4.69012">
        <ele>446.60000610352</ele>
        <time>2020-03-20T14:23:35.000Z</time>
      </trkpt>
      <trkpt lat="46.21531" lon="4.68999">
        <ele>446</ele>
        <time>2020-03-20T14:23:37.000Z</time>
      </trkpt>
      <trkpt lat="46.21509" lon="4.68934">
        <ele>444.79998779297</ele>
        <time>2020-03-20T14:23:46.000Z</time>
      </trkpt>
      <trkpt lat="46.21505" lon="4.68926">
        <ele>444.79998779297</ele>
        <time>2020-03-20T14:23:47.000Z</time>
      </trkpt>
      <trkpt lat="46.21486" lon="4.68898">
        <ele>443.79998779297</ele>
        <time>2020-03-20T14:23:52.000Z</time>
      </trkpt>
      <trkpt lat="46.21479" lon="4.68891">
        <ele>443.79998779297</ele>
        <time>2020-03-20T14:23:54.000Z</time>
      </trkpt>
      <trkpt lat="46.21459" lon="4.68879">
        <ele>443.60000610352</ele>
        <time>2020-03-20T14:23:59.000Z</time>
      </trkpt>
      <trkpt lat="46.21452" lon="4.68871">
        <ele>443.60000610352</ele>
        <time>2020-03-20T14:24:01.000Z</time>
      </trkpt>
      <trkpt lat="46.21411" lon="4.68822">
        <ele>442.39999389648</ele>
        <time>2020-03-20T14:24:13.000Z</time>
      </trkpt>
      <trkpt lat="46.21402" lon="4.68807">
        <ele>441.60000610352</ele>
        <time>2020-03-20T14:24:16.000Z</time>
      </trkpt>
      <trkpt lat="46.21395" lon="4.68782">
        <ele>441</ele>
        <time>2020-03-20T14:24:20.000Z</time>
      </trkpt>
      <trkpt lat="46.21393" lon="4.68769">
        <ele>440.79998779297</ele>
        <time>2020-03-20T14:24:22.000Z</time>
      </trkpt>
      <trkpt lat="46.21392" lon="4.68755">
        <ele>440.60000610352</ele>
        <time>2020-03-20T14:24:24.000Z</time>
      </trkpt>
      <trkpt lat="46.21394" lon="4.68735">
        <ele>440.39999389648</ele>
        <time>2020-03-20T14:24:27.000Z</time>
      </trkpt>
      <trkpt lat="46.21401" lon="4.68685">
        <ele>439.60000610352</ele>
        <time>2020-03-20T14:24:35.000Z</time>
      </trkpt>
      <trkpt lat="46.214" lon="4.68672">
        <ele>439</ele>
        <time>2020-03-20T14:24:37.000Z</time>
      </trkpt>
      <trkpt lat="46.21391" lon="4.68612">
        <ele>438.20001220703</ele>
        <time>2020-03-20T14:24:47.000Z</time>
      </trkpt>
      <trkpt lat="46.21387" lon="4.68588">
        <ele>438</ele>
        <time>2020-03-20T14:24:51.000Z</time>
      </trkpt>
      <trkpt lat="46.21386" lon="4.68574">
        <ele>438</ele>
        <time>2020-03-20T14:24:53.000Z</time>
      </trkpt>
      <trkpt lat="46.21377" lon="4.68509">
        <ele>436.60000610352</ele>
        <time>2020-03-20T14:25:02.000Z</time>
      </trkpt>
      <trkpt lat="46.21364" lon="4.68482">
        <ele>436.20001220703</ele>
        <time>2020-03-20T14:25:06.000Z</time>
      </trkpt>
      <trkpt lat="46.21355" lon="4.68467">
        <ele>435.60000610352</ele>
        <time>2020-03-20T14:25:09.000Z</time>
      </trkpt>
      <trkpt lat="46.21309" lon="4.6842">
        <ele>434.20001220703</ele>
        <time>2020-03-20T14:25:20.000Z</time>
      </trkpt>
      <trkpt lat="46.21296" lon="4.68407">
        <ele>434</ele>
        <time>2020-03-20T14:25:23.000Z</time>
      </trkpt>
      <trkpt lat="46.21227" lon="4.68314">
        <ele>432</ele>
        <time>2020-03-20T14:25:40.000Z</time>
      </trkpt>
      <trkpt lat="46.21207" lon="4.6829">
        <ele>431.39999389648</ele>
        <time>2020-03-20T14:25:45.000Z</time>
      </trkpt>
      <trkpt lat="46.21187" lon="4.68284">
        <ele>431.20001220703</ele>
        <time>2020-03-20T14:25:49.000Z</time>
      </trkpt>
      <trkpt lat="46.2109" lon="4.68311">
        <ele>429.20001220703</ele>
        <time>2020-03-20T14:26:06.000Z</time>
      </trkpt>
      <trkpt lat="46.21031" lon="4.68341">
        <ele>427.39999389648</ele>
        <time>2020-03-20T14:26:17.000Z</time>
      </trkpt>
      <trkpt lat="46.21007" lon="4.68359">
        <ele>427</ele>
        <time>2020-03-20T14:26:22.000Z</time>
      </trkpt>
      <trkpt lat="46.20948" lon="4.6841">
        <ele>425</ele>
        <time>2020-03-20T14:26:35.000Z</time>
      </trkpt>
      <trkpt lat="46.20938" lon="4.68417">
        <ele>424.79998779297</ele>
        <time>2020-03-20T14:26:37.000Z</time>
      </trkpt>
      <trkpt lat="46.20891" lon="4.68427">
        <ele>424</ele>
        <time>2020-03-20T14:26:46.000Z</time>
      </trkpt>
      <trkpt lat="46.20872" lon="4.68431">
        <ele>423.79998779297</ele>
        <time>2020-03-20T14:26:50.000Z</time>
      </trkpt>
      <trkpt lat="46.20846" lon="4.68425">
        <ele>423</ele>
        <time>2020-03-20T14:26:56.000Z</time>
      </trkpt>
      <trkpt lat="46.20798" lon="4.68379">
        <ele>422</ele>
        <time>2020-03-20T14:27:07.000Z</time>
      </trkpt>
      <trkpt lat="46.20738" lon="4.68319">
        <ele>423</ele>
        <time>2020-03-20T14:27:22.000Z</time>
      </trkpt>
      <trkpt lat="46.20693" lon="4.68292">
        <ele>425.79998779297</ele>
        <time>2020-03-20T14:27:36.000Z</time>
      </trkpt>
      <trkpt lat="46.20679" lon="4.68287">
        <ele>426.79998779297</ele>
        <time>2020-03-20T14:27:40.000Z</time>
      </trkpt>
      <trkpt lat="46.20687" lon="4.68259">
        <ele>427.60000610352</ele>
        <time>2020-03-20T14:27:46.000Z</time>
      </trkpt>
      <trkpt lat="46.20698" lon="4.68233">
        <ele>427.60000610352</ele>
        <time>2020-03-20T14:27:50.000Z</time>
      </trkpt>
      <trkpt lat="46.20702" lon="4.68218">
        <ele>427.79998779297</ele>
        <time>2020-03-20T14:27:52.000Z</time>
      </trkpt>
      <trkpt lat="46.20692" lon="4.68175">
        <ele>430.20001220703</ele>
        <time>2020-03-20T14:27:58.000Z</time>
      </trkpt>
      <trkpt lat="46.20683" lon="4.68166">
        <ele>431</ele>
        <time>2020-03-20T14:28:00.000Z</time>
      </trkpt>
      <trkpt lat="46.20631" lon="4.6813">
        <ele>434.60000610352</ele>
        <time>2020-03-20T14:28:11.000Z</time>
      </trkpt>
      <trkpt lat="46.20611" lon="4.68118">
        <ele>437.79998779297</ele>
        <time>2020-03-20T14:28:15.000Z</time>
      </trkpt>
      <trkpt lat="46.20589" lon="4.68107">
        <ele>441</ele>
        <time>2020-03-20T14:28:19.000Z</time>
      </trkpt>
      <trkpt lat="46.20584" lon="4.68105">
        <ele>441.20001220703</ele>
        <time>2020-03-20T14:28:20.000Z</time>
      </trkpt>
      <trkpt lat="46.20521" lon="4.68076">
        <ele>444.20001220703</ele>
        <time>2020-03-20T14:28:33.000Z</time>
      </trkpt>
      <trkpt lat="46.20502" lon="4.6807">
        <ele>447.60000610352</ele>
        <time>2020-03-20T14:28:37.000Z</time>
      </trkpt>
      <trkpt lat="46.20484" lon="4.68063">
        <ele>452</ele>
        <time>2020-03-20T14:28:41.000Z</time>
      </trkpt>
      <trkpt lat="46.20475" lon="4.68058">
        <ele>453.20001220703</ele>
        <time>2020-03-20T14:28:43.000Z</time>
      </trkpt>
      <trkpt lat="46.20449" lon="4.68036">
        <ele>457</ele>
        <time>2020-03-20T14:28:50.000Z</time>
      </trkpt>
      <trkpt lat="46.20441" lon="4.68026">
        <ele>460.20001220703</ele>
        <time>2020-03-20T14:28:57.000Z</time>
      </trkpt>
      <trkpt lat="46.20441" lon="4.68026">
        <ele>460.60000610352</ele>
        <time>2020-03-20T14:28:59.000Z</time>
      </trkpt>
      <trkpt lat="46.20437" lon="4.68023">
        <ele>460.79998779297</ele>
        <time>2020-03-20T14:30:32.000Z</time>
      </trkpt>
      <trkpt lat="46.20434" lon="4.6802">
        <ele>460.79998779297</ele>
        <time>2020-03-20T14:30:33.000Z</time>
      </trkpt>
      <trkpt lat="46.20401" lon="4.67941">
        <ele>460.39999389648</ele>
        <time>2020-03-20T14:30:46.000Z</time>
      </trkpt>
      <trkpt lat="46.20383" lon="4.67891">
        <ele>458</ele>
        <time>2020-03-20T14:30:53.000Z</time>
      </trkpt>
      <trkpt lat="46.2038" lon="4.67882">
        <ele>457.60000610352</ele>
        <time>2020-03-20T14:31:01.000Z</time>
      </trkpt>
      <trkpt lat="46.20377" lon="4.67873">
        <ele>457.60000610352</ele>
        <time>2020-03-20T14:31:23.000Z</time>
      </trkpt>
      <trkpt lat="46.20376" lon="4.67868">
        <ele>457.60000610352</ele>
        <time>2020-03-20T14:31:24.000Z</time>
      </trkpt>
      <trkpt lat="46.20371" lon="4.67855">
        <ele>457.60000610352</ele>
        <time>2020-03-20T14:31:26.000Z</time>
      </trkpt>
      <trkpt lat="46.20344" lon="4.67822">
        <ele>457</ele>
        <time>2020-03-20T14:31:33.000Z</time>
      </trkpt>
      <trkpt lat="46.20302" lon="4.67802">
        <ele>456.60000610352</ele>
        <time>2020-03-20T14:31:42.000Z</time>
      </trkpt>
      <trkpt lat="46.20258" lon="4.67763">
        <ele>458</ele>
        <time>2020-03-20T14:31:53.000Z</time>
      </trkpt>
      <trkpt lat="46.20216" lon="4.67709">
        <ele>458.39999389648</ele>
        <time>2020-03-20T14:32:04.000Z</time>
      </trkpt>
      <trkpt lat="46.20209" lon="4.67697">
        <ele>458.39999389648</ele>
        <time>2020-03-20T14:32:06.000Z</time>
      </trkpt>
      <trkpt lat="46.20187" lon="4.67606">
        <ele>457.60000610352</ele>
        <time>2020-03-20T14:32:19.000Z</time>
      </trkpt>
      <trkpt lat="46.2016" lon="4.67487">
        <ele>458.39999389648</ele>
        <time>2020-03-20T14:32:35.000Z</time>
      </trkpt>
      <trkpt lat="46.20156" lon="4.67474">
        <ele>458.39999389648</ele>
        <time>2020-03-20T14:32:37.000Z</time>
      </trkpt>
      <trkpt lat="46.20141" lon="4.67432">
        <ele>459.60000610352</ele>
        <time>2020-03-20T14:32:44.000Z</time>
      </trkpt>
      <trkpt lat="46.2013" lon="4.67412">
        <ele>461.60000610352</ele>
        <time>2020-03-20T14:32:48.000Z</time>
      </trkpt>
      <trkpt lat="46.2012" lon="4.67349">
        <ele>464.20001220703</ele>
        <time>2020-03-20T14:33:00.000Z</time>
      </trkpt>
      <trkpt lat="46.20113" lon="4.67267">
        <ele>462.60000610352</ele>
        <time>2020-03-20T14:33:14.000Z</time>
      </trkpt>
      <trkpt lat="46.20111" lon="4.67256">
        <ele>462.60000610352</ele>
        <time>2020-03-20T14:33:16.000Z</time>
      </trkpt>
      <trkpt lat="46.20092" lon="4.67215">
        <ele>463.60000610352</ele>
        <time>2020-03-20T14:33:24.000Z</time>
      </trkpt>
      <trkpt lat="46.2007" lon="4.67199">
        <ele>463.79998779297</ele>
        <time>2020-03-20T14:33:29.000Z</time>
      </trkpt>
      <trkpt lat="46.20055" lon="4.67186">
        <ele>465</ele>
        <time>2020-03-20T14:33:33.000Z</time>
      </trkpt>
      <trkpt lat="46.20029" lon="4.67151">
        <ele>469</ele>
        <time>2020-03-20T14:33:41.000Z</time>
      </trkpt>
      <trkpt lat="46.20015" lon="4.67129">
        <ele>472</ele>
        <time>2020-03-20T14:33:46.000Z</time>
      </trkpt>
      <trkpt lat="46.20006" lon="4.67108">
        <ele>475.39999389648</ele>
        <time>2020-03-20T14:33:50.000Z</time>
      </trkpt>
      <trkpt lat="46.19998" lon="4.67086">
        <ele>478</ele>
        <time>2020-03-20T14:33:54.000Z</time>
      </trkpt>
      <trkpt lat="46.1999" lon="4.67063">
        <ele>480.20001220703</ele>
        <time>2020-03-20T14:33:58.000Z</time>
      </trkpt>
      <trkpt lat="46.19979" lon="4.67035">
        <ele>483.20001220703</ele>
        <time>2020-03-20T14:34:03.000Z</time>
      </trkpt>
      <trkpt lat="46.19964" lon="4.66999">
        <ele>486.39999389648</ele>
        <time>2020-03-20T14:34:09.000Z</time>
      </trkpt>
      <trkpt lat="46.19958" lon="4.66987">
        <ele>486.79998779297</ele>
        <time>2020-03-20T14:34:11.000Z</time>
      </trkpt>
      <trkpt lat="46.19917" lon="4.66937">
        <ele>490</ele>
        <time>2020-03-20T14:34:22.000Z</time>
      </trkpt>
      <trkpt lat="46.19899" lon="4.66916">
        <ele>492.20001220703</ele>
        <time>2020-03-20T14:34:27.000Z</time>
      </trkpt>
      <trkpt lat="46.19849" lon="4.66876">
        <ele>495.60000610352</ele>
        <time>2020-03-20T14:34:39.000Z</time>
      </trkpt>
      <trkpt lat="46.19832" lon="4.66862">
        <ele>496.79998779297</ele>
        <time>2020-03-20T14:34:43.000Z</time>
      </trkpt>
      <trkpt lat="46.1979" lon="4.66823">
        <ele>500.39999389648</ele>
        <time>2020-03-20T14:34:54.000Z</time>
      </trkpt>
      <trkpt lat="46.19756" lon="4.66786">
        <ele>503.60000610352</ele>
        <time>2020-03-20T14:35:03.000Z</time>
      </trkpt>
      <trkpt lat="46.19735" lon="4.66763">
        <ele>504.39999389648</ele>
        <time>2020-03-20T14:35:08.000Z</time>
      </trkpt>
      <trkpt lat="46.19716" lon="4.66739">
        <ele>505</ele>
        <time>2020-03-20T14:35:13.000Z</time>
      </trkpt>
      <trkpt lat="46.19683" lon="4.66661">
        <ele>508.20001220703</ele>
        <time>2020-03-20T14:35:26.000Z</time>
      </trkpt>
      <trkpt lat="46.19677" lon="4.66648">
        <ele>508.60000610352</ele>
        <time>2020-03-20T14:35:28.000Z</time>
      </trkpt>
      <trkpt lat="46.19645" lon="4.66598">
        <ele>508.79998779297</ele>
        <time>2020-03-20T14:35:36.000Z</time>
      </trkpt>
      <trkpt lat="46.19632" lon="4.66571">
        <ele>509.20001220703</ele>
        <time>2020-03-20T14:35:41.000Z</time>
      </trkpt>
      <trkpt lat="46.19617" lon="4.66544">
        <ele>510.39999389648</ele>
        <time>2020-03-20T14:35:46.000Z</time>
      </trkpt>
      <trkpt lat="46.19613" lon="4.66504">
        <ele>514.40002441406</ele>
        <time>2020-03-20T14:35:52.000Z</time>
      </trkpt>
      <trkpt lat="46.19616" lon="4.6649">
        <ele>515.40002441406</ele>
        <time>2020-03-20T14:35:54.000Z</time>
      </trkpt>
      <trkpt lat="46.19623" lon="4.66466">
        <ele>517.20001220703</ele>
        <time>2020-03-20T14:35:58.000Z</time>
      </trkpt>
      <trkpt lat="46.19629" lon="4.66438">
        <ele>519.20001220703</ele>
        <time>2020-03-20T14:36:02.000Z</time>
      </trkpt>
      <trkpt lat="46.19629" lon="4.66395">
        <ele>523.20001220703</ele>
        <time>2020-03-20T14:36:08.000Z</time>
      </trkpt>
      <trkpt lat="46.19627" lon="4.66365">
        <ele>524.40002441406</ele>
        <time>2020-03-20T14:36:13.000Z</time>
      </trkpt>
      <trkpt lat="46.19625" lon="4.66339">
        <ele>526.59997558594</ele>
        <time>2020-03-20T14:36:17.000Z</time>
      </trkpt>
      <trkpt lat="46.19634" lon="4.66298">
        <ele>528.20001220703</ele>
        <time>2020-03-20T14:36:23.000Z</time>
      </trkpt>
      <trkpt lat="46.19649" lon="4.66227">
        <ele>529.20001220703</ele>
        <time>2020-03-20T14:36:31.000Z</time>
      </trkpt>
      <trkpt lat="46.19654" lon="4.66184">
        <ele>529.40002441406</ele>
        <time>2020-03-20T14:36:36.000Z</time>
      </trkpt>
      <trkpt lat="46.19651" lon="4.66151">
        <ele>529.79998779297</ele>
        <time>2020-03-20T14:36:40.000Z</time>
      </trkpt>
      <trkpt lat="46.19644" lon="4.66115">
        <ele>530.79998779297</ele>
        <time>2020-03-20T14:36:45.000Z</time>
      </trkpt>
      <trkpt lat="46.19642" lon="4.66078">
        <ele>534.20001220703</ele>
        <time>2020-03-20T14:36:50.000Z</time>
      </trkpt>
      <trkpt lat="46.19641" lon="4.66065">
        <ele>535.79998779297</ele>
        <time>2020-03-20T14:36:52.000Z</time>
      </trkpt>
      <trkpt lat="46.19639" lon="4.66036">
        <ele>538.20001220703</ele>
        <time>2020-03-20T14:36:56.000Z</time>
      </trkpt>
      <trkpt lat="46.19631" lon="4.66012">
        <ele>540.59997558594</ele>
        <time>2020-03-20T14:37:00.000Z</time>
      </trkpt>
      <trkpt lat="46.19618" lon="4.6599">
        <ele>542.79998779297</ele>
        <time>2020-03-20T14:37:04.000Z</time>
      </trkpt>
      <trkpt lat="46.196" lon="4.65955">
        <ele>544.79998779297</ele>
        <time>2020-03-20T14:37:10.000Z</time>
      </trkpt>
      <trkpt lat="46.19563" lon="4.65919">
        <ele>548</ele>
        <time>2020-03-20T14:37:19.000Z</time>
      </trkpt>
      <trkpt lat="46.19546" lon="4.65902">
        <ele>548.40002441406</ele>
        <time>2020-03-20T14:37:23.000Z</time>
      </trkpt>
      <trkpt lat="46.19537" lon="4.6589">
        <ele>548.40002441406</ele>
        <time>2020-03-20T14:37:25.000Z</time>
      </trkpt>
      <trkpt lat="46.19528" lon="4.65879">
        <ele>548.40002441406</ele>
        <time>2020-03-20T14:37:27.000Z</time>
      </trkpt>
      <trkpt lat="46.19514" lon="4.6586">
        <ele>548.20001220703</ele>
        <time>2020-03-20T14:37:31.000Z</time>
      </trkpt>
      <trkpt lat="46.19515" lon="4.65849">
        <ele>548.20001220703</ele>
        <time>2020-03-20T14:37:35.000Z</time>
      </trkpt>
      <trkpt lat="46.19514" lon="4.65839">
        <ele>548.20001220703</ele>
        <time>2020-03-20T14:37:40.000Z</time>
      </trkpt>
      <trkpt lat="46.19512" lon="4.65838">
        <ele>549</ele>
        <time>2020-03-20T14:37:46.000Z</time>
      </trkpt>
      <trkpt lat="46.19507" lon="4.65834">
        <ele>549.20001220703</ele>
        <time>2020-03-20T14:38:05.000Z</time>
      </trkpt>
      <trkpt lat="46.195" lon="4.65828">
        <ele>549.20001220703</ele>
        <time>2020-03-20T14:38:08.000Z</time>
      </trkpt>
      <trkpt lat="46.19469" lon="4.65809">
        <ele>547.40002441406</ele>
        <time>2020-03-20T14:38:19.000Z</time>
      </trkpt>
      <trkpt lat="46.19443" lon="4.65778">
        <ele>545.59997558594</ele>
        <time>2020-03-20T14:38:30.000Z</time>
      </trkpt>
      <trkpt lat="46.19427" lon="4.65765">
        <ele>544.59997558594</ele>
        <time>2020-03-20T14:38:34.000Z</time>
      </trkpt>
      <trkpt lat="46.1941" lon="4.65749">
        <ele>543.20001220703</ele>
        <time>2020-03-20T14:38:38.000Z</time>
      </trkpt>
      <trkpt lat="46.19401" lon="4.65741">
        <ele>542.20001220703</ele>
        <time>2020-03-20T14:38:40.000Z</time>
      </trkpt>
      <trkpt lat="46.19379" lon="4.65717">
        <ele>539</ele>
        <time>2020-03-20T14:38:46.000Z</time>
      </trkpt>
      <trkpt lat="46.19353" lon="4.65697">
        <ele>537.20001220703</ele>
        <time>2020-03-20T14:38:55.000Z</time>
      </trkpt>
      <trkpt lat="46.1934" lon="4.65689">
        <ele>536.20001220703</ele>
        <time>2020-03-20T14:38:59.000Z</time>
      </trkpt>
      <trkpt lat="46.19333" lon="4.65679">
        <ele>535.20001220703</ele>
        <time>2020-03-20T14:39:01.000Z</time>
      </trkpt>
      <trkpt lat="46.19326" lon="4.6567">
        <ele>534.59997558594</ele>
        <time>2020-03-20T14:39:03.000Z</time>
      </trkpt>
      <trkpt lat="46.19314" lon="4.6564">
        <ele>533.20001220703</ele>
        <time>2020-03-20T14:39:08.000Z</time>
      </trkpt>
      <trkpt lat="46.19301" lon="4.65613">
        <ele>533.20001220703</ele>
        <time>2020-03-20T14:39:13.000Z</time>
      </trkpt>
      <trkpt lat="46.19262" lon="4.65554">
        <ele>535.20001220703</ele>
        <time>2020-03-20T14:39:23.000Z</time>
      </trkpt>
      <trkpt lat="46.19232" lon="4.65519">
        <ele>538.40002441406</ele>
        <time>2020-03-20T14:39:31.000Z</time>
      </trkpt>
      <trkpt lat="46.19229" lon="4.65515">
        <ele>539</ele>
        <time>2020-03-20T14:39:32.000Z</time>
      </trkpt>
      <trkpt lat="46.19215" lon="4.65487">
        <ele>540.59997558594</ele>
        <time>2020-03-20T14:39:37.000Z</time>
      </trkpt>
      <trkpt lat="46.19197" lon="4.65439">
        <ele>542.40002441406</ele>
        <time>2020-03-20T14:39:46.000Z</time>
      </trkpt>
      <trkpt lat="46.19194" lon="4.65427">
        <ele>542.40002441406</ele>
        <time>2020-03-20T14:39:48.000Z</time>
      </trkpt>
      <trkpt lat="46.19182" lon="4.65395">
        <ele>542.79998779297</ele>
        <time>2020-03-20T14:39:53.000Z</time>
      </trkpt>
      <trkpt lat="46.19166" lon="4.65358">
        <ele>542.79998779297</ele>
        <time>2020-03-20T14:39:59.000Z</time>
      </trkpt>
      <trkpt lat="46.19162" lon="4.65345">
        <ele>542.79998779297</ele>
        <time>2020-03-20T14:40:01.000Z</time>
      </trkpt>
      <trkpt lat="46.1916" lon="4.6534">
        <ele>542.59997558594</ele>
        <time>2020-03-20T14:40:02.000Z</time>
      </trkpt>
      <trkpt lat="46.19158" lon="4.65334">
        <ele>542.40002441406</ele>
        <time>2020-03-20T14:40:03.000Z</time>
      </trkpt>
      <trkpt lat="46.19157" lon="4.65328">
        <ele>542.20001220703</ele>
        <time>2020-03-20T14:40:04.000Z</time>
      </trkpt>
      <trkpt lat="46.19156" lon="4.65315">
        <ele>542</ele>
        <time>2020-03-20T14:40:06.000Z</time>
      </trkpt>
      <trkpt lat="46.19156" lon="4.65302">
        <ele>541.79998779297</ele>
        <time>2020-03-20T14:40:08.000Z</time>
      </trkpt>
      <trkpt lat="46.19157" lon="4.65194">
        <ele>542.59997558594</ele>
        <time>2020-03-20T14:40:24.000Z</time>
      </trkpt>
      <trkpt lat="46.19153" lon="4.65175">
        <ele>543</ele>
        <time>2020-03-20T14:40:27.000Z</time>
      </trkpt>
      <trkpt lat="46.19135" lon="4.65111">
        <ele>544</ele>
        <time>2020-03-20T14:40:41.000Z</time>
      </trkpt>
      <trkpt lat="46.19133" lon="4.65051">
        <ele>543.20001220703</ele>
        <time>2020-03-20T14:40:51.000Z</time>
      </trkpt>
      <trkpt lat="46.19132" lon="4.65039">
        <ele>542.59997558594</ele>
        <time>2020-03-20T14:40:53.000Z</time>
      </trkpt>
      <trkpt lat="46.1913" lon="4.65027">
        <ele>542.20001220703</ele>
        <time>2020-03-20T14:40:55.000Z</time>
      </trkpt>
      <trkpt lat="46.19145" lon="4.64969">
        <ele>539</ele>
        <time>2020-03-20T14:41:05.000Z</time>
      </trkpt>
      <trkpt lat="46.19158" lon="4.64954">
        <ele>537.79998779297</ele>
        <time>2020-03-20T14:41:09.000Z</time>
      </trkpt>
      <trkpt lat="46.19181" lon="4.64925">
        <ele>535.79998779297</ele>
        <time>2020-03-20T14:41:16.000Z</time>
      </trkpt>
      <trkpt lat="46.19222" lon="4.64869">
        <ele>532.59997558594</ele>
        <time>2020-03-20T14:41:30.000Z</time>
      </trkpt>
      <trkpt lat="46.1923" lon="4.64856">
        <ele>532</ele>
        <time>2020-03-20T14:41:34.000Z</time>
      </trkpt>
      <trkpt lat="46.19235" lon="4.64852">
        <ele>532</ele>
        <time>2020-03-20T14:41:36.000Z</time>
      </trkpt>
      <trkpt lat="46.19224" lon="4.64824">
        <ele>531.79998779297</ele>
        <time>2020-03-20T14:41:44.000Z</time>
      </trkpt>
      <trkpt lat="46.1921" lon="4.64782">
        <ele>528.59997558594</ele>
        <time>2020-03-20T14:41:54.000Z</time>
      </trkpt>
      <trkpt lat="46.19203" lon="4.64769">
        <ele>527.40002441406</ele>
        <time>2020-03-20T14:41:57.000Z</time>
      </trkpt>
      <trkpt lat="46.19178" lon="4.64722">
        <ele>523.20001220703</ele>
        <time>2020-03-20T14:42:05.000Z</time>
      </trkpt>
      <trkpt lat="46.19175" lon="4.64718">
        <ele>523.20001220703</ele>
        <time>2020-03-20T14:42:06.000Z</time>
      </trkpt>
      <trkpt lat="46.19169" lon="4.64711">
        <ele>521.40002441406</ele>
        <time>2020-03-20T14:42:08.000Z</time>
      </trkpt>
      <trkpt lat="46.19145" lon="4.64653">
        <ele>519.79998779297</ele>
        <time>2020-03-20T14:42:21.000Z</time>
      </trkpt>
      <trkpt lat="46.19144" lon="4.64648">
        <ele>519.40002441406</ele>
        <time>2020-03-20T14:42:22.000Z</time>
      </trkpt>
      <trkpt lat="46.1913" lon="4.64606">
        <ele>516</ele>
        <time>2020-03-20T14:42:29.000Z</time>
      </trkpt>
      <trkpt lat="46.19128" lon="4.64602">
        <ele>515.59997558594</ele>
        <time>2020-03-20T14:42:30.000Z</time>
      </trkpt>
      <trkpt lat="46.19115" lon="4.64582">
        <ele>513.40002441406</ele>
        <time>2020-03-20T14:42:36.000Z</time>
      </trkpt>
      <trkpt lat="46.19078" lon="4.64572">
        <ele>514</ele>
        <time>2020-03-20T14:42:46.000Z</time>
      </trkpt>
      <trkpt lat="46.19068" lon="4.64574">
        <ele>514.40002441406</ele>
        <time>2020-03-20T14:42:48.000Z</time>
      </trkpt>
      <trkpt lat="46.19056" lon="4.64578">
        <ele>514.40002441406</ele>
        <time>2020-03-20T14:42:50.000Z</time>
      </trkpt>
      <trkpt lat="46.18993" lon="4.64589">
        <ele>511.60000610352</ele>
        <time>2020-03-20T14:43:02.000Z</time>
      </trkpt>
      <trkpt lat="46.18983" lon="4.64591">
        <ele>511.39999389648</ele>
        <time>2020-03-20T14:43:04.000Z</time>
      </trkpt>
      <trkpt lat="46.18963" lon="4.64585">
        <ele>511</ele>
        <time>2020-03-20T14:43:08.000Z</time>
      </trkpt>
      <trkpt lat="46.18939" lon="4.6456">
        <ele>508.39999389648</ele>
        <time>2020-03-20T14:43:15.000Z</time>
      </trkpt>
      <trkpt lat="46.18932" lon="4.64552">
        <ele>507.79998779297</ele>
        <time>2020-03-20T14:43:17.000Z</time>
      </trkpt>
      <trkpt lat="46.18907" lon="4.64494">
        <ele>504.60000610352</ele>
        <time>2020-03-20T14:43:26.000Z</time>
      </trkpt>
      <trkpt lat="46.18902" lon="4.64474">
        <ele>503.20001220703</ele>
        <time>2020-03-20T14:43:29.000Z</time>
      </trkpt>
      <trkpt lat="46.18897" lon="4.64429">
        <ele>502</ele>
        <time>2020-03-20T14:43:37.000Z</time>
      </trkpt>
      <trkpt lat="46.189" lon="4.64363">
        <ele>502</ele>
        <time>2020-03-20T14:43:47.000Z</time>
      </trkpt>
      <trkpt lat="46.18908" lon="4.64338">
        <ele>502</ele>
        <time>2020-03-20T14:43:52.000Z</time>
      </trkpt>
      <trkpt lat="46.18917" lon="4.64312">
        <ele>502.39999389648</ele>
        <time>2020-03-20T14:43:57.000Z</time>
      </trkpt>
      <trkpt lat="46.18907" lon="4.64303">
        <ele>503</ele>
        <time>2020-03-20T14:44:03.000Z</time>
      </trkpt>
      <trkpt lat="46.18888" lon="4.64307">
        <ele>503.39999389648</ele>
        <time>2020-03-20T14:44:11.000Z</time>
      </trkpt>
      <trkpt lat="46.18844" lon="4.64322">
        <ele>503</ele>
        <time>2020-03-20T14:44:21.000Z</time>
      </trkpt>
      <trkpt lat="46.18808" lon="4.64312">
        <ele>503</ele>
        <time>2020-03-20T14:44:29.000Z</time>
      </trkpt>
      <trkpt lat="46.18797" lon="4.64304">
        <ele>503.60000610352</ele>
        <time>2020-03-20T14:44:33.000Z</time>
      </trkpt>
      <trkpt lat="46.18772" lon="4.64283">
        <ele>506.20001220703</ele>
        <time>2020-03-20T14:44:39.000Z</time>
      </trkpt>
      <trkpt lat="46.18763" lon="4.64275">
        <ele>506.39999389648</ele>
        <time>2020-03-20T14:44:41.000Z</time>
      </trkpt>
      <trkpt lat="46.18766" lon="4.6424">
        <ele>506.39999389648</ele>
        <time>2020-03-20T14:44:48.000Z</time>
      </trkpt>
      <trkpt lat="46.18792" lon="4.64181">
        <ele>509.39999389648</ele>
        <time>2020-03-20T14:45:00.000Z</time>
      </trkpt>
      <trkpt lat="46.18797" lon="4.64143">
        <ele>512.20001220703</ele>
        <time>2020-03-20T14:45:06.000Z</time>
      </trkpt>
      <trkpt lat="46.18804" lon="4.64092">
        <ele>515.20001220703</ele>
        <time>2020-03-20T14:45:14.000Z</time>
      </trkpt>
      <trkpt lat="46.18798" lon="4.64059">
        <ele>518</ele>
        <time>2020-03-20T14:45:20.000Z</time>
      </trkpt>
      <trkpt lat="46.1878" lon="4.64036">
        <ele>521.20001220703</ele>
        <time>2020-03-20T14:45:27.000Z</time>
      </trkpt>
      <trkpt lat="46.18779" lon="4.64033">
        <ele>521.40002441406</ele>
        <time>2020-03-20T14:45:28.000Z</time>
      </trkpt>
      <trkpt lat="46.18781" lon="4.64029">
        <ele>522.20001220703</ele>
        <time>2020-03-20T14:45:29.000Z</time>
      </trkpt>
      <trkpt lat="46.18786" lon="4.64022">
        <ele>522.79998779297</ele>
        <time>2020-03-20T14:45:31.000Z</time>
      </trkpt>
      <trkpt lat="46.18792" lon="4.64013">
        <ele>523.59997558594</ele>
        <time>2020-03-20T14:45:33.000Z</time>
      </trkpt>
      <trkpt lat="46.18796" lon="4.63999">
        <ele>524.79998779297</ele>
        <time>2020-03-20T14:45:36.000Z</time>
      </trkpt>
      <trkpt lat="46.18797" lon="4.63948">
        <ele>528</ele>
        <time>2020-03-20T14:45:45.000Z</time>
      </trkpt>
      <trkpt lat="46.18795" lon="4.63943">
        <ele>528.20001220703</ele>
        <time>2020-03-20T14:45:46.000Z</time>
      </trkpt>
      <trkpt lat="46.18771" lon="4.63906">
        <ele>531.40002441406</ele>
        <time>2020-03-20T14:45:53.000Z</time>
      </trkpt>
      <trkpt lat="46.1874" lon="4.63826">
        <ele>533</ele>
        <time>2020-03-20T14:46:05.000Z</time>
      </trkpt>
      <trkpt lat="46.18733" lon="4.638">
        <ele>533.40002441406</ele>
        <time>2020-03-20T14:46:09.000Z</time>
      </trkpt>
      <trkpt lat="46.18733" lon="4.63772">
        <ele>534</ele>
        <time>2020-03-20T14:46:13.000Z</time>
      </trkpt>
      <trkpt lat="46.18732" lon="4.63758">
        <ele>534.40002441406</ele>
        <time>2020-03-20T14:46:15.000Z</time>
      </trkpt>
      <trkpt lat="46.1872" lon="4.63731">
        <ele>535.59997558594</ele>
        <time>2020-03-20T14:46:20.000Z</time>
      </trkpt>
      <trkpt lat="46.18707" lon="4.63717">
        <ele>536.40002441406</ele>
        <time>2020-03-20T14:46:23.000Z</time>
      </trkpt>
      <trkpt lat="46.18695" lon="4.63701">
        <ele>537.59997558594</ele>
        <time>2020-03-20T14:46:26.000Z</time>
      </trkpt>
      <trkpt lat="46.18652" lon="4.63682">
        <ele>540.79998779297</ele>
        <time>2020-03-20T14:46:34.000Z</time>
      </trkpt>
      <trkpt lat="46.18624" lon="4.63659">
        <ele>545</ele>
        <time>2020-03-20T14:46:42.000Z</time>
      </trkpt>
      <trkpt lat="46.18614" lon="4.63648">
        <ele>548.79998779297</ele>
        <time>2020-03-20T14:46:46.000Z</time>
      </trkpt>
      <trkpt lat="46.18607" lon="4.6364">
        <ele>551.79998779297</ele>
        <time>2020-03-20T14:46:49.000Z</time>
      </trkpt>
      <trkpt lat="46.18593" lon="4.63634">
        <ele>554.79998779297</ele>
        <time>2020-03-20T14:46:53.000Z</time>
      </trkpt>
      <trkpt lat="46.1858" lon="4.63632">
        <ele>556.59997558594</ele>
        <time>2020-03-20T14:46:56.000Z</time>
      </trkpt>
      <trkpt lat="46.18576" lon="4.63632">
        <ele>557.79998779297</ele>
        <time>2020-03-20T14:46:57.000Z</time>
      </trkpt>
      <trkpt lat="46.18549" lon="4.63637">
        <ele>560.40002441406</ele>
        <time>2020-03-20T14:47:03.000Z</time>
      </trkpt>
      <trkpt lat="46.18539" lon="4.63639">
        <ele>560.79998779297</ele>
        <time>2020-03-20T14:47:05.000Z</time>
      </trkpt>
      <trkpt lat="46.18526" lon="4.63644">
        <ele>561</ele>
        <time>2020-03-20T14:47:07.000Z</time>
      </trkpt>
      <trkpt lat="46.18511" lon="4.63653">
        <ele>561.20001220703</ele>
        <time>2020-03-20T14:47:10.000Z</time>
      </trkpt>
      <trkpt lat="46.18457" lon="4.6366">
        <ele>561.79998779297</ele>
        <time>2020-03-20T14:47:22.000Z</time>
      </trkpt>
      <trkpt lat="46.1843" lon="4.63679">
        <ele>562.40002441406</ele>
        <time>2020-03-20T14:47:30.000Z</time>
      </trkpt>
      <trkpt lat="46.1838" lon="4.63707">
        <ele>559.40002441406</ele>
        <time>2020-03-20T14:47:45.000Z</time>
      </trkpt>
      <trkpt lat="46.18355" lon="4.63723">
        <ele>557</ele>
        <time>2020-03-20T14:47:51.000Z</time>
      </trkpt>
      <trkpt lat="46.18335" lon="4.63728">
        <ele>554.79998779297</ele>
        <time>2020-03-20T14:47:55.000Z</time>
      </trkpt>
      <trkpt lat="46.18301" lon="4.63749">
        <ele>550.59997558594</ele>
        <time>2020-03-20T14:48:03.000Z</time>
      </trkpt>
      <trkpt lat="46.18295" lon="4.6376">
        <ele>547.40002441406</ele>
        <time>2020-03-20T14:48:07.000Z</time>
      </trkpt>
      <trkpt lat="46.18295" lon="4.6376">
        <ele>546.20001220703</ele>
        <time>2020-03-20T14:48:11.000Z</time>
      </trkpt>
      <trkpt lat="46.18292" lon="4.6377">
        <ele>544.59997558594</ele>
        <time>2020-03-20T14:48:46.000Z</time>
      </trkpt>
      <trkpt lat="46.18267" lon="4.63825">
        <ele>542</ele>
        <time>2020-03-20T14:48:56.000Z</time>
      </trkpt>
      <trkpt lat="46.18258" lon="4.63844">
        <ele>537.40002441406</ele>
        <time>2020-03-20T14:49:00.000Z</time>
      </trkpt>
      <trkpt lat="46.18245" lon="4.63864">
        <ele>534.20001220703</ele>
        <time>2020-03-20T14:49:04.000Z</time>
      </trkpt>
      <trkpt lat="46.18225" lon="4.63901">
        <ele>530</ele>
        <time>2020-03-20T14:49:10.000Z</time>
      </trkpt>
      <trkpt lat="46.18222" lon="4.63907">
        <ele>529.20001220703</ele>
        <time>2020-03-20T14:49:11.000Z</time>
      </trkpt>
      <trkpt lat="46.18213" lon="4.63935">
        <ele>525.20001220703</ele>
        <time>2020-03-20T14:49:15.000Z</time>
      </trkpt>
      <trkpt lat="46.18206" lon="4.63959">
        <ele>520.79998779297</ele>
        <time>2020-03-20T14:49:18.000Z</time>
      </trkpt>
      <trkpt lat="46.18197" lon="4.63978">
        <ele>519.59997558594</ele>
        <time>2020-03-20T14:49:21.000Z</time>
      </trkpt>
      <trkpt lat="46.18186" lon="4.63995">
        <ele>516.59997558594</ele>
        <time>2020-03-20T14:49:24.000Z</time>
      </trkpt>
      <trkpt lat="46.18174" lon="4.64011">
        <ele>513.40002441406</ele>
        <time>2020-03-20T14:49:27.000Z</time>
      </trkpt>
      <trkpt lat="46.18148" lon="4.6404">
        <ele>509.79998779297</ele>
        <time>2020-03-20T14:49:33.000Z</time>
      </trkpt>
      <trkpt lat="46.18144" lon="4.64044">
        <ele>509.39999389648</ele>
        <time>2020-03-20T14:49:34.000Z</time>
      </trkpt>
      <trkpt lat="46.18135" lon="4.6405">
        <ele>508.60000610352</ele>
        <time>2020-03-20T14:49:36.000Z</time>
      </trkpt>
      <trkpt lat="46.18114" lon="4.64055">
        <ele>508</ele>
        <time>2020-03-20T14:49:40.000Z</time>
      </trkpt>
      <trkpt lat="46.18088" lon="4.64062">
        <ele>507</ele>
        <time>2020-03-20T14:49:45.000Z</time>
      </trkpt>
      <trkpt lat="46.18056" lon="4.64093">
        <ele>503.20001220703</ele>
        <time>2020-03-20T14:49:51.000Z</time>
      </trkpt>
      <trkpt lat="46.1804" lon="4.64107">
        <ele>499.60000610352</ele>
        <time>2020-03-20T14:49:54.000Z</time>
      </trkpt>
      <trkpt lat="46.18022" lon="4.64122">
        <ele>496</ele>
        <time>2020-03-20T14:49:57.000Z</time>
      </trkpt>
      <trkpt lat="46.18003" lon="4.64135">
        <ele>491.20001220703</ele>
        <time>2020-03-20T14:50:00.000Z</time>
      </trkpt>
      <trkpt lat="46.17998" lon="4.64139">
        <ele>491.20001220703</ele>
        <time>2020-03-20T14:50:01.000Z</time>
      </trkpt>
      <trkpt lat="46.17982" lon="4.64148">
        <ele>486.79998779297</ele>
        <time>2020-03-20T14:50:04.000Z</time>
      </trkpt>
      <trkpt lat="46.17977" lon="4.64151">
        <ele>486.79998779297</ele>
        <time>2020-03-20T14:50:05.000Z</time>
      </trkpt>
      <trkpt lat="46.17965" lon="4.64157">
        <ele>483.39999389648</ele>
        <time>2020-03-20T14:50:09.000Z</time>
      </trkpt>
      <trkpt lat="46.1796" lon="4.6416">
        <ele>481.60000610352</ele>
        <time>2020-03-20T14:50:11.000Z</time>
      </trkpt>
      <trkpt lat="46.17952" lon="4.64144">
        <ele>477.79998779297</ele>
        <time>2020-03-20T14:50:15.000Z</time>
      </trkpt>
      <trkpt lat="46.17941" lon="4.64053">
        <ele>473.79998779297</ele>
        <time>2020-03-20T14:50:26.000Z</time>
      </trkpt>
      <trkpt lat="46.17939" lon="4.64032">
        <ele>473.39999389648</ele>
        <time>2020-03-20T14:50:28.000Z</time>
      </trkpt>
      <trkpt lat="46.17935" lon="4.63965">
        <ele>471.20001220703</ele>
        <time>2020-03-20T14:50:34.000Z</time>
      </trkpt>
      <trkpt lat="46.17934" lon="4.63954">
        <ele>470.79998779297</ele>
        <time>2020-03-20T14:50:35.000Z</time>
      </trkpt>
      <trkpt lat="46.17898" lon="4.63908">
        <ele>468.20001220703</ele>
        <time>2020-03-20T14:50:42.000Z</time>
      </trkpt>
      <trkpt lat="46.17828" lon="4.63899">
        <ele>466.60000610352</ele>
        <time>2020-03-20T14:50:55.000Z</time>
      </trkpt>
      <trkpt lat="46.1781" lon="4.63929">
        <ele>468</ele>
        <time>2020-03-20T14:51:03.000Z</time>
      </trkpt>
      <trkpt lat="46.1777" lon="4.63996">
        <ele>466.20001220703</ele>
        <time>2020-03-20T14:51:12.000Z</time>
      </trkpt>
      <trkpt lat="46.1775" lon="4.6402">
        <ele>462</ele>
        <time>2020-03-20T14:51:16.000Z</time>
      </trkpt>
      <trkpt lat="46.17741" lon="4.64032">
        <ele>458.60000610352</ele>
        <time>2020-03-20T14:51:18.000Z</time>
      </trkpt>
      <trkpt lat="46.17732" lon="4.64046">
        <ele>455</ele>
        <time>2020-03-20T14:51:20.000Z</time>
      </trkpt>
      <trkpt lat="46.17728" lon="4.64052">
        <ele>453.79998779297</ele>
        <time>2020-03-20T14:51:21.000Z</time>
      </trkpt>
      <trkpt lat="46.1772" lon="4.64063">
        <ele>451.39999389648</ele>
        <time>2020-03-20T14:51:24.000Z</time>
      </trkpt>
      <trkpt lat="46.1772" lon="4.64064">
        <ele>448.20001220703</ele>
        <time>2020-03-20T14:51:29.000Z</time>
      </trkpt>
      <trkpt lat="46.17713" lon="4.64075">
        <ele>447.60000610352</ele>
        <time>2020-03-20T14:51:34.000Z</time>
      </trkpt>
      <trkpt lat="46.17709" lon="4.64124">
        <ele>446.39999389648</ele>
        <time>2020-03-20T14:51:41.000Z</time>
      </trkpt>
      <trkpt lat="46.17701" lon="4.6414">
        <ele>444.39999389648</ele>
        <time>2020-03-20T14:51:45.000Z</time>
      </trkpt>
      <trkpt lat="46.17694" lon="4.64146">
        <ele>443.20001220703</ele>
        <time>2020-03-20T14:51:47.000Z</time>
      </trkpt>
      <trkpt lat="46.17687" lon="4.64154">
        <ele>442.39999389648</ele>
        <time>2020-03-20T14:51:49.000Z</time>
      </trkpt>
      <trkpt lat="46.17678" lon="4.64161">
        <ele>442.20001220703</ele>
        <time>2020-03-20T14:51:51.000Z</time>
      </trkpt>
      <trkpt lat="46.17664" lon="4.6417">
        <ele>442.20001220703</ele>
        <time>2020-03-20T14:51:54.000Z</time>
      </trkpt>
      <trkpt lat="46.17647" lon="4.6419">
        <ele>442</ele>
        <time>2020-03-20T14:51:58.000Z</time>
      </trkpt>
      <trkpt lat="46.17634" lon="4.64221">
        <ele>442.20001220703</ele>
        <time>2020-03-20T14:52:03.000Z</time>
      </trkpt>
      <trkpt lat="46.17629" lon="4.64257">
        <ele>445.79998779297</ele>
        <time>2020-03-20T14:52:13.000Z</time>
      </trkpt>
      <trkpt lat="46.17628" lon="4.64257">
        <ele>446.60000610352</ele>
        <time>2020-03-20T14:52:15.000Z</time>
      </trkpt>
      <trkpt lat="46.17627" lon="4.64268">
        <ele>448</ele>
        <time>2020-03-20T14:52:24.000Z</time>
      </trkpt>
      <trkpt lat="46.176" lon="4.64297">
        <ele>448</ele>
        <time>2020-03-20T14:52:32.000Z</time>
      </trkpt>
      <trkpt lat="46.17582" lon="4.64307">
        <ele>446.79998779297</ele>
        <time>2020-03-20T14:52:36.000Z</time>
      </trkpt>
      <trkpt lat="46.1757" lon="4.64314">
        <ele>444.79998779297</ele>
        <time>2020-03-20T14:52:39.000Z</time>
      </trkpt>
      <trkpt lat="46.17536" lon="4.6434">
        <ele>441.20001220703</ele>
        <time>2020-03-20T14:52:48.000Z</time>
      </trkpt>
      <trkpt lat="46.1751" lon="4.64366">
        <ele>437</ele>
        <time>2020-03-20T14:52:55.000Z</time>
      </trkpt>
      <trkpt lat="46.17507" lon="4.64371">
        <ele>437</ele>
        <time>2020-03-20T14:52:56.000Z</time>
      </trkpt>
      <trkpt lat="46.17501" lon="4.64379">
        <ele>435</ele>
        <time>2020-03-20T14:52:58.000Z</time>
      </trkpt>
      <trkpt lat="46.1749" lon="4.6439">
        <ele>432</ele>
        <time>2020-03-20T14:53:01.000Z</time>
      </trkpt>
      <trkpt lat="46.17474" lon="4.64411">
        <ele>428.79998779297</ele>
        <time>2020-03-20T14:53:05.000Z</time>
      </trkpt>
      <trkpt lat="46.17443" lon="4.6446">
        <ele>425.20001220703</ele>
        <time>2020-03-20T14:53:12.000Z</time>
      </trkpt>
      <trkpt lat="46.17429" lon="4.64493">
        <ele>421.79998779297</ele>
        <time>2020-03-20T14:53:17.000Z</time>
      </trkpt>
      <trkpt lat="46.17424" lon="4.64527">
        <ele>418.79998779297</ele>
        <time>2020-03-20T14:53:23.000Z</time>
      </trkpt>
      <trkpt lat="46.17424" lon="4.64534">
        <ele>418.60000610352</ele>
        <time>2020-03-20T14:53:24.000Z</time>
      </trkpt>
      <trkpt lat="46.17396" lon="4.64653">
        <ele>416</ele>
        <time>2020-03-20T14:53:39.000Z</time>
      </trkpt>
      <trkpt lat="46.1736" lon="4.64773">
        <ele>416.60000610352</ele>
        <time>2020-03-20T14:53:54.000Z</time>
      </trkpt>
      <trkpt lat="46.17337" lon="4.64882">
        <ele>417</ele>
        <time>2020-03-20T14:54:06.000Z</time>
      </trkpt>
      <trkpt lat="46.17326" lon="4.64945">
        <ele>415</ele>
        <time>2020-03-20T14:54:12.000Z</time>
      </trkpt>
      <trkpt lat="46.17318" lon="4.64984">
        <ele>413</ele>
        <time>2020-03-20T14:54:16.000Z</time>
      </trkpt>
      <trkpt lat="46.17306" lon="4.65019">
        <ele>410.79998779297</ele>
        <time>2020-03-20T14:54:20.000Z</time>
      </trkpt>
      <trkpt lat="46.17285" lon="4.6507">
        <ele>410</ele>
        <time>2020-03-20T14:54:26.000Z</time>
      </trkpt>
      <trkpt lat="46.17231" lon="4.65148">
        <ele>408.39999389648</ele>
        <time>2020-03-20T14:54:38.000Z</time>
      </trkpt>
      <trkpt lat="46.17181" lon="4.65203">
        <ele>407.60000610352</ele>
        <time>2020-03-20T14:54:48.000Z</time>
      </trkpt>
      <trkpt lat="46.17141" lon="4.65254">
        <ele>407.20001220703</ele>
        <time>2020-03-20T14:55:00.000Z</time>
      </trkpt>
      <trkpt lat="46.17106" lon="4.65313">
        <ele>409</ele>
        <time>2020-03-20T14:55:10.000Z</time>
      </trkpt>
      <trkpt lat="46.17098" lon="4.65324">
        <ele>409</ele>
        <time>2020-03-20T14:55:12.000Z</time>
      </trkpt>
      <trkpt lat="46.17088" lon="4.6534">
        <ele>409.39999389648</ele>
        <time>2020-03-20T14:55:15.000Z</time>
      </trkpt>
      <trkpt lat="46.17056" lon="4.65378">
        <ele>409.79998779297</ele>
        <time>2020-03-20T14:55:22.000Z</time>
      </trkpt>
      <trkpt lat="46.17021" lon="4.65478">
        <ele>409</ele>
        <time>2020-03-20T14:55:36.000Z</time>
      </trkpt>
      <trkpt lat="46.16997" lon="4.65621">
        <ele>409.60000610352</ele>
        <time>2020-03-20T14:55:54.000Z</time>
      </trkpt>
      <trkpt lat="46.16993" lon="4.65681">
        <ele>409.60000610352</ele>
        <time>2020-03-20T14:56:02.000Z</time>
      </trkpt>
      <trkpt lat="46.16993" lon="4.65708">
        <ele>409.60000610352</ele>
        <time>2020-03-20T14:56:06.000Z</time>
      </trkpt>
      <trkpt lat="46.16998" lon="4.65754">
        <ele>409.60000610352</ele>
        <time>2020-03-20T14:56:13.000Z</time>
      </trkpt>
      <trkpt lat="46.17014" lon="4.65854">
        <ele>408</ele>
        <time>2020-03-20T14:56:28.000Z</time>
      </trkpt>
      <trkpt lat="46.17015" lon="4.65865">
        <ele>407.60000610352</ele>
        <time>2020-03-20T14:56:30.000Z</time>
      </trkpt>
      <trkpt lat="46.1702" lon="4.65892">
        <ele>406.39999389648</ele>
        <time>2020-03-20T14:56:34.000Z</time>
      </trkpt>
      <trkpt lat="46.17026" lon="4.65946">
        <ele>404.39999389648</ele>
        <time>2020-03-20T14:56:41.000Z</time>
      </trkpt>
      <trkpt lat="46.17024" lon="4.65985">
        <ele>401.20001220703</ele>
        <time>2020-03-20T14:56:46.000Z</time>
      </trkpt>
      <trkpt lat="46.17017" lon="4.66043">
        <ele>397.60000610352</ele>
        <time>2020-03-20T14:56:54.000Z</time>
      </trkpt>
      <trkpt lat="46.17002" lon="4.66105">
        <ele>394</ele>
        <time>2020-03-20T14:57:03.000Z</time>
      </trkpt>
      <trkpt lat="46.16995" lon="4.66135">
        <ele>391.79998779297</ele>
        <time>2020-03-20T14:57:08.000Z</time>
      </trkpt>
      <trkpt lat="46.16994" lon="4.66141">
        <ele>391.60000610352</ele>
        <time>2020-03-20T14:57:09.000Z</time>
      </trkpt>
      <trkpt lat="46.16986" lon="4.66174">
        <ele>389.39999389648</ele>
        <time>2020-03-20T14:57:15.000Z</time>
      </trkpt>
      <trkpt lat="46.16986" lon="4.66241">
        <ele>385.60000610352</ele>
        <time>2020-03-20T14:57:26.000Z</time>
      </trkpt>
      <trkpt lat="46.16985" lon="4.66247">
        <ele>385.20001220703</ele>
        <time>2020-03-20T14:57:27.000Z</time>
      </trkpt>
      <trkpt lat="46.16981" lon="4.66265">
        <ele>384</ele>
        <time>2020-03-20T14:57:30.000Z</time>
      </trkpt>
      <trkpt lat="46.16983" lon="4.66291">
        <ele>381.60000610352</ele>
        <time>2020-03-20T14:57:34.000Z</time>
      </trkpt>
      <trkpt lat="46.16987" lon="4.66325">
        <ele>380</ele>
        <time>2020-03-20T14:57:40.000Z</time>
      </trkpt>
      <trkpt lat="46.16989" lon="4.66344">
        <ele>379</ele>
        <time>2020-03-20T14:57:43.000Z</time>
      </trkpt>
      <trkpt lat="46.16982" lon="4.6639">
        <ele>377.20001220703</ele>
        <time>2020-03-20T14:57:50.000Z</time>
      </trkpt>
      <trkpt lat="46.16976" lon="4.66395">
        <ele>376.20001220703</ele>
        <time>2020-03-20T14:57:52.000Z</time>
      </trkpt>
      <trkpt lat="46.16968" lon="4.66393">
        <ele>375.60000610352</ele>
        <time>2020-03-20T14:57:54.000Z</time>
      </trkpt>
      <trkpt lat="46.16954" lon="4.66388">
        <ele>373.60000610352</ele>
        <time>2020-03-20T14:57:57.000Z</time>
      </trkpt>
      <trkpt lat="46.16934" lon="4.66383">
        <ele>373.39999389648</ele>
        <time>2020-03-20T14:58:01.000Z</time>
      </trkpt>
      <trkpt lat="46.16889" lon="4.66362">
        <ele>375.20001220703</ele>
        <time>2020-03-20T14:58:11.000Z</time>
      </trkpt>
      <trkpt lat="46.16875" lon="4.66353">
        <ele>376.39999389648</ele>
        <time>2020-03-20T14:58:14.000Z</time>
      </trkpt>
      <trkpt lat="46.16844" lon="4.66336">
        <ele>376.79998779297</ele>
        <time>2020-03-20T14:58:20.000Z</time>
      </trkpt>
      <trkpt lat="46.16821" lon="4.66335">
        <ele>376.79998779297</ele>
        <time>2020-03-20T14:58:24.000Z</time>
      </trkpt>
      <trkpt lat="46.16787" lon="4.66344">
        <ele>376.20001220703</ele>
        <time>2020-03-20T14:58:30.000Z</time>
      </trkpt>
      <trkpt lat="46.16757" lon="4.66345">
        <ele>375.60000610352</ele>
        <time>2020-03-20T14:58:35.000Z</time>
      </trkpt>
      <trkpt lat="46.16671" lon="4.66308">
        <ele>378.39999389648</ele>
        <time>2020-03-20T14:58:53.000Z</time>
      </trkpt>
      <trkpt lat="46.16668" lon="4.66306">
        <ele>378.60000610352</ele>
        <time>2020-03-20T14:58:54.000Z</time>
      </trkpt>
      <trkpt lat="46.16659" lon="4.66316">
        <ele>379</ele>
        <time>2020-03-20T14:58:58.000Z</time>
      </trkpt>
      <trkpt lat="46.16646" lon="4.6634">
        <ele>379.20001220703</ele>
        <time>2020-03-20T14:59:04.000Z</time>
      </trkpt>
      <trkpt lat="46.1661" lon="4.66324">
        <ele>376.79998779297</ele>
        <time>2020-03-20T14:59:12.000Z</time>
      </trkpt>
      <trkpt lat="46.16533" lon="4.66264">
        <ele>373.79998779297</ele>
        <time>2020-03-20T14:59:24.000Z</time>
      </trkpt>
      <trkpt lat="46.16505" lon="4.66241">
        <ele>372</ele>
        <time>2020-03-20T14:59:28.000Z</time>
      </trkpt>
      <trkpt lat="46.16477" lon="4.6622">
        <ele>369.60000610352</ele>
        <time>2020-03-20T14:59:32.000Z</time>
      </trkpt>
      <trkpt lat="46.16465" lon="4.6621">
        <ele>368.20001220703</ele>
        <time>2020-03-20T14:59:34.000Z</time>
      </trkpt>
      <trkpt lat="46.16439" lon="4.66191">
        <ele>364.79998779297</ele>
        <time>2020-03-20T14:59:41.000Z</time>
      </trkpt>
      <trkpt lat="46.16438" lon="4.6619">
        <ele>364.39999389648</ele>
        <time>2020-03-20T14:59:42.000Z</time>
      </trkpt>
      <trkpt lat="46.16433" lon="4.66186">
        <ele>363.79998779297</ele>
        <time>2020-03-20T14:59:45.000Z</time>
      </trkpt>
      <trkpt lat="46.16378" lon="4.66172">
        <ele>362.79998779297</ele>
        <time>2020-03-20T14:59:56.000Z</time>
      </trkpt>
      <trkpt lat="46.16366" lon="4.66169">
        <ele>362.60000610352</ele>
        <time>2020-03-20T14:59:58.000Z</time>
      </trkpt>
      <trkpt lat="46.16327" lon="4.66164">
        <ele>362</ele>
        <time>2020-03-20T15:00:05.000Z</time>
      </trkpt>
      <trkpt lat="46.16255" lon="4.66136">
        <ele>363</ele>
        <time>2020-03-20T15:00:19.000Z</time>
      </trkpt>
      <trkpt lat="46.1625" lon="4.66136">
        <ele>363</ele>
        <time>2020-03-20T15:00:20.000Z</time>
      </trkpt>
      <trkpt lat="46.1624" lon="4.66137">
        <ele>363</ele>
        <time>2020-03-20T15:00:22.000Z</time>
      </trkpt>
      <trkpt lat="46.16214" lon="4.66131">
        <ele>363.20001220703</ele>
        <time>2020-03-20T15:00:27.000Z</time>
      </trkpt>
      <trkpt lat="46.16187" lon="4.66116">
        <ele>363.39999389648</ele>
        <time>2020-03-20T15:00:32.000Z</time>
      </trkpt>
      <trkpt lat="46.16107" lon="4.66102">
        <ele>361.60000610352</ele>
        <time>2020-03-20T15:00:43.000Z</time>
      </trkpt>
      <trkpt lat="46.16097" lon="4.66097">
        <ele>359.60000610352</ele>
        <time>2020-03-20T15:00:45.000Z</time>
      </trkpt>
      <trkpt lat="46.16086" lon="4.66088">
        <ele>357.20001220703</ele>
        <time>2020-03-20T15:00:47.000Z</time>
      </trkpt>
      <trkpt lat="46.16075" lon="4.66073">
        <ele>356.60000610352</ele>
        <time>2020-03-20T15:00:49.000Z</time>
      </trkpt>
      <trkpt lat="46.16042" lon="4.66032">
        <ele>354.79998779297</ele>
        <time>2020-03-20T15:00:56.000Z</time>
      </trkpt>
      <trkpt lat="46.16049" lon="4.66015">
        <ele>350.60000610352</ele>
        <time>2020-03-20T15:01:01.000Z</time>
      </trkpt>
      <trkpt lat="46.16052" lon="4.66011">
        <ele>350.20001220703</ele>
        <time>2020-03-20T15:01:02.000Z</time>
      </trkpt>
      <trkpt lat="46.16121" lon="4.65968">
        <ele>347</ele>
        <time>2020-03-20T15:01:15.000Z</time>
      </trkpt>
      <trkpt lat="46.16162" lon="4.65946">
        <ele>344</ele>
        <time>2020-03-20T15:01:22.000Z</time>
      </trkpt>
      <trkpt lat="46.16217" lon="4.65913">
        <ele>340.60000610352</ele>
        <time>2020-03-20T15:01:31.000Z</time>
      </trkpt>
      <trkpt lat="46.1623" lon="4.65897">
        <ele>338.79998779297</ele>
        <time>2020-03-20T15:01:34.000Z</time>
      </trkpt>
      <trkpt lat="46.16231" lon="4.65873">
        <ele>335.60000610352</ele>
        <time>2020-03-20T15:01:40.000Z</time>
      </trkpt>
      <trkpt lat="46.16231" lon="4.65871">
        <ele>334.79998779297</ele>
        <time>2020-03-20T15:01:48.000Z</time>
      </trkpt>
      <trkpt lat="46.16226" lon="4.65865">
        <ele>334.79998779297</ele>
        <time>2020-03-20T15:01:55.000Z</time>
      </trkpt>
      <trkpt lat="46.16216" lon="4.65859">
        <ele>334.79998779297</ele>
        <time>2020-03-20T15:01:58.000Z</time>
      </trkpt>
      <trkpt lat="46.16207" lon="4.6586">
        <ele>334.79998779297</ele>
        <time>2020-03-20T15:02:01.000Z</time>
      </trkpt>
      <trkpt lat="46.16188" lon="4.6586">
        <ele>334.60000610352</ele>
        <time>2020-03-20T15:02:05.000Z</time>
      </trkpt>
      <trkpt lat="46.16159" lon="4.65861">
        <ele>334.20001220703</ele>
        <time>2020-03-20T15:02:11.000Z</time>
      </trkpt>
      <trkpt lat="46.16108" lon="4.65844">
        <ele>334.79998779297</ele>
        <time>2020-03-20T15:02:23.000Z</time>
      </trkpt>
      <trkpt lat="46.16085" lon="4.65837">
        <ele>336.60000610352</ele>
        <time>2020-03-20T15:02:28.000Z</time>
      </trkpt>
      <trkpt lat="46.16059" lon="4.6581">
        <ele>340.39999389648</ele>
        <time>2020-03-20T15:02:34.000Z</time>
      </trkpt>
      <trkpt lat="46.16054" lon="4.65796">
        <ele>341.60000610352</ele>
        <time>2020-03-20T15:02:36.000Z</time>
      </trkpt>
      <trkpt lat="46.16043" lon="4.65767">
        <ele>344.79998779297</ele>
        <time>2020-03-20T15:02:40.000Z</time>
      </trkpt>
      <trkpt lat="46.16029" lon="4.65723">
        <ele>350</ele>
        <time>2020-03-20T15:02:46.000Z</time>
      </trkpt>
      <trkpt lat="46.16027" lon="4.65716">
        <ele>350</ele>
        <time>2020-03-20T15:02:47.000Z</time>
      </trkpt>
      <trkpt lat="46.16019" lon="4.65688">
        <ele>352</ele>
        <time>2020-03-20T15:02:51.000Z</time>
      </trkpt>
      <trkpt lat="46.16012" lon="4.65641">
        <ele>355.39999389648</ele>
        <time>2020-03-20T15:02:58.000Z</time>
      </trkpt>
      <trkpt lat="46.16008" lon="4.65625">
        <ele>356.60000610352</ele>
        <time>2020-03-20T15:03:01.000Z</time>
      </trkpt>
      <trkpt lat="46.16007" lon="4.6562">
        <ele>356.79998779297</ele>
        <time>2020-03-20T15:03:02.000Z</time>
      </trkpt>
      <trkpt lat="46.15991" lon="4.6556">
        <ele>358</ele>
        <time>2020-03-20T15:03:12.000Z</time>
      </trkpt>
      <trkpt lat="46.15961" lon="4.65425">
        <ele>359.60000610352</ele>
        <time>2020-03-20T15:03:32.000Z</time>
      </trkpt>
      <trkpt lat="46.15956" lon="4.65406">
        <ele>360.20001220703</ele>
        <time>2020-03-20T15:03:35.000Z</time>
      </trkpt>
      <trkpt lat="46.15953" lon="4.65381">
        <ele>361</ele>
        <time>2020-03-20T15:03:39.000Z</time>
      </trkpt>
      <trkpt lat="46.15951" lon="4.65363">
        <ele>361.39999389648</ele>
        <time>2020-03-20T15:03:42.000Z</time>
      </trkpt>
      <trkpt lat="46.15954" lon="4.65276">
        <ele>364.79998779297</ele>
        <time>2020-03-20T15:03:56.000Z</time>
      </trkpt>
      <trkpt lat="46.15946" lon="4.6524">
        <ele>366.20001220703</ele>
        <time>2020-03-20T15:04:03.000Z</time>
      </trkpt>
      <trkpt lat="46.15941" lon="4.65228">
        <ele>366.79998779297</ele>
        <time>2020-03-20T15:04:05.000Z</time>
      </trkpt>
      <trkpt lat="46.15914" lon="4.65155">
        <ele>367.79998779297</ele>
        <time>2020-03-20T15:04:18.000Z</time>
      </trkpt>
      <trkpt lat="46.15906" lon="4.65137">
        <ele>367.79998779297</ele>
        <time>2020-03-20T15:04:22.000Z</time>
      </trkpt>
      <trkpt lat="46.159" lon="4.65075">
        <ele>369.20001220703</ele>
        <time>2020-03-20T15:04:35.000Z</time>
      </trkpt>
      <trkpt lat="46.15901" lon="4.65045">
        <ele>369.79998779297</ele>
        <time>2020-03-20T15:04:41.000Z</time>
      </trkpt>
      <trkpt lat="46.15903" lon="4.65019">
        <ele>369.79998779297</ele>
        <time>2020-03-20T15:04:45.000Z</time>
      </trkpt>
      <trkpt lat="46.15898" lon="4.64968">
        <ele>366.79998779297</ele>
        <time>2020-03-20T15:04:55.000Z</time>
      </trkpt>
      <trkpt lat="46.15859" lon="4.64961">
        <ele>364.20001220703</ele>
        <time>2020-03-20T15:05:05.000Z</time>
      </trkpt>
      <trkpt lat="46.15831" lon="4.64959">
        <ele>364</ele>
        <time>2020-03-20T15:05:11.000Z</time>
      </trkpt>
      <trkpt lat="46.15774" lon="4.64954">
        <ele>365.39999389648</ele>
        <time>2020-03-20T15:05:24.000Z</time>
      </trkpt>
      <trkpt lat="46.15694" lon="4.64948">
        <ele>364</ele>
        <time>2020-03-20T15:05:41.000Z</time>
      </trkpt>
      <trkpt lat="46.15675" lon="4.64947">
        <ele>362.39999389648</ele>
        <time>2020-03-20T15:05:45.000Z</time>
      </trkpt>
      <trkpt lat="46.15646" lon="4.64951">
        <ele>358.39999389648</ele>
        <time>2020-03-20T15:05:52.000Z</time>
      </trkpt>
      <trkpt lat="46.15623" lon="4.64953">
        <ele>355.20001220703</ele>
        <time>2020-03-20T15:05:58.000Z</time>
      </trkpt>
      <trkpt lat="46.15611" lon="4.64956">
        <ele>352.20001220703</ele>
        <time>2020-03-20T15:06:02.000Z</time>
      </trkpt>
      <trkpt lat="46.15606" lon="4.64956">
        <ele>350.60000610352</ele>
        <time>2020-03-20T15:06:03.000Z</time>
      </trkpt>
      <trkpt lat="46.15565" lon="4.64963">
        <ele>346.79998779297</ele>
        <time>2020-03-20T15:06:11.000Z</time>
      </trkpt>
      <trkpt lat="46.1556" lon="4.64964">
        <ele>346</ele>
        <time>2020-03-20T15:06:12.000Z</time>
      </trkpt>
      <trkpt lat="46.15518" lon="4.64977">
        <ele>343.60000610352</ele>
        <time>2020-03-20T15:06:21.000Z</time>
      </trkpt>
      <trkpt lat="46.15484" lon="4.64998">
        <ele>341.39999389648</ele>
        <time>2020-03-20T15:06:28.000Z</time>
      </trkpt>
      <trkpt lat="46.1545" lon="4.65021">
        <ele>338.20001220703</ele>
        <time>2020-03-20T15:06:34.000Z</time>
      </trkpt>
      <trkpt lat="46.15422" lon="4.6504">
        <ele>335</ele>
        <time>2020-03-20T15:06:40.000Z</time>
      </trkpt>
      <trkpt lat="46.15416" lon="4.65052">
        <ele>334</ele>
        <time>2020-03-20T15:06:43.000Z</time>
      </trkpt>
      <trkpt lat="46.15417" lon="4.65091">
        <ele>333.79998779297</ele>
        <time>2020-03-20T15:06:51.000Z</time>
      </trkpt>
      <trkpt lat="46.1542" lon="4.65088">
        <ele>334.20001220703</ele>
        <time>2020-03-20T15:06:59.000Z</time>
      </trkpt>
      <trkpt lat="46.15419" lon="4.65076">
        <ele>334.60000610352</ele>
        <time>2020-03-20T15:07:04.000Z</time>
      </trkpt>
      <trkpt lat="46.15418" lon="4.65062">
        <ele>334.79998779297</ele>
        <time>2020-03-20T15:07:07.000Z</time>
      </trkpt>
      <trkpt lat="46.15412" lon="4.65051">
        <ele>334.79998779297</ele>
        <time>2020-03-20T15:07:11.000Z</time>
      </trkpt>
      <trkpt lat="46.15377" lon="4.65041">
        <ele>333.60000610352</ele>
        <time>2020-03-20T15:07:22.000Z</time>
      </trkpt>
      <trkpt lat="46.15374" lon="4.65044">
        <ele>333</ele>
        <time>2020-03-20T15:07:23.000Z</time>
      </trkpt>
      <trkpt lat="46.15354" lon="4.65053">
        <ele>330</ele>
        <time>2020-03-20T15:07:29.000Z</time>
      </trkpt>
      <trkpt lat="46.15322" lon="4.65062">
        <ele>327.20001220703</ele>
        <time>2020-03-20T15:07:36.000Z</time>
      </trkpt>
      <trkpt lat="46.15301" lon="4.6507">
        <ele>323.39999389648</ele>
        <time>2020-03-20T15:07:42.000Z</time>
      </trkpt>
      <trkpt lat="46.15294" lon="4.65067">
        <ele>322.20001220703</ele>
        <time>2020-03-20T15:07:44.000Z</time>
      </trkpt>
      <trkpt lat="46.15243" lon="4.65024">
        <ele>318</ele>
        <time>2020-03-20T15:07:55.000Z</time>
      </trkpt>
      <trkpt lat="46.15225" lon="4.6501">
        <ele>315.60000610352</ele>
        <time>2020-03-20T15:07:59.000Z</time>
      </trkpt>
      <trkpt lat="46.1521" lon="4.65008">
        <ele>313.20001220703</ele>
        <time>2020-03-20T15:08:03.000Z</time>
      </trkpt>
      <trkpt lat="46.15202" lon="4.65021">
        <ele>311.20001220703</ele>
        <time>2020-03-20T15:08:06.000Z</time>
      </trkpt>
      <trkpt lat="46.15187" lon="4.65035">
        <ele>310</ele>
        <time>2020-03-20T15:08:10.000Z</time>
      </trkpt>
      <trkpt lat="46.15182" lon="4.65063">
        <ele>309.79998779297</ele>
        <time>2020-03-20T15:08:15.000Z</time>
      </trkpt>
      <trkpt lat="46.15182" lon="4.65148">
        <ele>313.39999389648</ele>
        <time>2020-03-20T15:08:29.000Z</time>
      </trkpt>
      <trkpt lat="46.15182" lon="4.65202">
        <ele>316.60000610352</ele>
        <time>2020-03-20T15:08:38.000Z</time>
      </trkpt>
      <trkpt lat="46.15182" lon="4.65215">
        <ele>317.39999389648</ele>
        <time>2020-03-20T15:08:40.000Z</time>
      </trkpt>
      <trkpt lat="46.15185" lon="4.65328">
        <ele>320.60000610352</ele>
        <time>2020-03-20T15:08:58.000Z</time>
      </trkpt>
      <trkpt lat="46.15191" lon="4.65438">
        <ele>323.20001220703</ele>
        <time>2020-03-20T15:09:15.000Z</time>
      </trkpt>
      <trkpt lat="46.15198" lon="4.65552">
        <ele>321.79998779297</ele>
        <time>2020-03-20T15:09:30.000Z</time>
      </trkpt>
      <trkpt lat="46.15202" lon="4.65591">
        <ele>321.39999389648</ele>
        <time>2020-03-20T15:09:35.000Z</time>
      </trkpt>
      <trkpt lat="46.15211" lon="4.65621">
        <ele>321.39999389648</ele>
        <time>2020-03-20T15:09:39.000Z</time>
      </trkpt>
      <trkpt lat="46.15263" lon="4.65715">
        <ele>321</ele>
        <time>2020-03-20T15:09:54.000Z</time>
      </trkpt>
      <trkpt lat="46.15325" lon="4.65819">
        <ele>322</ele>
        <time>2020-03-20T15:10:12.000Z</time>
      </trkpt>
      <trkpt lat="46.1536" lon="4.65882">
        <ele>324.60000610352</ele>
        <time>2020-03-20T15:10:23.000Z</time>
      </trkpt>
      <trkpt lat="46.15371" lon="4.65899">
        <ele>324.79998779297</ele>
        <time>2020-03-20T15:10:26.000Z</time>
      </trkpt>
      <trkpt lat="46.15409" lon="4.65953">
        <ele>325.20001220703</ele>
        <time>2020-03-20T15:10:36.000Z</time>
      </trkpt>
      <trkpt lat="46.15425" lon="4.65984">
        <ele>325.39999389648</ele>
        <time>2020-03-20T15:10:41.000Z</time>
      </trkpt>
      <trkpt lat="46.15463" lon="4.66061">
        <ele>326.20001220703</ele>
        <time>2020-03-20T15:10:54.000Z</time>
      </trkpt>
      <trkpt lat="46.15457" lon="4.66075">
        <ele>326.79998779297</ele>
        <time>2020-03-20T15:10:59.000Z</time>
      </trkpt>
      <trkpt lat="46.15385" lon="4.66072">
        <ele>327</ele>
        <time>2020-03-20T15:11:12.000Z</time>
      </trkpt>
      <trkpt lat="46.15276" lon="4.66071">
        <ele>324</ele>
        <time>2020-03-20T15:11:28.000Z</time>
      </trkpt>
      <trkpt lat="46.15261" lon="4.6607">
        <ele>323.39999389648</ele>
        <time>2020-03-20T15:11:30.000Z</time>
      </trkpt>
      <trkpt lat="46.1521" lon="4.66038">
        <ele>321</ele>
        <time>2020-03-20T15:11:39.000Z</time>
      </trkpt>
      <trkpt lat="46.15172" lon="4.66016">
        <ele>321.39999389648</ele>
        <time>2020-03-20T15:11:51.000Z</time>
      </trkpt>
      <trkpt lat="46.15172" lon="4.66016">
        <ele>321.60000610352</ele>
        <time>2020-03-20T15:11:53.000Z</time>
      </trkpt>
      <trkpt lat="46.15168" lon="4.66016">
        <ele>322.39999389648</ele>
        <time>2020-03-20T15:12:35.000Z</time>
      </trkpt>
      <trkpt lat="46.15149" lon="4.66006">
        <ele>322.39999389648</ele>
        <time>2020-03-20T15:12:40.000Z</time>
      </trkpt>
      <trkpt lat="46.15114" lon="4.65976">
        <ele>322</ele>
        <time>2020-03-20T15:12:48.000Z</time>
      </trkpt>
      <trkpt lat="46.15105" lon="4.65969">
        <ele>321.60000610352</ele>
        <time>2020-03-20T15:12:50.000Z</time>
      </trkpt>
      <trkpt lat="46.15079" lon="4.65946">
        <ele>320.60000610352</ele>
        <time>2020-03-20T15:12:56.000Z</time>
      </trkpt>
      <trkpt lat="46.15046" lon="4.65939">
        <ele>319.20001220703</ele>
        <time>2020-03-20T15:13:02.000Z</time>
      </trkpt>
      <trkpt lat="46.15011" lon="4.65948">
        <ele>315.39999389648</ele>
        <time>2020-03-20T15:13:08.000Z</time>
      </trkpt>
      <trkpt lat="46.15002" lon="4.65953">
        <ele>312.79998779297</ele>
        <time>2020-03-20T15:13:16.000Z</time>
      </trkpt>
      <trkpt lat="46.14997" lon="4.65955">
        <ele>312.79998779297</ele>
        <time>2020-03-20T15:13:47.000Z</time>
      </trkpt>
      <trkpt lat="46.14992" lon="4.65953">
        <ele>313</ele>
        <time>2020-03-20T15:13:49.000Z</time>
      </trkpt>
      <trkpt lat="46.14955" lon="4.6593">
        <ele>312</ele>
        <time>2020-03-20T15:14:03.000Z</time>
      </trkpt>
      <trkpt lat="46.1494" lon="4.65914">
        <ele>310.20001220703</ele>
        <time>2020-03-20T15:14:12.000Z</time>
      </trkpt>
      <trkpt lat="46.14918" lon="4.65877">
        <ele>308</ele>
        <time>2020-03-20T15:14:25.000Z</time>
      </trkpt>
      <trkpt lat="46.14875" lon="4.65851">
        <ele>307.79998779297</ele>
        <time>2020-03-20T15:14:37.000Z</time>
      </trkpt>
      <trkpt lat="46.14846" lon="4.65831">
        <ele>308.79998779297</ele>
        <time>2020-03-20T15:14:48.000Z</time>
      </trkpt>
      <trkpt lat="46.14814" lon="4.65805">
        <ele>310.39999389648</ele>
        <time>2020-03-20T15:15:02.000Z</time>
      </trkpt>
      <trkpt lat="46.14786" lon="4.65781">
        <ele>310.39999389648</ele>
        <time>2020-03-20T15:15:10.000Z</time>
      </trkpt>
      <trkpt lat="46.14775" lon="4.65767">
        <ele>310</ele>
        <time>2020-03-20T15:15:13.000Z</time>
      </trkpt>
      <trkpt lat="46.14757" lon="4.65741">
        <ele>309</ele>
        <time>2020-03-20T15:15:18.000Z</time>
      </trkpt>
      <trkpt lat="46.14724" lon="4.65712">
        <ele>305.60000610352</ele>
        <time>2020-03-20T15:15:27.000Z</time>
      </trkpt>
      <trkpt lat="46.14691" lon="4.6569">
        <ele>302.20001220703</ele>
        <time>2020-03-20T15:15:38.000Z</time>
      </trkpt>
      <trkpt lat="46.14689" lon="4.6569">
        <ele>302</ele>
        <time>2020-03-20T15:15:39.000Z</time>
      </trkpt>
      <trkpt lat="46.14685" lon="4.65718">
        <ele>301.60000610352</ele>
        <time>2020-03-20T15:15:44.000Z</time>
      </trkpt>
      <trkpt lat="46.14693" lon="4.65826">
        <ele>298.39999389648</ele>
        <time>2020-03-20T15:15:56.000Z</time>
      </trkpt>
      <trkpt lat="46.14715" lon="4.65883">
        <ele>297</ele>
        <time>2020-03-20T15:16:03.000Z</time>
      </trkpt>
      <trkpt lat="46.14726" lon="4.65985">
        <ele>295.60000610352</ele>
        <time>2020-03-20T15:16:15.000Z</time>
      </trkpt>
      <trkpt lat="46.1472" lon="4.66017">
        <ele>295.79998779297</ele>
        <time>2020-03-20T15:16:19.000Z</time>
      </trkpt>
      <trkpt lat="46.14695" lon="4.66096">
        <ele>297.60000610352</ele>
        <time>2020-03-20T15:16:30.000Z</time>
      </trkpt>
      <trkpt lat="46.14654" lon="4.66101">
        <ele>299.20001220703</ele>
        <time>2020-03-20T15:16:39.000Z</time>
      </trkpt>
      <trkpt lat="46.1463" lon="4.661">
        <ele>300</ele>
        <time>2020-03-20T15:16:44.000Z</time>
      </trkpt>
      <trkpt lat="46.14625" lon="4.66101">
        <ele>300</ele>
        <time>2020-03-20T15:16:45.000Z</time>
      </trkpt>
      <trkpt lat="46.14621" lon="4.66103">
        <ele>300.20001220703</ele>
        <time>2020-03-20T15:16:46.000Z</time>
      </trkpt>
      <trkpt lat="46.14605" lon="4.66096">
        <ele>300.79998779297</ele>
        <time>2020-03-20T15:16:50.000Z</time>
      </trkpt>
      <trkpt lat="46.14585" lon="4.66073">
        <ele>301.39999389648</ele>
        <time>2020-03-20T15:16:55.000Z</time>
      </trkpt>
      <trkpt lat="46.14577" lon="4.66064">
        <ele>301.60000610352</ele>
        <time>2020-03-20T15:16:57.000Z</time>
      </trkpt>
      <trkpt lat="46.14566" lon="4.66048">
        <ele>301.79998779297</ele>
        <time>2020-03-20T15:17:00.000Z</time>
      </trkpt>
      <trkpt lat="46.14526" lon="4.65996">
        <ele>304</ele>
        <time>2020-03-20T15:17:10.000Z</time>
      </trkpt>
      <trkpt lat="46.14518" lon="4.65988">
        <ele>304</ele>
        <time>2020-03-20T15:17:12.000Z</time>
      </trkpt>
      <trkpt lat="46.14496" lon="4.65972">
        <ele>304.39999389648</ele>
        <time>2020-03-20T15:17:17.000Z</time>
      </trkpt>
      <trkpt lat="46.14461" lon="4.65968">
        <ele>305</ele>
        <time>2020-03-20T15:17:24.000Z</time>
      </trkpt>
      <trkpt lat="46.14395" lon="4.65957">
        <ele>308.39999389648</ele>
        <time>2020-03-20T15:17:38.000Z</time>
      </trkpt>
      <trkpt lat="46.14332" lon="4.65956">
        <ele>311.39999389648</ele>
        <time>2020-03-20T15:17:54.000Z</time>
      </trkpt>
      <trkpt lat="46.1433" lon="4.65956">
        <ele>311.20001220703</ele>
        <time>2020-03-20T15:18:00.000Z</time>
      </trkpt>
      <trkpt lat="46.14325" lon="4.65958">
        <ele>311</ele>
        <time>2020-03-20T15:18:25.000Z</time>
      </trkpt>
      <trkpt lat="46.14319" lon="4.65961">
        <ele>311</ele>
        <time>2020-03-20T15:18:27.000Z</time>
      </trkpt>
      <trkpt lat="46.1427" lon="4.65996">
        <ele>308.20001220703</ele>
        <time>2020-03-20T15:18:41.000Z</time>
      </trkpt>
      <trkpt lat="46.14258" lon="4.65997">
        <ele>306.60000610352</ele>
        <time>2020-03-20T15:18:45.000Z</time>
      </trkpt>
      <trkpt lat="46.14201" lon="4.66062">
        <ele>303.60000610352</ele>
        <time>2020-03-20T15:18:59.000Z</time>
      </trkpt>
      <trkpt lat="46.14183" lon="4.66084">
        <ele>302.60000610352</ele>
        <time>2020-03-20T15:19:03.000Z</time>
      </trkpt>
      <trkpt lat="46.14172" lon="4.66122">
        <ele>300.20001220703</ele>
        <time>2020-03-20T15:19:08.000Z</time>
      </trkpt>
      <trkpt lat="46.14166" lon="4.6619">
        <ele>296.60000610352</ele>
        <time>2020-03-20T15:19:17.000Z</time>
      </trkpt>
      <trkpt lat="46.14166" lon="4.66197">
        <ele>296.20001220703</ele>
        <time>2020-03-20T15:19:18.000Z</time>
      </trkpt>
      <trkpt lat="46.14163" lon="4.66211">
        <ele>295.60000610352</ele>
        <time>2020-03-20T15:19:20.000Z</time>
      </trkpt>
      <trkpt lat="46.14154" lon="4.66328">
        <ele>292.60000610352</ele>
        <time>2020-03-20T15:19:37.000Z</time>
      </trkpt>
      <trkpt lat="46.14149" lon="4.66415">
        <ele>291</ele>
        <time>2020-03-20T15:19:53.000Z</time>
      </trkpt>
      <trkpt lat="46.14142" lon="4.66511">
        <ele>288</ele>
        <time>2020-03-20T15:20:08.000Z</time>
      </trkpt>
      <trkpt lat="46.14135" lon="4.66606">
        <ele>284.79998779297</ele>
        <time>2020-03-20T15:20:22.000Z</time>
      </trkpt>
      <trkpt lat="46.14135" lon="4.6661">
        <ele>284.79998779297</ele>
        <time>2020-03-20T15:20:23.000Z</time>
      </trkpt>
      <trkpt lat="46.14146" lon="4.6662">
        <ele>284.39999389648</ele>
        <time>2020-03-20T15:20:27.000Z</time>
      </trkpt>
      <trkpt lat="46.14177" lon="4.66624">
        <ele>284</ele>
        <time>2020-03-20T15:20:34.000Z</time>
      </trkpt>
      <trkpt lat="46.14166" lon="4.66668">
        <ele>283.39999389648</ele>
        <time>2020-03-20T15:20:43.000Z</time>
      </trkpt>
      <trkpt lat="46.14151" lon="4.66715">
        <ele>283.20001220703</ele>
        <time>2020-03-20T15:20:50.000Z</time>
      </trkpt>
      <trkpt lat="46.14137" lon="4.66759">
        <ele>281.20001220703</ele>
        <time>2020-03-20T15:20:57.000Z</time>
      </trkpt>
      <trkpt lat="46.14126" lon="4.66791">
        <ele>280.39999389648</ele>
        <time>2020-03-20T15:21:02.000Z</time>
      </trkpt>
      <trkpt lat="46.14114" lon="4.66824">
        <ele>278.39999389648</ele>
        <time>2020-03-20T15:21:12.000Z</time>
      </trkpt>
      <trkpt lat="46.14114" lon="4.66824">
        <ele>278.39999389648</ele>
        <time>2020-03-20T15:21:15.000Z</time>
      </trkpt>
      <trkpt lat="46.14107" lon="4.66827">
        <ele>278.39999389648</ele>
        <time>2020-03-20T15:21:26.000Z</time>
      </trkpt>
      <trkpt lat="46.14074" lon="4.66843">
        <ele>277.79998779297</ele>
        <time>2020-03-20T15:21:37.000Z</time>
      </trkpt>
      <trkpt lat="46.14075" lon="4.66876">
        <ele>277.39999389648</ele>
        <time>2020-03-20T15:21:44.000Z</time>
      </trkpt>
      <trkpt lat="46.1408" lon="4.66901">
        <ele>276.79998779297</ele>
        <time>2020-03-20T15:21:48.000Z</time>
      </trkpt>
      <trkpt lat="46.14103" lon="4.66929">
        <ele>276.20001220703</ele>
        <time>2020-03-20T15:21:55.000Z</time>
      </trkpt>
      <trkpt lat="46.14112" lon="4.66931">
        <ele>276.39999389648</ele>
        <time>2020-03-20T15:21:58.000Z</time>
      </trkpt>
      <trkpt lat="46.14112" lon="4.66957">
        <ele>277.79998779297</ele>
        <time>2020-03-20T15:22:05.000Z</time>
      </trkpt>
      <trkpt lat="46.14084" lon="4.66968">
        <ele>278</ele>
        <time>2020-03-20T15:22:12.000Z</time>
      </trkpt>
      <trkpt lat="46.13999" lon="4.67021">
        <ele>276.20001220703</ele>
        <time>2020-03-20T15:22:27.000Z</time>
      </trkpt>
      <trkpt lat="46.13917" lon="4.67081">
        <ele>273.20001220703</ele>
        <time>2020-03-20T15:22:42.000Z</time>
      </trkpt>
      <trkpt lat="46.13907" lon="4.67089">
        <ele>273</ele>
        <time>2020-03-20T15:22:44.000Z</time>
      </trkpt>
      <trkpt lat="46.13824" lon="4.67161">
        <ele>270</ele>
        <time>2020-03-20T15:22:58.000Z</time>
      </trkpt>
      <trkpt lat="46.13796" lon="4.67179">
        <ele>268.79998779297</ele>
        <time>2020-03-20T15:23:02.000Z</time>
      </trkpt>
      <trkpt lat="46.13778" lon="4.67192">
        <ele>267</ele>
        <time>2020-03-20T15:23:05.000Z</time>
      </trkpt>
      <trkpt lat="46.13728" lon="4.67242">
        <ele>266.20001220703</ele>
        <time>2020-03-20T15:23:15.000Z</time>
      </trkpt>
      <trkpt lat="46.13649" lon="4.67333">
        <ele>265.60000610352</ele>
        <time>2020-03-20T15:23:31.000Z</time>
      </trkpt>
      <trkpt lat="46.13572" lon="4.67431">
        <ele>264.79998779297</ele>
        <time>2020-03-20T15:23:47.000Z</time>
      </trkpt>
      <trkpt lat="46.13501" lon="4.67517">
        <ele>262.60000610352</ele>
        <time>2020-03-20T15:24:02.000Z</time>
      </trkpt>
      <trkpt lat="46.13495" lon="4.67526">
        <ele>262.60000610352</ele>
        <time>2020-03-20T15:24:05.000Z</time>
      </trkpt>
      <trkpt lat="46.1349" lon="4.67569">
        <ele>262.39999389648</ele>
        <time>2020-03-20T15:24:15.000Z</time>
      </trkpt>
      <trkpt lat="46.13479" lon="4.67623">
        <ele>261.79998779297</ele>
        <time>2020-03-20T15:24:28.000Z</time>
      </trkpt>
      <trkpt lat="46.13457" lon="4.67721">
        <ele>260.79998779297</ele>
        <time>2020-03-20T15:24:44.000Z</time>
      </trkpt>
      <trkpt lat="46.13432" lon="4.67844">
        <ele>258.39999389648</ele>
        <time>2020-03-20T15:25:00.000Z</time>
      </trkpt>
      <trkpt lat="46.13398" lon="4.67975">
        <ele>255.80000305176</ele>
        <time>2020-03-20T15:25:16.000Z</time>
      </trkpt>
      <trkpt lat="46.13355" lon="4.68064">
        <ele>253.80000305176</ele>
        <time>2020-03-20T15:25:30.000Z</time>
      </trkpt>
      <trkpt lat="46.13331" lon="4.68107">
        <ele>253</ele>
        <time>2020-03-20T15:25:37.000Z</time>
      </trkpt>
      <trkpt lat="46.13325" lon="4.68136">
        <ele>252.80000305176</ele>
        <time>2020-03-20T15:25:41.000Z</time>
      </trkpt>
      <trkpt lat="46.13322" lon="4.68161">
        <ele>252.19999694824</ele>
        <time>2020-03-20T15:25:44.000Z</time>
      </trkpt>
      <trkpt lat="46.13291" lon="4.68264">
        <ele>250</ele>
        <time>2020-03-20T15:25:57.000Z</time>
      </trkpt>
      <trkpt lat="46.1329" lon="4.68272">
        <ele>249.80000305176</ele>
        <time>2020-03-20T15:25:58.000Z</time>
      </trkpt>
      <trkpt lat="46.13286" lon="4.68304">
        <ele>249</ele>
        <time>2020-03-20T15:26:02.000Z</time>
      </trkpt>
      <trkpt lat="46.13281" lon="4.6833">
        <ele>248.39999389648</ele>
        <time>2020-03-20T15:26:05.000Z</time>
      </trkpt>
      <trkpt lat="46.13242" lon="4.68454">
        <ele>246.19999694824</ele>
        <time>2020-03-20T15:26:21.000Z</time>
      </trkpt>
      <trkpt lat="46.13214" lon="4.68498">
        <ele>245.80000305176</ele>
        <time>2020-03-20T15:26:28.000Z</time>
      </trkpt>
      <trkpt lat="46.13213" lon="4.6851">
        <ele>245.80000305176</ele>
        <time>2020-03-20T15:26:31.000Z</time>
      </trkpt>
      <trkpt lat="46.13201" lon="4.68609">
        <ele>245</ele>
        <time>2020-03-20T15:26:44.000Z</time>
      </trkpt>
      <trkpt lat="46.13193" lon="4.68696">
        <ele>242.60000610352</ele>
        <time>2020-03-20T15:26:55.000Z</time>
      </trkpt>
      <trkpt lat="46.13199" lon="4.68819">
        <ele>239.19999694824</ele>
        <time>2020-03-20T15:27:08.000Z</time>
      </trkpt>
      <trkpt lat="46.13204" lon="4.68852">
        <ele>237.19999694824</ele>
        <time>2020-03-20T15:27:12.000Z</time>
      </trkpt>
      <trkpt lat="46.1322" lon="4.68868">
        <ele>233.60000610352</ele>
        <time>2020-03-20T15:27:17.000Z</time>
      </trkpt>
      <trkpt lat="46.13275" lon="4.6888">
        <ele>231</ele>
        <time>2020-03-20T15:27:27.000Z</time>
      </trkpt>
      <trkpt lat="46.13291" lon="4.68877">
        <ele>229.80000305176</ele>
        <time>2020-03-20T15:27:30.000Z</time>
      </trkpt>
      <trkpt lat="46.13303" lon="4.68871">
        <ele>228.39999389648</ele>
        <time>2020-03-20T15:27:33.000Z</time>
      </trkpt>
      <trkpt lat="46.13306" lon="4.68872">
        <ele>228</ele>
        <time>2020-03-20T15:27:34.000Z</time>
      </trkpt>
      <trkpt lat="46.13327" lon="4.6891">
        <ele>226.39999389648</ele>
        <time>2020-03-20T15:27:43.000Z</time>
      </trkpt>
      <trkpt lat="46.13332" lon="4.68943">
        <ele>225.39999389648</ele>
        <time>2020-03-20T15:27:47.000Z</time>
      </trkpt>
      <trkpt lat="46.13334" lon="4.68975">
        <ele>223.60000610352</ele>
        <time>2020-03-20T15:27:51.000Z</time>
      </trkpt>
      <trkpt lat="46.13334" lon="4.6899">
        <ele>222.80000305176</ele>
        <time>2020-03-20T15:27:53.000Z</time>
      </trkpt>
      <trkpt lat="46.13331" lon="4.69014">
        <ele>222.39999389648</ele>
        <time>2020-03-20T15:27:56.000Z</time>
      </trkpt>
      <trkpt lat="46.13332" lon="4.69052">
        <ele>221</ele>
        <time>2020-03-20T15:28:01.000Z</time>
      </trkpt>
      <trkpt lat="46.13325" lon="4.69104">
        <ele>219.60000610352</ele>
        <time>2020-03-20T15:28:08.000Z</time>
      </trkpt>
      <trkpt lat="46.13267" lon="4.69214">
        <ele>217.80000305176</ele>
        <time>2020-03-20T15:28:24.000Z</time>
      </trkpt>
      <trkpt lat="46.1323" lon="4.69305">
        <ele>216.80000305176</ele>
        <time>2020-03-20T15:28:36.000Z</time>
      </trkpt>
      <trkpt lat="46.13165" lon="4.69357">
        <ele>215.19999694824</ele>
        <time>2020-03-20T15:28:48.000Z</time>
      </trkpt>
      <trkpt lat="46.13131" lon="4.69378">
        <ele>214.60000610352</ele>
        <time>2020-03-20T15:28:54.000Z</time>
      </trkpt>
      <trkpt lat="46.13068" lon="4.69453">
        <ele>213.80000305176</ele>
        <time>2020-03-20T15:29:09.000Z</time>
      </trkpt>
      <trkpt lat="46.13047" lon="4.69477">
        <ele>213.39999389648</ele>
        <time>2020-03-20T15:29:14.000Z</time>
      </trkpt>
      <trkpt lat="46.13041" lon="4.69506">
        <ele>212.60000610352</ele>
        <time>2020-03-20T15:29:19.000Z</time>
      </trkpt>
      <trkpt lat="46.13046" lon="4.69543">
        <ele>212</ele>
        <time>2020-03-20T15:29:25.000Z</time>
      </trkpt>
      <trkpt lat="46.13034" lon="4.69559">
        <ele>211.39999389648</ele>
        <time>2020-03-20T15:29:29.000Z</time>
      </trkpt>
      <trkpt lat="46.12976" lon="4.69588">
        <ele>210.80000305176</ele>
        <time>2020-03-20T15:29:40.000Z</time>
      </trkpt>
      <trkpt lat="46.12951" lon="4.69597">
        <ele>210.80000305176</ele>
        <time>2020-03-20T15:29:45.000Z</time>
      </trkpt>
      <trkpt lat="46.1292" lon="4.69602">
        <ele>212</ele>
        <time>2020-03-20T15:29:55.000Z</time>
      </trkpt>
      <trkpt lat="46.12913" lon="4.69608">
        <ele>212.19999694824</ele>
        <time>2020-03-20T15:29:57.000Z</time>
      </trkpt>
      <trkpt lat="46.12911" lon="4.69614">
        <ele>212.19999694824</ele>
        <time>2020-03-20T15:29:58.000Z</time>
      </trkpt>
      <trkpt lat="46.12909" lon="4.69621">
        <ele>212.39999389648</ele>
        <time>2020-03-20T15:29:59.000Z</time>
      </trkpt>
      <trkpt lat="46.12903" lon="4.69643">
        <ele>212.39999389648</ele>
        <time>2020-03-20T15:30:02.000Z</time>
      </trkpt>
      <trkpt lat="46.12899" lon="4.69695">
        <ele>211.80000305176</ele>
        <time>2020-03-20T15:30:08.000Z</time>
      </trkpt>
      <trkpt lat="46.12906" lon="4.6972">
        <ele>211</ele>
        <time>2020-03-20T15:30:11.000Z</time>
      </trkpt>
      <trkpt lat="46.1291" lon="4.69727">
        <ele>210.80000305176</ele>
        <time>2020-03-20T15:30:12.000Z</time>
      </trkpt>
      <trkpt lat="46.12914" lon="4.69733">
        <ele>210.39999389648</ele>
        <time>2020-03-20T15:30:13.000Z</time>
      </trkpt>
      <trkpt lat="46.1292" lon="4.69739">
        <ele>210.19999694824</ele>
        <time>2020-03-20T15:30:14.000Z</time>
      </trkpt>
      <trkpt lat="46.1294" lon="4.69754">
        <ele>209.39999389648</ele>
        <time>2020-03-20T15:30:18.000Z</time>
      </trkpt>
      <trkpt lat="46.13021" lon="4.69763">
        <ele>209</ele>
        <time>2020-03-20T15:30:31.000Z</time>
      </trkpt>
      <trkpt lat="46.13098" lon="4.69765">
        <ele>209.80000305176</ele>
        <time>2020-03-20T15:30:44.000Z</time>
      </trkpt>
      <trkpt lat="46.13171" lon="4.69828">
        <ele>212</ele>
        <time>2020-03-20T15:31:00.000Z</time>
      </trkpt>
      <trkpt lat="46.13218" lon="4.6993">
        <ele>215.19999694824</ele>
        <time>2020-03-20T15:31:16.000Z</time>
      </trkpt>
      <trkpt lat="46.13252" lon="4.70015">
        <ele>216.19999694824</ele>
        <time>2020-03-20T15:31:30.000Z</time>
      </trkpt>
      <trkpt lat="46.13275" lon="4.70021">
        <ele>217</ele>
        <time>2020-03-20T15:31:36.000Z</time>
      </trkpt>
      <trkpt lat="46.13373" lon="4.69992">
        <ele>218.19999694824</ele>
        <time>2020-03-20T15:31:56.000Z</time>
      </trkpt>
      <trkpt lat="46.13379" lon="4.69992">
        <ele>218.39999389648</ele>
        <time>2020-03-20T15:31:58.000Z</time>
      </trkpt>
      <trkpt lat="46.13405" lon="4.7">
        <ele>219.19999694824</ele>
        <time>2020-03-20T15:32:04.000Z</time>
      </trkpt>
      <trkpt lat="46.13447" lon="4.70021">
        <ele>220</ele>
        <time>2020-03-20T15:32:13.000Z</time>
      </trkpt>
      <trkpt lat="46.13521" lon="4.70057">
        <ele>222.80000305176</ele>
        <time>2020-03-20T15:32:30.000Z</time>
      </trkpt>
      <trkpt lat="46.13546" lon="4.70069">
        <ele>224.39999389648</ele>
        <time>2020-03-20T15:32:37.000Z</time>
      </trkpt>
      <trkpt lat="46.13613" lon="4.70073">
        <ele>227.80000305176</ele>
        <time>2020-03-20T15:32:53.000Z</time>
      </trkpt>
      <trkpt lat="46.13636" lon="4.70074">
        <ele>229.39999389648</ele>
        <time>2020-03-20T15:32:59.000Z</time>
      </trkpt>
      <trkpt lat="46.13675" lon="4.70077">
        <ele>232</ele>
        <time>2020-03-20T15:33:10.000Z</time>
      </trkpt>
      <trkpt lat="46.13678" lon="4.70084">
        <ele>232.39999389648</ele>
        <time>2020-03-20T15:33:12.000Z</time>
      </trkpt>
      <trkpt lat="46.13678" lon="4.70089">
        <ele>232.60000610352</ele>
        <time>2020-03-20T15:33:13.000Z</time>
      </trkpt>
      <trkpt lat="46.13677" lon="4.70094">
        <ele>232.60000610352</ele>
        <time>2020-03-20T15:33:14.000Z</time>
      </trkpt>
      <trkpt lat="46.13676" lon="4.70101">
        <ele>232.80000305176</ele>
        <time>2020-03-20T15:33:15.000Z</time>
      </trkpt>
      <trkpt lat="46.13675" lon="4.70107">
        <ele>233</ele>
        <time>2020-03-20T15:33:16.000Z</time>
      </trkpt>
      <trkpt lat="46.13665" lon="4.70169">
        <ele>232.60000610352</ele>
        <time>2020-03-20T15:33:25.000Z</time>
      </trkpt>
      <trkpt lat="46.13658" lon="4.70216">
        <ele>231</ele>
        <time>2020-03-20T15:33:33.000Z</time>
      </trkpt>
      <trkpt lat="46.1367" lon="4.70226">
        <ele>230.80000305176</ele>
        <time>2020-03-20T15:33:37.000Z</time>
      </trkpt>
      <trkpt lat="46.13708" lon="4.70225">
        <ele>232.19999694824</ele>
        <time>2020-03-20T15:33:50.000Z</time>
      </trkpt>
      <trkpt lat="46.13744" lon="4.70228">
        <ele>234.60000610352</ele>
        <time>2020-03-20T15:34:03.000Z</time>
      </trkpt>
      <trkpt lat="46.13795" lon="4.70235">
        <ele>236.39999389648</ele>
        <time>2020-03-20T15:34:18.000Z</time>
      </trkpt>
      <trkpt lat="46.1385" lon="4.70241">
        <ele>238.19999694824</ele>
        <time>2020-03-20T15:34:33.000Z</time>
      </trkpt>
      <trkpt lat="46.13859" lon="4.70229">
        <ele>238.80000305176</ele>
        <time>2020-03-20T15:34:37.000Z</time>
      </trkpt>
      <trkpt lat="46.13893" lon="4.70224">
        <ele>239.39999389648</ele>
        <time>2020-03-20T15:34:46.000Z</time>
      </trkpt>
      <trkpt lat="46.13909" lon="4.70225">
        <ele>239.19999694824</ele>
        <time>2020-03-20T15:34:50.000Z</time>
      </trkpt>
      <trkpt lat="46.13922" lon="4.70237">
        <ele>239</ele>
        <time>2020-03-20T15:34:54.000Z</time>
      </trkpt>
      <trkpt lat="46.13943" lon="4.70253">
        <ele>238.39999389648</ele>
        <time>2020-03-20T15:35:00.000Z</time>
      </trkpt>
      <trkpt lat="46.13948" lon="4.70269">
        <ele>238.39999389648</ele>
        <time>2020-03-20T15:35:03.000Z</time>
      </trkpt>
      <trkpt lat="46.1397" lon="4.70268">
        <ele>238</ele>
        <time>2020-03-20T15:35:10.000Z</time>
      </trkpt>
      <trkpt lat="46.13987" lon="4.70235">
        <ele>237.39999389648</ele>
        <time>2020-03-20T15:35:18.000Z</time>
      </trkpt>
      <trkpt lat="46.13989" lon="4.70185">
        <ele>237.19999694824</ele>
        <time>2020-03-20T15:35:25.000Z</time>
      </trkpt>
      <trkpt lat="46.14006" lon="4.70122">
        <ele>237.60000610352</ele>
        <time>2020-03-20T15:35:33.000Z</time>
      </trkpt>
      <trkpt lat="46.14011" lon="4.70098">
        <ele>237.80000305176</ele>
        <time>2020-03-20T15:35:36.000Z</time>
      </trkpt>
      <trkpt lat="46.1404" lon="4.70022">
        <ele>237.80000305176</ele>
        <time>2020-03-20T15:35:48.000Z</time>
      </trkpt>
      <trkpt lat="46.14061" lon="4.69972">
        <ele>237.60000610352</ele>
        <time>2020-03-20T15:35:57.000Z</time>
      </trkpt>
      <trkpt lat="46.14064" lon="4.69959">
        <ele>237.39999389648</ele>
        <time>2020-03-20T15:35:59.000Z</time>
      </trkpt>
      <trkpt lat="46.14081" lon="4.69913">
        <ele>237.39999389648</ele>
        <time>2020-03-20T15:36:05.000Z</time>
      </trkpt>
      <trkpt lat="46.14098" lon="4.69837">
        <ele>237.19999694824</ele>
        <time>2020-03-20T15:36:14.000Z</time>
      </trkpt>
      <trkpt lat="46.14106" lon="4.69813">
        <ele>237.39999389648</ele>
        <time>2020-03-20T15:36:17.000Z</time>
      </trkpt>
      <trkpt lat="46.14116" lon="4.69761">
        <ele>237.60000610352</ele>
        <time>2020-03-20T15:36:23.000Z</time>
      </trkpt>
      <trkpt lat="46.14123" lon="4.69729">
        <ele>238</ele>
        <time>2020-03-20T15:36:27.000Z</time>
      </trkpt>
      <trkpt lat="46.14147" lon="4.69636">
        <ele>239.19999694824</ele>
        <time>2020-03-20T15:36:38.000Z</time>
      </trkpt>
      <trkpt lat="46.14156" lon="4.69605">
        <ele>239.19999694824</ele>
        <time>2020-03-20T15:36:42.000Z</time>
      </trkpt>
      <trkpt lat="46.14163" lon="4.69572">
        <ele>239.19999694824</ele>
        <time>2020-03-20T15:36:46.000Z</time>
      </trkpt>
      <trkpt lat="46.14188" lon="4.69476">
        <ele>237.39999389648</ele>
        <time>2020-03-20T15:36:57.000Z</time>
      </trkpt>
      <trkpt lat="46.14205" lon="4.69435">
        <ele>236</ele>
        <time>2020-03-20T15:37:02.000Z</time>
      </trkpt>
      <trkpt lat="46.14233" lon="4.69362">
        <ele>234.60000610352</ele>
        <time>2020-03-20T15:37:11.000Z</time>
      </trkpt>
      <trkpt lat="46.14235" lon="4.69343">
        <ele>234.39999389648</ele>
        <time>2020-03-20T15:37:13.000Z</time>
      </trkpt>
      <trkpt lat="46.14241" lon="4.69313">
        <ele>234.19999694824</ele>
        <time>2020-03-20T15:37:17.000Z</time>
      </trkpt>
      <trkpt lat="46.14244" lon="4.693">
        <ele>234.19999694824</ele>
        <time>2020-03-20T15:37:19.000Z</time>
      </trkpt>
      <trkpt lat="46.14257" lon="4.69243">
        <ele>234.19999694824</ele>
        <time>2020-03-20T15:37:28.000Z</time>
      </trkpt>
      <trkpt lat="46.14259" lon="4.69221">
        <ele>234.39999389648</ele>
        <time>2020-03-20T15:37:35.000Z</time>
      </trkpt>
      <trkpt lat="46.14258" lon="4.69211">
        <ele>235.60000610352</ele>
        <time>2020-03-20T15:37:46.000Z</time>
      </trkpt>
      <trkpt lat="46.14262" lon="4.69202">
        <ele>235.60000610352</ele>
        <time>2020-03-20T15:40:05.000Z</time>
      </trkpt>
      <trkpt lat="46.14273" lon="4.69203">
        <ele>235.39999389648</ele>
        <time>2020-03-20T15:40:09.000Z</time>
      </trkpt>
      <trkpt lat="46.14301" lon="4.69203">
        <ele>234.39999389648</ele>
        <time>2020-03-20T15:40:15.000Z</time>
      </trkpt>
      <trkpt lat="46.14312" lon="4.69204">
        <ele>234.19999694824</ele>
        <time>2020-03-20T15:40:17.000Z</time>
      </trkpt>
      <trkpt lat="46.14338" lon="4.69197">
        <ele>232.80000305176</ele>
        <time>2020-03-20T15:40:21.000Z</time>
      </trkpt>
      <trkpt lat="46.14362" lon="4.69188">
        <ele>231.80000305176</ele>
        <time>2020-03-20T15:40:26.000Z</time>
      </trkpt>
      <trkpt lat="46.14369" lon="4.69193">
        <ele>232.39999389648</ele>
        <time>2020-03-20T15:40:35.000Z</time>
      </trkpt>
      <trkpt lat="46.14377" lon="4.69188">
        <ele>234</ele>
        <time>2020-03-20T15:41:10.000Z</time>
      </trkpt>
      <trkpt lat="46.14442" lon="4.69152">
        <ele>233.80000305176</ele>
        <time>2020-03-20T15:41:28.000Z</time>
      </trkpt>
      <trkpt lat="46.14448" lon="4.6915">
        <ele>234.19999694824</ele>
        <time>2020-03-20T15:41:30.000Z</time>
      </trkpt>
      <trkpt lat="46.14458" lon="4.69175">
        <ele>234.80000305176</ele>
        <time>2020-03-20T15:41:36.000Z</time>
      </trkpt>
      <trkpt lat="46.1446" lon="4.69188">
        <ele>234.80000305176</ele>
        <time>2020-03-20T15:41:38.000Z</time>
      </trkpt>
      <trkpt lat="46.14478" lon="4.69298">
        <ele>232.80000305176</ele>
        <time>2020-03-20T15:41:53.000Z</time>
      </trkpt>
      <trkpt lat="46.14499" lon="4.69432">
        <ele>231</ele>
        <time>2020-03-20T15:42:10.000Z</time>
      </trkpt>
      <trkpt lat="46.14511" lon="4.69505">
        <ele>229</ele>
        <time>2020-03-20T15:42:22.000Z</time>
      </trkpt>
      <trkpt lat="46.14509" lon="4.69533">
        <ele>228.60000610352</ele>
        <time>2020-03-20T15:42:27.000Z</time>
      </trkpt>
      <trkpt lat="46.14504" lon="4.69544">
        <ele>228.60000610352</ele>
        <time>2020-03-20T15:42:29.000Z</time>
      </trkpt>
      <trkpt lat="46.14505" lon="4.69571">
        <ele>227.19999694824</ele>
        <time>2020-03-20T15:42:34.000Z</time>
      </trkpt>
      <trkpt lat="46.14516" lon="4.69593">
        <ele>226</ele>
        <time>2020-03-20T15:42:38.000Z</time>
      </trkpt>
      <trkpt lat="46.14523" lon="4.69605">
        <ele>224.60000610352</ele>
        <time>2020-03-20T15:42:40.000Z</time>
      </trkpt>
      <trkpt lat="46.1453" lon="4.69614">
        <ele>224.19999694824</ele>
        <time>2020-03-20T15:42:42.000Z</time>
      </trkpt>
      <trkpt lat="46.14537" lon="4.69624">
        <ele>223.39999389648</ele>
        <time>2020-03-20T15:42:48.000Z</time>
      </trkpt>
      <trkpt lat="46.14529" lon="4.69632">
        <ele>224</ele>
        <time>2020-03-20T15:43:05.000Z</time>
      </trkpt>
      <trkpt lat="46.14508" lon="4.69649">
        <ele>224</ele>
        <time>2020-03-20T15:43:12.000Z</time>
      </trkpt>
      <trkpt lat="46.1453" lon="4.69689">
        <ele>225.39999389648</ele>
        <time>2020-03-20T15:43:23.000Z</time>
      </trkpt>
      <trkpt lat="46.14528" lon="4.69703">
        <ele>225.80000305176</ele>
        <time>2020-03-20T15:43:28.000Z</time>
      </trkpt>
      <trkpt lat="46.14514" lon="4.69713">
        <ele>226.60000610352</ele>
        <time>2020-03-20T15:43:33.000Z</time>
      </trkpt>
      <trkpt lat="46.14517" lon="4.69716">
        <ele>227.80000305176</ele>
        <time>2020-03-20T15:43:42.000Z</time>
      </trkpt>
      <trkpt lat="46.14534" lon="4.69724">
        <ele>227.80000305176</ele>
        <time>2020-03-20T15:43:47.000Z</time>
      </trkpt>
      <trkpt lat="46.14541" lon="4.69729">
        <ele>228</ele>
        <time>2020-03-20T15:43:54.000Z</time>
      </trkpt>
      <trkpt lat="46.14536" lon="4.69744">
        <ele>228.60000610352</ele>
        <time>2020-03-20T15:44:05.000Z</time>
      </trkpt>
      <trkpt lat="46.14533" lon="4.69751">
        <ele>228.60000610352</ele>
        <time>2020-03-20T15:44:07.000Z</time>
      </trkpt>
      <trkpt lat="46.14494" lon="4.69825">
        <ele>228.80000305176</ele>
        <time>2020-03-20T15:44:20.000Z</time>
      </trkpt>
      <trkpt lat="46.14472" lon="4.69868">
        <ele>228.80000305176</ele>
        <time>2020-03-20T15:44:27.000Z</time>
      </trkpt>
      <trkpt lat="46.14449" lon="4.69909">
        <ele>228.80000305176</ele>
        <time>2020-03-20T15:44:34.000Z</time>
      </trkpt>
      <trkpt lat="46.14439" lon="4.69966">
        <ele>228.60000610352</ele>
        <time>2020-03-20T15:44:44.000Z</time>
      </trkpt>
      <trkpt lat="46.1442" lon="4.69982">
        <ele>228.60000610352</ele>
        <time>2020-03-20T15:44:50.000Z</time>
      </trkpt>
      <trkpt lat="46.14428" lon="4.70046">
        <ele>228.19999694824</ele>
        <time>2020-03-20T15:45:00.000Z</time>
      </trkpt>
      <trkpt lat="46.14434" lon="4.70084">
        <ele>227.80000305176</ele>
        <time>2020-03-20T15:45:05.000Z</time>
      </trkpt>
      <trkpt lat="46.14438" lon="4.70104">
        <ele>226.60000610352</ele>
        <time>2020-03-20T15:45:08.000Z</time>
      </trkpt>
      <trkpt lat="46.14462" lon="4.70214">
        <ele>223.80000305176</ele>
        <time>2020-03-20T15:45:24.000Z</time>
      </trkpt>
      <trkpt lat="46.14473" lon="4.70264">
        <ele>221.60000610352</ele>
        <time>2020-03-20T15:45:32.000Z</time>
      </trkpt>
      <trkpt lat="46.14477" lon="4.70285">
        <ele>221.19999694824</ele>
        <time>2020-03-20T15:45:37.000Z</time>
      </trkpt>
      <trkpt lat="46.14491" lon="4.70309">
        <ele>221.19999694824</ele>
        <time>2020-03-20T15:45:45.000Z</time>
      </trkpt>
      <trkpt lat="46.14509" lon="4.70308">
        <ele>221.19999694824</ele>
        <time>2020-03-20T15:45:48.000Z</time>
      </trkpt>
      <trkpt lat="46.14569" lon="4.70336">
        <ele>219.39999389648</ele>
        <time>2020-03-20T15:45:59.000Z</time>
      </trkpt>
      <trkpt lat="46.14586" lon="4.70367">
        <ele>218.80000305176</ele>
        <time>2020-03-20T15:46:04.000Z</time>
      </trkpt>
      <trkpt lat="46.14632" lon="4.70502">
        <ele>216.19999694824</ele>
        <time>2020-03-20T15:46:22.000Z</time>
      </trkpt>
      <trkpt lat="46.14648" lon="4.70543">
        <ele>216.19999694824</ele>
        <time>2020-03-20T15:46:29.000Z</time>
      </trkpt>
      <trkpt lat="46.14672" lon="4.70607">
        <ele>215.60000610352</ele>
        <time>2020-03-20T15:46:38.000Z</time>
      </trkpt>
      <trkpt lat="46.14714" lon="4.70721">
        <ele>213.60000610352</ele>
        <time>2020-03-20T15:46:53.000Z</time>
      </trkpt>
      <trkpt lat="46.14748" lon="4.70816">
        <ele>213</ele>
        <time>2020-03-20T15:47:09.000Z</time>
      </trkpt>
      <trkpt lat="46.14754" lon="4.70848">
        <ele>212.80000305176</ele>
        <time>2020-03-20T15:47:14.000Z</time>
      </trkpt>
      <trkpt lat="46.14754" lon="4.7087">
        <ele>212.60000610352</ele>
        <time>2020-03-20T15:47:17.000Z</time>
      </trkpt>
      <trkpt lat="46.14761" lon="4.70901">
        <ele>212</ele>
        <time>2020-03-20T15:47:22.000Z</time>
      </trkpt>
      <trkpt lat="46.14816" lon="4.70972">
        <ele>211</ele>
        <time>2020-03-20T15:47:37.000Z</time>
      </trkpt>
      <trkpt lat="46.14836" lon="4.70995">
        <ele>211.19999694824</ele>
        <time>2020-03-20T15:47:42.000Z</time>
      </trkpt>
      <trkpt lat="46.14851" lon="4.71013">
        <ele>211.39999389648</ele>
        <time>2020-03-20T15:47:46.000Z</time>
      </trkpt>
      <trkpt lat="46.14864" lon="4.71026">
        <ele>211.60000610352</ele>
        <time>2020-03-20T15:47:49.000Z</time>
      </trkpt>
      <trkpt lat="46.14872" lon="4.71035">
        <ele>211.80000305176</ele>
        <time>2020-03-20T15:47:51.000Z</time>
      </trkpt>
      <trkpt lat="46.14879" lon="4.71044">
        <ele>212</ele>
        <time>2020-03-20T15:47:53.000Z</time>
      </trkpt>
      <trkpt lat="46.14913" lon="4.71096">
        <ele>212</ele>
        <time>2020-03-20T15:48:03.000Z</time>
      </trkpt>
      <trkpt lat="46.14935" lon="4.71103">
        <ele>211.60000610352</ele>
        <time>2020-03-20T15:48:09.000Z</time>
      </trkpt>
      <trkpt lat="46.14949" lon="4.71101">
        <ele>211.60000610352</ele>
        <time>2020-03-20T15:48:12.000Z</time>
      </trkpt>
      <trkpt lat="46.14966" lon="4.71063">
        <ele>211.80000305176</ele>
        <time>2020-03-20T15:48:19.000Z</time>
      </trkpt>
      <trkpt lat="46.14977" lon="4.71025">
        <ele>212.19999694824</ele>
        <time>2020-03-20T15:48:25.000Z</time>
      </trkpt>
      <trkpt lat="46.14959" lon="4.71004">
        <ele>212.60000610352</ele>
        <time>2020-03-20T15:48:31.000Z</time>
      </trkpt>
      <trkpt lat="46.14945" lon="4.70992">
        <ele>212.60000610352</ele>
        <time>2020-03-20T15:48:34.000Z</time>
      </trkpt>
      <trkpt lat="46.14926" lon="4.70979">
        <ele>213</ele>
        <time>2020-03-20T15:48:39.000Z</time>
      </trkpt>
      <trkpt lat="46.14898" lon="4.70958">
        <ele>213.39999389648</ele>
        <time>2020-03-20T15:48:45.000Z</time>
      </trkpt>
      <trkpt lat="46.1488" lon="4.70942">
        <ele>213.60000610352</ele>
        <time>2020-03-20T15:48:50.000Z</time>
      </trkpt>
      <trkpt lat="46.14886" lon="4.70883">
        <ele>213.60000610352</ele>
        <time>2020-03-20T15:49:00.000Z</time>
      </trkpt>
      <trkpt lat="46.14895" lon="4.70842">
        <ele>213.80000305176</ele>
        <time>2020-03-20T15:49:07.000Z</time>
      </trkpt>
      <trkpt lat="46.1494" lon="4.70749">
        <ele>214</ele>
        <time>2020-03-20T15:49:23.000Z</time>
      </trkpt>
      <trkpt lat="46.14965" lon="4.70693">
        <ele>214.80000305176</ele>
        <time>2020-03-20T15:49:34.000Z</time>
      </trkpt>
      <trkpt lat="46.14975" lon="4.70691">
        <ele>215.60000610352</ele>
        <time>2020-03-20T15:49:38.000Z</time>
      </trkpt>
      <trkpt lat="46.14982" lon="4.70697">
        <ele>215.60000610352</ele>
        <time>2020-03-20T15:49:40.000Z</time>
      </trkpt>
      <trkpt lat="46.14997" lon="4.70727">
        <ele>215.60000610352</ele>
        <time>2020-03-20T15:49:45.000Z</time>
      </trkpt>
      <trkpt lat="46.15016" lon="4.70789">
        <ele>215.39999389648</ele>
        <time>2020-03-20T15:49:57.000Z</time>
      </trkpt>
      <trkpt lat="46.15019" lon="4.70795">
        <ele>215.39999389648</ele>
        <time>2020-03-20T15:49:58.000Z</time>
      </trkpt>
      <trkpt lat="46.15028" lon="4.70819">
        <ele>215.39999389648</ele>
        <time>2020-03-20T15:50:03.000Z</time>
      </trkpt>
      <trkpt lat="46.15013" lon="4.70877">
        <ele>215.19999694824</ele>
        <time>2020-03-20T15:50:14.000Z</time>
      </trkpt>
      <trkpt lat="46.15015" lon="4.70887">
        <ele>214.80000305176</ele>
        <time>2020-03-20T15:50:16.000Z</time>
      </trkpt>
      <trkpt lat="46.1504" lon="4.70903">
        <ele>214.39999389648</ele>
        <time>2020-03-20T15:50:22.000Z</time>
      </trkpt>
      <trkpt lat="46.1508" lon="4.70905">
        <ele>211.80000305176</ele>
        <time>2020-03-20T15:50:29.000Z</time>
      </trkpt>
      <trkpt lat="46.15127" lon="4.70915">
        <ele>210.39999389648</ele>
        <time>2020-03-20T15:50:37.000Z</time>
      </trkpt>
      <trkpt lat="46.15148" lon="4.70933">
        <ele>210.39999389648</ele>
        <time>2020-03-20T15:50:42.000Z</time>
      </trkpt>
      <trkpt lat="46.15158" lon="4.70947">
        <ele>210.39999389648</ele>
        <time>2020-03-20T15:50:46.000Z</time>
      </trkpt>
      <trkpt lat="46.15213" lon="4.70963">
        <ele>213.39999389648</ele>
        <time>2020-03-20T15:50:59.000Z</time>
      </trkpt>
      <trkpt lat="46.15246" lon="4.70969">
        <ele>215</ele>
        <time>2020-03-20T15:51:07.000Z</time>
      </trkpt>
      <trkpt lat="46.15263" lon="4.70966">
        <ele>216.19999694824</ele>
        <time>2020-03-20T15:51:11.000Z</time>
      </trkpt>
      <trkpt lat="46.15341" lon="4.70958">
        <ele>217.60000610352</ele>
        <time>2020-03-20T15:51:29.000Z</time>
      </trkpt>
      <trkpt lat="46.15347" lon="4.70959">
        <ele>217.80000305176</ele>
        <time>2020-03-20T15:51:31.000Z</time>
      </trkpt>
      <trkpt lat="46.15355" lon="4.70932">
        <ele>219.39999389648</ele>
        <time>2020-03-20T15:51:39.000Z</time>
      </trkpt>
      <trkpt lat="46.15357" lon="4.70905">
        <ele>219.80000305176</ele>
        <time>2020-03-20T15:51:43.000Z</time>
      </trkpt>
      <trkpt lat="46.15358" lon="4.70881">
        <ele>219.80000305176</ele>
        <time>2020-03-20T15:51:46.000Z</time>
      </trkpt>
      <trkpt lat="46.15363" lon="4.70818">
        <ele>219</ele>
        <time>2020-03-20T15:51:54.000Z</time>
      </trkpt>
      <trkpt lat="46.15379" lon="4.70779">
        <ele>218.80000305176</ele>
        <time>2020-03-20T15:52:00.000Z</time>
      </trkpt>
      <trkpt lat="46.15387" lon="4.70768">
        <ele>219</ele>
        <time>2020-03-20T15:52:02.000Z</time>
      </trkpt>
      <trkpt lat="46.15405" lon="4.70761">
        <ele>219.19999694824</ele>
        <time>2020-03-20T15:52:06.000Z</time>
      </trkpt>
      <trkpt lat="46.155" lon="4.70833">
        <ele>222.39999389648</ele>
        <time>2020-03-20T15:52:27.000Z</time>
      </trkpt>
      <trkpt lat="46.15576" lon="4.70905">
        <ele>224.60000610352</ele>
        <time>2020-03-20T15:52:45.000Z</time>
      </trkpt>
      <trkpt lat="46.15667" lon="4.70958">
        <ele>226.80000305176</ele>
        <time>2020-03-20T15:53:04.000Z</time>
      </trkpt>
      <trkpt lat="46.15762" lon="4.71019">
        <ele>228</ele>
        <time>2020-03-20T15:53:24.000Z</time>
      </trkpt>
      <trkpt lat="46.15794" lon="4.71036">
        <ele>228.80000305176</ele>
        <time>2020-03-20T15:53:31.000Z</time>
      </trkpt>
      <trkpt lat="46.15805" lon="4.71047">
        <ele>229.19999694824</ele>
        <time>2020-03-20T15:53:34.000Z</time>
      </trkpt>
      <trkpt lat="46.15822" lon="4.71062">
        <ele>229.80000305176</ele>
        <time>2020-03-20T15:53:38.000Z</time>
      </trkpt>
      <trkpt lat="46.15832" lon="4.71099">
        <ele>230</ele>
        <time>2020-03-20T15:53:44.000Z</time>
      </trkpt>
      <trkpt lat="46.15833" lon="4.71213">
        <ele>229</ele>
        <time>2020-03-20T15:53:58.000Z</time>
      </trkpt>
      <trkpt lat="46.15834" lon="4.7123">
        <ele>228.60000610352</ele>
        <time>2020-03-20T15:54:00.000Z</time>
      </trkpt>
      <trkpt lat="46.15832" lon="4.71318">
        <ele>227.39999389648</ele>
        <time>2020-03-20T15:54:11.000Z</time>
      </trkpt>
      <trkpt lat="46.15841" lon="4.71353">
        <ele>226.60000610352</ele>
        <time>2020-03-20T15:54:16.000Z</time>
      </trkpt>
      <trkpt lat="46.15866" lon="4.71453">
        <ele>223.80000305176</ele>
        <time>2020-03-20T15:54:31.000Z</time>
      </trkpt>
      <trkpt lat="46.15867" lon="4.71456">
        <ele>223.80000305176</ele>
        <time>2020-03-20T15:54:37.000Z</time>
      </trkpt>
      <trkpt lat="46.15868" lon="4.71463">
        <ele>224.19999694824</ele>
        <time>2020-03-20T15:55:07.000Z</time>
      </trkpt>
      <trkpt lat="46.1587" lon="4.71467">
        <ele>224.19999694824</ele>
        <time>2020-03-20T15:55:09.000Z</time>
      </trkpt>
      <trkpt lat="46.1589" lon="4.71502">
        <ele>223.60000610352</ele>
        <time>2020-03-20T15:55:23.000Z</time>
      </trkpt>
      <trkpt lat="46.15903" lon="4.71553">
        <ele>223.19999694824</ele>
        <time>2020-03-20T15:55:35.000Z</time>
      </trkpt>
      <trkpt lat="46.15914" lon="4.71614">
        <ele>222.60000610352</ele>
        <time>2020-03-20T15:55:47.000Z</time>
      </trkpt>
      <trkpt lat="46.1592" lon="4.71633">
        <ele>222.39999389648</ele>
        <time>2020-03-20T15:55:52.000Z</time>
      </trkpt>
      <trkpt lat="46.15917" lon="4.71668">
        <ele>222.19999694824</ele>
        <time>2020-03-20T15:55:58.000Z</time>
      </trkpt>
      <trkpt lat="46.15891" lon="4.71757">
        <ele>221.19999694824</ele>
        <time>2020-03-20T15:56:12.000Z</time>
      </trkpt>
      <trkpt lat="46.15879" lon="4.71774">
        <ele>221.19999694824</ele>
        <time>2020-03-20T15:56:16.000Z</time>
      </trkpt>
      <trkpt lat="46.15869" lon="4.71798">
        <ele>221.39999389648</ele>
        <time>2020-03-20T15:56:20.000Z</time>
      </trkpt>
      <trkpt lat="46.15865" lon="4.71816">
        <ele>221.39999389648</ele>
        <time>2020-03-20T15:56:23.000Z</time>
      </trkpt>
      <trkpt lat="46.15854" lon="4.71859">
        <ele>221.39999389648</ele>
        <time>2020-03-20T15:56:31.000Z</time>
      </trkpt>
      <trkpt lat="46.15858" lon="4.71922">
        <ele>221</ele>
        <time>2020-03-20T15:56:41.000Z</time>
      </trkpt>
      <trkpt lat="46.15854" lon="4.7201">
        <ele>219</ele>
        <time>2020-03-20T15:56:53.000Z</time>
      </trkpt>
      <trkpt lat="46.15854" lon="4.72041">
        <ele>218</ele>
        <time>2020-03-20T15:56:58.000Z</time>
      </trkpt>
      <trkpt lat="46.15854" lon="4.72054">
        <ele>217.80000305176</ele>
        <time>2020-03-20T15:57:00.000Z</time>
      </trkpt>
      <trkpt lat="46.15863" lon="4.72109">
        <ele>217.39999389648</ele>
        <time>2020-03-20T15:57:11.000Z</time>
      </trkpt>
      <trkpt lat="46.15855" lon="4.72127">
        <ele>217.19999694824</ele>
        <time>2020-03-20T15:57:15.000Z</time>
      </trkpt>
      <trkpt lat="46.15831" lon="4.72144">
        <ele>217</ele>
        <time>2020-03-20T15:57:20.000Z</time>
      </trkpt>
      <trkpt lat="46.15806" lon="4.72162">
        <ele>216.39999389648</ele>
        <time>2020-03-20T15:57:25.000Z</time>
      </trkpt>
      <trkpt lat="46.15792" lon="4.72184">
        <ele>216</ele>
        <time>2020-03-20T15:57:29.000Z</time>
      </trkpt>
      <trkpt lat="46.1578" lon="4.72203">
        <ele>215.80000305176</ele>
        <time>2020-03-20T15:57:33.000Z</time>
      </trkpt>
      <trkpt lat="46.15789" lon="4.72218">
        <ele>215.80000305176</ele>
        <time>2020-03-20T15:57:38.000Z</time>
      </trkpt>
      <trkpt lat="46.15863" lon="4.72242">
        <ele>215</ele>
        <time>2020-03-20T15:57:53.000Z</time>
      </trkpt>
      <trkpt lat="46.15913" lon="4.72252">
        <ele>215</ele>
        <time>2020-03-20T15:58:03.000Z</time>
      </trkpt>
      <trkpt lat="46.15941" lon="4.72268">
        <ele>214.80000305176</ele>
        <time>2020-03-20T15:58:09.000Z</time>
      </trkpt>
      <trkpt lat="46.15951" lon="4.72277">
        <ele>214.80000305176</ele>
        <time>2020-03-20T15:58:11.000Z</time>
      </trkpt>
      <trkpt lat="46.16008" lon="4.72303">
        <ele>213</ele>
        <time>2020-03-20T15:58:21.000Z</time>
      </trkpt>
      <trkpt lat="46.16086" lon="4.72322">
        <ele>209.60000610352</ele>
        <time>2020-03-20T15:58:35.000Z</time>
      </trkpt>
      <trkpt lat="46.16104" lon="4.72327">
        <ele>207.39999389648</ele>
        <time>2020-03-20T15:58:42.000Z</time>
      </trkpt>
      <trkpt lat="46.16106" lon="4.72368">
        <ele>207</ele>
        <time>2020-03-20T15:58:48.000Z</time>
      </trkpt>
      <trkpt lat="46.16088" lon="4.72505">
        <ele>203.80000305176</ele>
        <time>2020-03-20T15:59:02.000Z</time>
      </trkpt>
      <trkpt lat="46.16085" lon="4.72547">
        <ele>202.60000610352</ele>
        <time>2020-03-20T15:59:06.000Z</time>
      </trkpt>
      <trkpt lat="46.16084" lon="4.72625">
        <ele>200</ele>
        <time>2020-03-20T15:59:14.000Z</time>
      </trkpt>
      <trkpt lat="46.16098" lon="4.72633">
        <ele>199.19999694824</ele>
        <time>2020-03-20T15:59:19.000Z</time>
      </trkpt>
      <trkpt lat="46.1615" lon="4.72621">
        <ele>198.39999389648</ele>
        <time>2020-03-20T15:59:31.000Z</time>
      </trkpt>
      <trkpt lat="46.16189" lon="4.72635">
        <ele>197.80000305176</ele>
        <time>2020-03-20T15:59:41.000Z</time>
      </trkpt>
      <trkpt lat="46.1619" lon="4.72636">
        <ele>198</ele>
        <time>2020-03-20T15:59:46.000Z</time>
      </trkpt>
      <trkpt lat="46.16202" lon="4.72633">
        <ele>198.39999389648</ele>
        <time>2020-03-20T15:59:58.000Z</time>
      </trkpt>
      <trkpt lat="46.16205" lon="4.72635">
        <ele>198.39999389648</ele>
        <time>2020-03-20T16:00:01.000Z</time>
      </trkpt>
      <trkpt lat="46.1621" lon="4.72638">
        <ele>198.39999389648</ele>
        <time>2020-03-20T16:00:03.000Z</time>
      </trkpt>
      <trkpt lat="46.16277" lon="4.72678">
        <ele>196.60000610352</ele>
        <time>2020-03-20T16:00:17.000Z</time>
      </trkpt>
      <trkpt lat="46.16333" lon="4.72692">
        <ele>196</ele>
        <time>2020-03-20T16:00:28.000Z</time>
      </trkpt>
      <trkpt lat="46.16407" lon="4.72679">
        <ele>195.39999389648</ele>
        <time>2020-03-20T16:00:42.000Z</time>
      </trkpt>
      <trkpt lat="46.16458" lon="4.7268">
        <ele>195.39999389648</ele>
        <time>2020-03-20T16:00:53.000Z</time>
      </trkpt>
      <trkpt lat="46.16522" lon="4.72685">
        <ele>198</ele>
        <time>2020-03-20T16:01:06.000Z</time>
      </trkpt>
      <trkpt lat="46.16534" lon="4.7269">
        <ele>198.19999694824</ele>
        <time>2020-03-20T16:01:10.000Z</time>
      </trkpt>
      <trkpt lat="46.16547" lon="4.72675">
        <ele>199.19999694824</ele>
        <time>2020-03-20T16:01:16.000Z</time>
      </trkpt>
      <trkpt lat="46.16606" lon="4.72682">
        <ele>200.80000305176</ele>
        <time>2020-03-20T16:01:28.000Z</time>
      </trkpt>
      <trkpt lat="46.1668" lon="4.72719">
        <ele>204</ele>
        <time>2020-03-20T16:01:43.000Z</time>
      </trkpt>
      <trkpt lat="46.16731" lon="4.72732">
        <ele>204.19999694824</ele>
        <time>2020-03-20T16:01:52.000Z</time>
      </trkpt>
      <trkpt lat="46.16754" lon="4.72725">
        <ele>204.19999694824</ele>
        <time>2020-03-20T16:01:57.000Z</time>
      </trkpt>
      <trkpt lat="46.16782" lon="4.72714">
        <ele>204.60000610352</ele>
        <time>2020-03-20T16:02:04.000Z</time>
      </trkpt>
      <trkpt lat="46.16827" lon="4.72711">
        <ele>206.19999694824</ele>
        <time>2020-03-20T16:02:16.000Z</time>
      </trkpt>
      <trkpt lat="46.16848" lon="4.7272">
        <ele>206.39999389648</ele>
        <time>2020-03-20T16:02:22.000Z</time>
      </trkpt>
      <trkpt lat="46.16867" lon="4.72734">
        <ele>206.39999389648</ele>
        <time>2020-03-20T16:02:27.000Z</time>
      </trkpt>
      <trkpt lat="46.16876" lon="4.72738">
        <ele>206.39999389648</ele>
        <time>2020-03-20T16:02:29.000Z</time>
      </trkpt>
      <trkpt lat="46.1691" lon="4.72742">
        <ele>206.19999694824</ele>
        <time>2020-03-20T16:02:38.000Z</time>
      </trkpt>
      <trkpt lat="46.16917" lon="4.72722">
        <ele>206.19999694824</ele>
        <time>2020-03-20T16:02:42.000Z</time>
      </trkpt>
      <trkpt lat="46.16919" lon="4.727">
        <ele>206.39999389648</ele>
        <time>2020-03-20T16:02:45.000Z</time>
      </trkpt>
      <trkpt lat="46.16916" lon="4.7259">
        <ele>207.60000610352</ele>
        <time>2020-03-20T16:02:59.000Z</time>
      </trkpt>
      <trkpt lat="46.16909" lon="4.7256">
        <ele>207.80000305176</ele>
        <time>2020-03-20T16:03:03.000Z</time>
      </trkpt>
      <trkpt lat="46.16905" lon="4.72454">
        <ele>208.60000610352</ele>
        <time>2020-03-20T16:03:16.000Z</time>
      </trkpt>
      <trkpt lat="46.16899" lon="4.72396">
        <ele>209.19999694824</ele>
        <time>2020-03-20T16:03:24.000Z</time>
      </trkpt>
      <trkpt lat="46.16898" lon="4.72356">
        <ele>210.19999694824</ele>
        <time>2020-03-20T16:03:30.000Z</time>
      </trkpt>
      <trkpt lat="46.16907" lon="4.72341">
        <ele>210.80000305176</ele>
        <time>2020-03-20T16:03:35.000Z</time>
      </trkpt>
      <trkpt lat="46.16995" lon="4.72378">
        <ele>210.19999694824</ele>
        <time>2020-03-20T16:03:51.000Z</time>
      </trkpt>
      <trkpt lat="46.17015" lon="4.72381">
        <ele>210</ele>
        <time>2020-03-20T16:03:55.000Z</time>
      </trkpt>
      <trkpt lat="46.17031" lon="4.72378">
        <ele>210</ele>
        <time>2020-03-20T16:03:58.000Z</time>
      </trkpt>
      <trkpt lat="46.17051" lon="4.72382">
        <ele>210</ele>
        <time>2020-03-20T16:04:02.000Z</time>
      </trkpt>
      <trkpt lat="46.17069" lon="4.72385">
        <ele>210</ele>
        <time>2020-03-20T16:04:06.000Z</time>
      </trkpt>
      <trkpt lat="46.17138" lon="4.72414">
        <ele>208.60000610352</ele>
        <time>2020-03-20T16:04:19.000Z</time>
      </trkpt>
      <trkpt lat="46.17181" lon="4.72429">
        <ele>207.60000610352</ele>
        <time>2020-03-20T16:04:27.000Z</time>
      </trkpt>
      <trkpt lat="46.17201" lon="4.72437">
        <ele>207.19999694824</ele>
        <time>2020-03-20T16:04:33.000Z</time>
      </trkpt>
      <trkpt lat="46.17272" lon="4.7247">
        <ele>205</ele>
        <time>2020-03-20T16:04:45.000Z</time>
      </trkpt>
      <trkpt lat="46.17331" lon="4.72499">
        <ele>202.60000610352</ele>
        <time>2020-03-20T16:04:54.000Z</time>
      </trkpt>
      <trkpt lat="46.17399" lon="4.72565">
        <ele>199.80000305176</ele>
        <time>2020-03-20T16:05:04.000Z</time>
      </trkpt>
      <trkpt lat="46.1742" lon="4.72589">
        <ele>196.19999694824</ele>
        <time>2020-03-20T16:05:08.000Z</time>
      </trkpt>
      <trkpt lat="46.17425" lon="4.72595">
        <ele>195.60000610352</ele>
        <time>2020-03-20T16:05:09.000Z</time>
      </trkpt>
      <trkpt lat="46.17432" lon="4.72607">
        <ele>195.19999694824</ele>
        <time>2020-03-20T16:05:11.000Z</time>
      </trkpt>
      <trkpt lat="46.17447" lon="4.72633">
        <ele>195</ele>
        <time>2020-03-20T16:05:15.000Z</time>
      </trkpt>
      <trkpt lat="46.17476" lon="4.72663">
        <ele>194.60000610352</ele>
        <time>2020-03-20T16:05:21.000Z</time>
      </trkpt>
      <trkpt lat="46.17479" lon="4.72669">
        <ele>194.60000610352</ele>
        <time>2020-03-20T16:05:22.000Z</time>
      </trkpt>
      <trkpt lat="46.17481" lon="4.72675">
        <ele>194.39999389648</ele>
        <time>2020-03-20T16:05:23.000Z</time>
      </trkpt>
      <trkpt lat="46.17483" lon="4.72682">
        <ele>194.19999694824</ele>
        <time>2020-03-20T16:05:24.000Z</time>
      </trkpt>
      <trkpt lat="46.17486" lon="4.72688">
        <ele>193.60000610352</ele>
        <time>2020-03-20T16:05:25.000Z</time>
      </trkpt>
      <trkpt lat="46.1749" lon="4.72691">
        <ele>193.60000610352</ele>
        <time>2020-03-20T16:05:26.000Z</time>
      </trkpt>
      <trkpt lat="46.17495" lon="4.72693">
        <ele>193.39999389648</ele>
        <time>2020-03-20T16:05:27.000Z</time>
      </trkpt>
      <trkpt lat="46.1751" lon="4.72699">
        <ele>193.39999389648</ele>
        <time>2020-03-20T16:05:30.000Z</time>
      </trkpt>
      <trkpt lat="46.17521" lon="4.72705">
        <ele>193.39999389648</ele>
        <time>2020-03-20T16:05:32.000Z</time>
      </trkpt>
      <trkpt lat="46.17554" lon="4.72716">
        <ele>193.80000305176</ele>
        <time>2020-03-20T16:05:38.000Z</time>
      </trkpt>
      <trkpt lat="46.17569" lon="4.72717">
        <ele>194</ele>
        <time>2020-03-20T16:05:41.000Z</time>
      </trkpt>
      <trkpt lat="46.17586" lon="4.72768">
        <ele>196.80000305176</ele>
        <time>2020-03-20T16:05:49.000Z</time>
      </trkpt>
      <trkpt lat="46.17589" lon="4.72775">
        <ele>196.80000305176</ele>
        <time>2020-03-20T16:05:50.000Z</time>
      </trkpt>
      <trkpt lat="46.17594" lon="4.7279">
        <ele>198.19999694824</ele>
        <time>2020-03-20T16:05:52.000Z</time>
      </trkpt>
      <trkpt lat="46.17609" lon="4.72826">
        <ele>198.60000610352</ele>
        <time>2020-03-20T16:05:57.000Z</time>
      </trkpt>
      <trkpt lat="46.17652" lon="4.72932">
        <ele>198.80000305176</ele>
        <time>2020-03-20T16:06:12.000Z</time>
      </trkpt>
      <trkpt lat="46.17668" lon="4.72972">
        <ele>202</ele>
        <time>2020-03-20T16:06:18.000Z</time>
      </trkpt>
      <trkpt lat="46.17676" lon="4.73">
        <ele>204.19999694824</ele>
        <time>2020-03-20T16:06:22.000Z</time>
      </trkpt>
      <trkpt lat="46.17698" lon="4.7307">
        <ele>206.80000305176</ele>
        <time>2020-03-20T16:06:32.000Z</time>
      </trkpt>
      <trkpt lat="46.17704" lon="4.73087">
        <ele>207.39999389648</ele>
        <time>2020-03-20T16:06:35.000Z</time>
      </trkpt>
      <trkpt lat="46.17707" lon="4.73092">
        <ele>207.60000610352</ele>
        <time>2020-03-20T16:06:36.000Z</time>
      </trkpt>
      <trkpt lat="46.17711" lon="4.73095">
        <ele>207.80000305176</ele>
        <time>2020-03-20T16:06:37.000Z</time>
      </trkpt>
      <trkpt lat="46.17716" lon="4.73097">
        <ele>207.80000305176</ele>
        <time>2020-03-20T16:06:38.000Z</time>
      </trkpt>
      <trkpt lat="46.1772" lon="4.73098">
        <ele>207.80000305176</ele>
        <time>2020-03-20T16:06:39.000Z</time>
      </trkpt>
      <trkpt lat="46.17725" lon="4.73098">
        <ele>208</ele>
        <time>2020-03-20T16:06:40.000Z</time>
      </trkpt>
      <trkpt lat="46.17748" lon="4.73099">
        <ele>208.80000305176</ele>
        <time>2020-03-20T16:06:46.000Z</time>
      </trkpt>
      <trkpt lat="46.1775" lon="4.73131">
        <ele>209.80000305176</ele>
        <time>2020-03-20T16:06:53.000Z</time>
      </trkpt>
      <trkpt lat="46.17748" lon="4.73146">
        <ele>210</ele>
        <time>2020-03-20T16:06:58.000Z</time>
      </trkpt>
      <trkpt lat="46.1777" lon="4.73159">
        <ele>210</ele>
        <time>2020-03-20T16:07:04.000Z</time>
      </trkpt>
      <trkpt lat="46.17828" lon="4.73187">
        <ele>208</ele>
        <time>2020-03-20T16:07:14.000Z</time>
      </trkpt>
      <trkpt lat="46.17857" lon="4.73198">
        <ele>207.60000610352</ele>
        <time>2020-03-20T16:07:19.000Z</time>
      </trkpt>
      <trkpt lat="46.17929" lon="4.73209">
        <ele>207.39999389648</ele>
        <time>2020-03-20T16:07:32.000Z</time>
      </trkpt>
      <trkpt lat="46.17962" lon="4.73207">
        <ele>208</ele>
        <time>2020-03-20T16:07:38.000Z</time>
      </trkpt>
      <trkpt lat="46.17982" lon="4.73208">
        <ele>208.39999389648</ele>
        <time>2020-03-20T16:07:42.000Z</time>
      </trkpt>
      <trkpt lat="46.18031" lon="4.73205">
        <ele>208.80000305176</ele>
        <time>2020-03-20T16:07:51.000Z</time>
      </trkpt>
      <trkpt lat="46.18063" lon="4.73219">
        <ele>209.60000610352</ele>
        <time>2020-03-20T16:08:00.000Z</time>
      </trkpt>
      <trkpt lat="46.18074" lon="4.73245">
        <ele>209.80000305176</ele>
        <time>2020-03-20T16:08:06.000Z</time>
      </trkpt>
      <trkpt lat="46.18094" lon="4.73258">
        <ele>209.80000305176</ele>
        <time>2020-03-20T16:08:11.000Z</time>
      </trkpt>
      <trkpt lat="46.18122" lon="4.73275">
        <ele>209.19999694824</ele>
        <time>2020-03-20T16:08:17.000Z</time>
      </trkpt>
      <trkpt lat="46.18171" lon="4.73308">
        <ele>208.80000305176</ele>
        <time>2020-03-20T16:08:30.000Z</time>
      </trkpt>
      <trkpt lat="46.18174" lon="4.73309">
        <ele>208.80000305176</ele>
        <time>2020-03-20T16:08:31.000Z</time>
      </trkpt>
      <trkpt lat="46.18191" lon="4.73312">
        <ele>208.60000610352</ele>
        <time>2020-03-20T16:08:36.000Z</time>
      </trkpt>
      <trkpt lat="46.18227" lon="4.73331">
        <ele>208.39999389648</ele>
        <time>2020-03-20T16:08:43.000Z</time>
      </trkpt>
      <trkpt lat="46.18271" lon="4.73383">
        <ele>207.19999694824</ele>
        <time>2020-03-20T16:08:53.000Z</time>
      </trkpt>
      <trkpt lat="46.18289" lon="4.73397">
        <ele>206.60000610352</ele>
        <time>2020-03-20T16:08:57.000Z</time>
      </trkpt>
      <trkpt lat="46.18324" lon="4.7341">
        <ele>205.80000305176</ele>
        <time>2020-03-20T16:09:04.000Z</time>
      </trkpt>
      <trkpt lat="46.18349" lon="4.73394">
        <ele>203.39999389648</ele>
        <time>2020-03-20T16:09:12.000Z</time>
      </trkpt>
      <trkpt lat="46.18355" lon="4.73376">
        <ele>202.19999694824</ele>
        <time>2020-03-20T16:09:15.000Z</time>
      </trkpt>
      <trkpt lat="46.18365" lon="4.73361">
        <ele>201.39999389648</ele>
        <time>2020-03-20T16:09:19.000Z</time>
      </trkpt>
      <trkpt lat="46.18383" lon="4.73369">
        <ele>200.60000610352</ele>
        <time>2020-03-20T16:09:23.000Z</time>
      </trkpt>
      <trkpt lat="46.18399" lon="4.73392">
        <ele>199.39999389648</ele>
        <time>2020-03-20T16:09:29.000Z</time>
      </trkpt>
      <trkpt lat="46.18409" lon="4.73412">
        <ele>198.80000305176</ele>
        <time>2020-03-20T16:09:32.000Z</time>
      </trkpt>
      <trkpt lat="46.18407" lon="4.73447">
        <ele>198.39999389648</ele>
        <time>2020-03-20T16:09:37.000Z</time>
      </trkpt>
      <trkpt lat="46.18388" lon="4.73484">
        <ele>197.80000305176</ele>
        <time>2020-03-20T16:09:42.000Z</time>
      </trkpt>
      <trkpt lat="46.18387" lon="4.73494">
        <ele>197.80000305176</ele>
        <time>2020-03-20T16:09:44.000Z</time>
      </trkpt>
      <trkpt lat="46.18389" lon="4.73499">
        <ele>197.60000610352</ele>
        <time>2020-03-20T16:09:45.000Z</time>
      </trkpt>
      <trkpt lat="46.18392" lon="4.73501">
        <ele>197.60000610352</ele>
        <time>2020-03-20T16:09:46.000Z</time>
      </trkpt>
      <trkpt lat="46.18396" lon="4.73502">
        <ele>197.60000610352</ele>
        <time>2020-03-20T16:09:47.000Z</time>
      </trkpt>
      <trkpt lat="46.18401" lon="4.73503">
        <ele>197.60000610352</ele>
        <time>2020-03-20T16:09:48.000Z</time>
      </trkpt>
      <trkpt lat="46.18484" lon="4.73516">
        <ele>198.19999694824</ele>
        <time>2020-03-20T16:10:02.000Z</time>
      </trkpt>
      <trkpt lat="46.18494" lon="4.73516">
        <ele>198.60000610352</ele>
        <time>2020-03-20T16:10:04.000Z</time>
      </trkpt>
      <trkpt lat="46.18521" lon="4.73528">
        <ele>202.39999389648</ele>
        <time>2020-03-20T16:10:14.000Z</time>
      </trkpt>
      <trkpt lat="46.1852" lon="4.73526">
        <ele>203.19999694824</ele>
        <time>2020-03-20T16:10:18.000Z</time>
      </trkpt>
      <trkpt lat="46.18522" lon="4.73532">
        <ele>204.39999389648</ele>
        <time>2020-03-20T16:10:25.000Z</time>
      </trkpt>
      <trkpt lat="46.18518" lon="4.7355">
        <ele>204.39999389648</ele>
        <time>2020-03-20T16:10:29.000Z</time>
      </trkpt>
      <trkpt lat="46.18507" lon="4.73584">
        <ele>204.39999389648</ele>
        <time>2020-03-20T16:10:34.000Z</time>
      </trkpt>
      <trkpt lat="46.18506" lon="4.73617">
        <ele>203.39999389648</ele>
        <time>2020-03-20T16:10:38.000Z</time>
      </trkpt>
      <trkpt lat="46.18508" lon="4.73666">
        <ele>201.80000305176</ele>
        <time>2020-03-20T16:10:44.000Z</time>
      </trkpt>
      <trkpt lat="46.18512" lon="4.73701">
        <ele>201</ele>
        <time>2020-03-20T16:10:49.000Z</time>
      </trkpt>
      <trkpt lat="46.18512" lon="4.73706">
        <ele>200.80000305176</ele>
        <time>2020-03-20T16:10:50.000Z</time>
      </trkpt>
      <trkpt lat="46.18513" lon="4.73711">
        <ele>200.80000305176</ele>
        <time>2020-03-20T16:10:51.000Z</time>
      </trkpt>
      <trkpt lat="46.18522" lon="4.73722">
        <ele>200.60000610352</ele>
        <time>2020-03-20T16:10:54.000Z</time>
      </trkpt>
      <trkpt lat="46.18541" lon="4.73732">
        <ele>200.60000610352</ele>
        <time>2020-03-20T16:10:59.000Z</time>
      </trkpt>
      <trkpt lat="46.18557" lon="4.7374">
        <ele>200.60000610352</ele>
        <time>2020-03-20T16:11:03.000Z</time>
      </trkpt>
      <trkpt lat="46.18578" lon="4.73747">
        <ele>200.19999694824</ele>
        <time>2020-03-20T16:11:09.000Z</time>
      </trkpt>
      <trkpt lat="46.18576" lon="4.73777">
        <ele>199.80000305176</ele>
        <time>2020-03-20T16:11:14.000Z</time>
      </trkpt>
      <trkpt lat="46.18583" lon="4.73826">
        <ele>199.60000610352</ele>
        <time>2020-03-20T16:11:19.000Z</time>
      </trkpt>
      <trkpt lat="46.186" lon="4.7388">
        <ele>197.80000305176</ele>
        <time>2020-03-20T16:11:24.000Z</time>
      </trkpt>
      <trkpt lat="46.18604" lon="4.73926">
        <ele>196.19999694824</ele>
        <time>2020-03-20T16:11:28.000Z</time>
      </trkpt>
      <trkpt lat="46.186" lon="4.73955">
        <ele>195.19999694824</ele>
        <time>2020-03-20T16:11:31.000Z</time>
      </trkpt>
      <trkpt lat="46.18592" lon="4.73982">
        <ele>194.39999389648</ele>
        <time>2020-03-20T16:11:37.000Z</time>
      </trkpt>
      <trkpt lat="46.18607" lon="4.73994">
        <ele>194</ele>
        <time>2020-03-20T16:11:42.000Z</time>
      </trkpt>
      <trkpt lat="46.18627" lon="4.73997">
        <ele>193.80000305176</ele>
        <time>2020-03-20T16:11:45.000Z</time>
      </trkpt>
      <trkpt lat="46.18672" lon="4.74">
        <ele>193.19999694824</ele>
        <time>2020-03-20T16:11:52.000Z</time>
      </trkpt>
      <trkpt lat="46.18683" lon="4.74004">
        <ele>192.80000305176</ele>
        <time>2020-03-20T16:11:54.000Z</time>
      </trkpt>
      <trkpt lat="46.18676" lon="4.74041">
        <ele>192.19999694824</ele>
        <time>2020-03-20T16:12:00.000Z</time>
      </trkpt>
      <trkpt lat="46.18645" lon="4.74083">
        <ele>191.19999694824</ele>
        <time>2020-03-20T16:12:08.000Z</time>
      </trkpt>
      <trkpt lat="46.1865" lon="4.74107">
        <ele>190.60000610352</ele>
        <time>2020-03-20T16:12:13.000Z</time>
      </trkpt>
      <trkpt lat="46.18673" lon="4.74117">
        <ele>190.60000610352</ele>
        <time>2020-03-20T16:12:17.000Z</time>
      </trkpt>
      <trkpt lat="46.1872" lon="4.74144">
        <ele>190.39999389648</ele>
        <time>2020-03-20T16:12:25.000Z</time>
      </trkpt>
      <trkpt lat="46.18789" lon="4.74178">
        <ele>189.80000305176</ele>
        <time>2020-03-20T16:12:38.000Z</time>
      </trkpt>
      <trkpt lat="46.18796" lon="4.74179">
        <ele>189.80000305176</ele>
        <time>2020-03-20T16:12:41.000Z</time>
      </trkpt>
      <trkpt lat="46.18867" lon="4.74194">
        <ele>190</ele>
        <time>2020-03-20T16:12:53.000Z</time>
      </trkpt>
      <trkpt lat="46.1896" lon="4.74205">
        <ele>190.39999389648</ele>
        <time>2020-03-20T16:13:08.000Z</time>
      </trkpt>
      <trkpt lat="46.19048" lon="4.74216">
        <ele>190.80000305176</ele>
        <time>2020-03-20T16:13:22.000Z</time>
      </trkpt>
      <trkpt lat="46.1916" lon="4.74219">
        <ele>190</ele>
        <time>2020-03-20T16:13:39.000Z</time>
      </trkpt>
      <trkpt lat="46.19192" lon="4.74218">
        <ele>189</ele>
        <time>2020-03-20T16:13:44.000Z</time>
      </trkpt>
      <trkpt lat="46.19196" lon="4.74216">
        <ele>188.39999389648</ele>
        <time>2020-03-20T16:13:45.000Z</time>
      </trkpt>
      <trkpt lat="46.19201" lon="4.74212">
        <ele>188</ele>
        <time>2020-03-20T16:13:46.000Z</time>
      </trkpt>
      <trkpt lat="46.19206" lon="4.74207">
        <ele>187.39999389648</ele>
        <time>2020-03-20T16:13:47.000Z</time>
      </trkpt>
      <trkpt lat="46.19209" lon="4.742">
        <ele>187.19999694824</ele>
        <time>2020-03-20T16:13:48.000Z</time>
      </trkpt>
      <trkpt lat="46.19212" lon="4.74192">
        <ele>186.80000305176</ele>
        <time>2020-03-20T16:13:49.000Z</time>
      </trkpt>
      <trkpt lat="46.19219" lon="4.74168">
        <ele>186.60000610352</ele>
        <time>2020-03-20T16:13:52.000Z</time>
      </trkpt>
      <trkpt lat="46.19222" lon="4.74127">
        <ele>186.60000610352</ele>
        <time>2020-03-20T16:13:57.000Z</time>
      </trkpt>
      <trkpt lat="46.19217" lon="4.74096">
        <ele>186.60000610352</ele>
        <time>2020-03-20T16:14:01.000Z</time>
      </trkpt>
      <trkpt lat="46.19209" lon="4.74048">
        <ele>187</ele>
        <time>2020-03-20T16:14:07.000Z</time>
      </trkpt>
      <trkpt lat="46.19209" lon="4.74017">
        <ele>187.39999389648</ele>
        <time>2020-03-20T16:14:11.000Z</time>
      </trkpt>
      <trkpt lat="46.19212" lon="4.74005">
        <ele>187.39999389648</ele>
        <time>2020-03-20T16:14:13.000Z</time>
      </trkpt>
      <trkpt lat="46.19213" lon="4.73986">
        <ele>187.80000305176</ele>
        <time>2020-03-20T16:14:16.000Z</time>
      </trkpt>
      <trkpt lat="46.19213" lon="4.73981">
        <ele>187.80000305176</ele>
        <time>2020-03-20T16:14:17.000Z</time>
      </trkpt>
      <trkpt lat="46.19213" lon="4.73976">
        <ele>187.80000305176</ele>
        <time>2020-03-20T16:14:18.000Z</time>
      </trkpt>
      <trkpt lat="46.19231" lon="4.73978">
        <ele>188</ele>
        <time>2020-03-20T16:14:23.000Z</time>
      </trkpt>
      <trkpt lat="46.1923" lon="4.73984">
        <ele>188</ele>
        <time>2020-03-20T16:14:24.000Z</time>
      </trkpt>
      <trkpt lat="46.19229" lon="4.73992">
        <ele>188</ele>
        <time>2020-03-20T16:14:25.000Z</time>
      </trkpt>
      <trkpt lat="46.19224" lon="4.74018">
        <ele>188</ele>
        <time>2020-03-20T16:14:28.000Z</time>
      </trkpt>
      <trkpt lat="46.19226" lon="4.74064">
        <ele>187.39999389648</ele>
        <time>2020-03-20T16:14:33.000Z</time>
      </trkpt>
      <trkpt lat="46.19232" lon="4.74082">
        <ele>186.39999389648</ele>
        <time>2020-03-20T16:14:35.000Z</time>
      </trkpt>
      <trkpt lat="46.19249" lon="4.7412">
        <ele>185.60000610352</ele>
        <time>2020-03-20T16:14:40.000Z</time>
      </trkpt>
      <trkpt lat="46.19258" lon="4.74175">
        <ele>185.39999389648</ele>
        <time>2020-03-20T16:14:46.000Z</time>
      </trkpt>
      <trkpt lat="46.19261" lon="4.74183">
        <ele>185.39999389648</ele>
        <time>2020-03-20T16:14:47.000Z</time>
      </trkpt>
      <trkpt lat="46.19264" lon="4.7419">
        <ele>185.19999694824</ele>
        <time>2020-03-20T16:14:48.000Z</time>
      </trkpt>
      <trkpt lat="46.19283" lon="4.74213">
        <ele>184.60000610352</ele>
        <time>2020-03-20T16:14:52.000Z</time>
      </trkpt>
      <trkpt lat="46.19355" lon="4.74274">
        <ele>183.39999389648</ele>
        <time>2020-03-20T16:15:05.000Z</time>
      </trkpt>
      <trkpt lat="46.19384" lon="4.74299">
        <ele>183.19999694824</ele>
        <time>2020-03-20T16:15:11.000Z</time>
      </trkpt>
      <trkpt lat="46.19399" lon="4.74329">
        <ele>183</ele>
        <time>2020-03-20T16:15:15.000Z</time>
      </trkpt>
      <trkpt lat="46.19407" lon="4.74364">
        <ele>182.60000610352</ele>
        <time>2020-03-20T16:15:19.000Z</time>
      </trkpt>
      <trkpt lat="46.19408" lon="4.74381">
        <ele>182.60000610352</ele>
        <time>2020-03-20T16:15:21.000Z</time>
      </trkpt>
      <trkpt lat="46.19386" lon="4.74477">
        <ele>182.19999694824</ele>
        <time>2020-03-20T16:15:32.000Z</time>
      </trkpt>
      <trkpt lat="46.19374" lon="4.74521">
        <ele>181.80000305176</ele>
        <time>2020-03-20T16:15:37.000Z</time>
      </trkpt>
      <trkpt lat="46.19358" lon="4.74646">
        <ele>181.19999694824</ele>
        <time>2020-03-20T16:15:51.000Z</time>
      </trkpt>
      <trkpt lat="46.19356" lon="4.74664">
        <ele>181</ele>
        <time>2020-03-20T16:15:53.000Z</time>
      </trkpt>
      <trkpt lat="46.19351" lon="4.74801">
        <ele>180.19999694824</ele>
        <time>2020-03-20T16:16:08.000Z</time>
      </trkpt>
      <trkpt lat="46.19349" lon="4.74884">
        <ele>179.39999389648</ele>
        <time>2020-03-20T16:16:17.000Z</time>
      </trkpt>
      <trkpt lat="46.19347" lon="4.74893">
        <ele>179.39999389648</ele>
        <time>2020-03-20T16:16:18.000Z</time>
      </trkpt>
      <trkpt lat="46.19298" lon="4.75012">
        <ele>178.60000610352</ele>
        <time>2020-03-20T16:16:33.000Z</time>
      </trkpt>
      <trkpt lat="46.19263" lon="4.75118">
        <ele>178</ele>
        <time>2020-03-20T16:16:46.000Z</time>
      </trkpt>
      <trkpt lat="46.19264" lon="4.75152">
        <ele>178</ele>
        <time>2020-03-20T16:16:50.000Z</time>
      </trkpt>
      <trkpt lat="46.19267" lon="4.7517">
        <ele>178</ele>
        <time>2020-03-20T16:16:52.000Z</time>
      </trkpt>
      <trkpt lat="46.1927" lon="4.75187">
        <ele>178</ele>
        <time>2020-03-20T16:16:54.000Z</time>
      </trkpt>
      <trkpt lat="46.19277" lon="4.75297">
        <ele>177.60000610352</ele>
        <time>2020-03-20T16:17:06.000Z</time>
      </trkpt>
      <trkpt lat="46.19281" lon="4.75316">
        <ele>177.39999389648</ele>
        <time>2020-03-20T16:17:08.000Z</time>
      </trkpt>
      <trkpt lat="46.19284" lon="4.75412">
        <ele>176.19999694824</ele>
        <time>2020-03-20T16:17:18.000Z</time>
      </trkpt>
      <trkpt lat="46.19282" lon="4.75481">
        <ele>175.80000305176</ele>
        <time>2020-03-20T16:17:26.000Z</time>
      </trkpt>
      <trkpt lat="46.19298" lon="4.75511">
        <ele>176.39999389648</ele>
        <time>2020-03-20T16:17:31.000Z</time>
      </trkpt>
      <trkpt lat="46.19315" lon="4.75526">
        <ele>177</ele>
        <time>2020-03-20T16:17:34.000Z</time>
      </trkpt>
      <trkpt lat="46.19389" lon="4.75602">
        <ele>176.60000610352</ele>
        <time>2020-03-20T16:17:48.000Z</time>
      </trkpt>
      <trkpt lat="46.19473" lon="4.75678">
        <ele>176.60000610352</ele>
        <time>2020-03-20T16:18:04.000Z</time>
      </trkpt>
      <trkpt lat="46.19523" lon="4.75725">
        <ele>178</ele>
        <time>2020-03-20T16:18:15.000Z</time>
      </trkpt>
      <trkpt lat="46.19552" lon="4.75734">
        <ele>178.60000610352</ele>
        <time>2020-03-20T16:18:20.000Z</time>
      </trkpt>
      <trkpt lat="46.19592" lon="4.75725">
        <ele>179</ele>
        <time>2020-03-20T16:18:27.000Z</time>
      </trkpt>
      <trkpt lat="46.19608" lon="4.75725">
        <ele>179.19999694824</ele>
        <time>2020-03-20T16:18:30.000Z</time>
      </trkpt>
      <trkpt lat="46.19671" lon="4.75771">
        <ele>180.39999389648</ele>
        <time>2020-03-20T16:18:42.000Z</time>
      </trkpt>
      <trkpt lat="46.19685" lon="4.75786">
        <ele>181.19999694824</ele>
        <time>2020-03-20T16:18:45.000Z</time>
      </trkpt>
      <trkpt lat="46.19701" lon="4.75812">
        <ele>181.39999389648</ele>
        <time>2020-03-20T16:18:49.000Z</time>
      </trkpt>
      <trkpt lat="46.1974" lon="4.75881">
        <ele>180.80000305176</ele>
        <time>2020-03-20T16:18:58.000Z</time>
      </trkpt>
      <trkpt lat="46.19788" lon="4.75934">
        <ele>177.60000610352</ele>
        <time>2020-03-20T16:19:06.000Z</time>
      </trkpt>
      <trkpt lat="46.19859" lon="4.75994">
        <ele>176.19999694824</ele>
        <time>2020-03-20T16:19:19.000Z</time>
      </trkpt>
      <trkpt lat="46.19922" lon="4.7605">
        <ele>177</ele>
        <time>2020-03-20T16:19:33.000Z</time>
      </trkpt>
      <trkpt lat="46.19946" lon="4.76059">
        <ele>178.60000610352</ele>
        <time>2020-03-20T16:19:43.000Z</time>
      </trkpt>
      <trkpt lat="46.19956" lon="4.76062">
        <ele>178.80000305176</ele>
        <time>2020-03-20T16:19:47.000Z</time>
      </trkpt>
      <trkpt lat="46.20015" lon="4.7611">
        <ele>177.80000305176</ele>
        <time>2020-03-20T16:19:59.000Z</time>
      </trkpt>
      <trkpt lat="46.2006" lon="4.76149">
        <ele>176.80000305176</ele>
        <time>2020-03-20T16:20:08.000Z</time>
      </trkpt>
      <trkpt lat="46.20069" lon="4.76156">
        <ele>176.80000305176</ele>
        <time>2020-03-20T16:20:10.000Z</time>
      </trkpt>
      <trkpt lat="46.20123" lon="4.76204">
        <ele>176.80000305176</ele>
        <time>2020-03-20T16:20:22.000Z</time>
      </trkpt>
      <trkpt lat="46.20126" lon="4.76206">
        <ele>176.80000305176</ele>
        <time>2020-03-20T16:20:23.000Z</time>
      </trkpt>
      <trkpt lat="46.20167" lon="4.76242">
        <ele>177.19999694824</ele>
        <time>2020-03-20T16:20:33.000Z</time>
      </trkpt>
      <trkpt lat="46.20172" lon="4.76245">
        <ele>177.19999694824</ele>
        <time>2020-03-20T16:20:34.000Z</time>
      </trkpt>
      <trkpt lat="46.20241" lon="4.76311">
        <ele>177.39999389648</ele>
        <time>2020-03-20T16:20:49.000Z</time>
      </trkpt>
      <trkpt lat="46.20306" lon="4.76369">
        <ele>179.19999694824</ele>
        <time>2020-03-20T16:21:02.000Z</time>
      </trkpt>
      <trkpt lat="46.20385" lon="4.76442">
        <ele>180.60000610352</ele>
        <time>2020-03-20T16:21:18.000Z</time>
      </trkpt>
      <trkpt lat="46.2045" lon="4.76502">
        <ele>183.39999389648</ele>
        <time>2020-03-20T16:21:32.000Z</time>
      </trkpt>
      <trkpt lat="46.20495" lon="4.76541">
        <ele>185.60000610352</ele>
        <time>2020-03-20T16:21:44.000Z</time>
      </trkpt>
      <trkpt lat="46.2052" lon="4.76562">
        <ele>186.60000610352</ele>
        <time>2020-03-20T16:21:51.000Z</time>
      </trkpt>
      <trkpt lat="46.20532" lon="4.76555">
        <ele>187.19999694824</ele>
        <time>2020-03-20T16:21:55.000Z</time>
      </trkpt>
      <trkpt lat="46.20569" lon="4.76482">
        <ele>190.80000305176</ele>
        <time>2020-03-20T16:22:08.000Z</time>
      </trkpt>
      <trkpt lat="46.20603" lon="4.76414">
        <ele>191.60000610352</ele>
        <time>2020-03-20T16:22:19.000Z</time>
      </trkpt>
      <trkpt lat="46.20662" lon="4.76304">
        <ele>193</ele>
        <time>2020-03-20T16:22:36.000Z</time>
      </trkpt>
      <trkpt lat="46.20684" lon="4.76255">
        <ele>193.80000305176</ele>
        <time>2020-03-20T16:22:45.000Z</time>
      </trkpt>
      <trkpt lat="46.20694" lon="4.76237">
        <ele>194</ele>
        <time>2020-03-20T16:22:49.000Z</time>
      </trkpt>
      <trkpt lat="46.20704" lon="4.76224">
        <ele>194.19999694824</ele>
        <time>2020-03-20T16:22:52.000Z</time>
      </trkpt>
      <trkpt lat="46.20752" lon="4.76145">
        <ele>194.19999694824</ele>
        <time>2020-03-20T16:23:05.000Z</time>
      </trkpt>
      <trkpt lat="46.20772" lon="4.76109">
        <ele>194.19999694824</ele>
        <time>2020-03-20T16:23:11.000Z</time>
      </trkpt>
      <trkpt lat="46.20829" lon="4.7606">
        <ele>194.60000610352</ele>
        <time>2020-03-20T16:23:23.000Z</time>
      </trkpt>
      <trkpt lat="46.20869" lon="4.76027">
        <ele>195.19999694824</ele>
        <time>2020-03-20T16:23:34.000Z</time>
      </trkpt>
      <trkpt lat="46.20879" lon="4.76003">
        <ele>195.39999389648</ele>
        <time>2020-03-20T16:23:38.000Z</time>
      </trkpt>
      <trkpt lat="46.20919" lon="4.75861">
        <ele>196</ele>
        <time>2020-03-20T16:23:55.000Z</time>
      </trkpt>
      <trkpt lat="46.20965" lon="4.75708">
        <ele>197.39999389648</ele>
        <time>2020-03-20T16:24:14.000Z</time>
      </trkpt>
      <trkpt lat="46.20974" lon="4.75669">
        <ele>198</ele>
        <time>2020-03-20T16:24:19.000Z</time>
      </trkpt>
      <trkpt lat="46.20972" lon="4.75615">
        <ele>199</ele>
        <time>2020-03-20T16:24:26.000Z</time>
      </trkpt>
      <trkpt lat="46.20992" lon="4.75603">
        <ele>200</ele>
        <time>2020-03-20T16:24:32.000Z</time>
      </trkpt>
      <trkpt lat="46.21008" lon="4.75613">
        <ele>200.80000305176</ele>
        <time>2020-03-20T16:24:35.000Z</time>
      </trkpt>
      <trkpt lat="46.21027" lon="4.75626">
        <ele>201.39999389648</ele>
        <time>2020-03-20T16:24:39.000Z</time>
      </trkpt>
      <trkpt lat="46.21041" lon="4.75639">
        <ele>202.19999694824</ele>
        <time>2020-03-20T16:24:44.000Z</time>
      </trkpt>
      <trkpt lat="46.21045" lon="4.7564">
        <ele>202.80000305176</ele>
        <time>2020-03-20T16:24:46.000Z</time>
      </trkpt>
      <trkpt lat="46.21059" lon="4.75622">
        <ele>203.19999694824</ele>
        <time>2020-03-20T16:24:50.000Z</time>
      </trkpt>
      <trkpt lat="46.21079" lon="4.75561">
        <ele>203.60000610352</ele>
        <time>2020-03-20T16:24:58.000Z</time>
      </trkpt>
      <trkpt lat="46.2108" lon="4.75553">
        <ele>203.80000305176</ele>
        <time>2020-03-20T16:24:59.000Z</time>
      </trkpt>
      <trkpt lat="46.21105" lon="4.75526">
        <ele>204.19999694824</ele>
        <time>2020-03-20T16:25:06.000Z</time>
      </trkpt>
      <trkpt lat="46.2111" lon="4.7553">
        <ele>204.39999389648</ele>
        <time>2020-03-20T16:25:07.000Z</time>
      </trkpt>
      <trkpt lat="46.212" lon="4.75593">
        <ele>201.39999389648</ele>
        <time>2020-03-20T16:25:19.000Z</time>
      </trkpt>
    </trkseg>
  </trk>
</gpx>